<?xml version="1.0" encoding="UTF-8" standalone="no" ?>
<gpx xmlns="http://www.topografix.com/GPX/1/1" xmlns:xsi="http://www.w3.org/2001/XMLSchema-instance" xsi:schemaLocation="http://www.topografix.com/GPX/1/1 http://www.topografix.com/GPX/1/1/gpx.xsd" version="1.1" creator="VisuGPX - https://www.visugpx.com">
  <metadata>
    <name>Sortie gravel le matin</name>
  </metadata>
  <trk>
    <name><![CDATA[Sortie gravel le matin_1]]></name>
    <trkseg>
      <trkpt lat="43.5868" lon="1.32223">
        <ele>193.4</ele>
        <time>2023-04-28T04:49:13Z</time>
      </trkpt>
      <trkpt lat="43.5868" lon="1.32223">
        <ele>184.6</ele>
        <time>2023-04-28T04:49:15Z</time>
      </trkpt>
      <trkpt lat="43.58667" lon="1.3223">
        <ele>184.8</ele>
        <time>2023-04-28T04:49:22Z</time>
      </trkpt>
      <trkpt lat="43.58665" lon="1.32227">
        <ele>184.8</ele>
        <time>2023-04-28T04:49:25Z</time>
      </trkpt>
      <trkpt lat="43.58666" lon="1.32227">
        <ele>184.8</ele>
        <time>2023-04-28T04:49:27Z</time>
      </trkpt>
      <trkpt lat="43.5867" lon="1.32235">
        <ele>185.2</ele>
        <time>2023-04-28T04:50:15Z</time>
      </trkpt>
      <trkpt lat="43.5867" lon="1.32237">
        <ele>185.2</ele>
        <time>2023-04-28T04:50:16Z</time>
      </trkpt>
      <trkpt lat="43.58671" lon="1.32243">
        <ele>185.2</ele>
        <time>2023-04-28T04:50:18Z</time>
      </trkpt>
      <trkpt lat="43.5867" lon="1.32257">
        <ele>185</ele>
        <time>2023-04-28T04:50:21Z</time>
      </trkpt>
      <trkpt lat="43.58671" lon="1.32283">
        <ele>184.8</ele>
        <time>2023-04-28T04:50:26Z</time>
      </trkpt>
      <trkpt lat="43.58673" lon="1.32285">
        <ele>184.8</ele>
        <time>2023-04-28T04:50:27Z</time>
      </trkpt>
      <trkpt lat="43.58675" lon="1.32285">
        <ele>184.8</ele>
        <time>2023-04-28T04:50:28Z</time>
      </trkpt>
      <trkpt lat="43.5868" lon="1.32283">
        <ele>184.6</ele>
        <time>2023-04-28T04:50:30Z</time>
      </trkpt>
      <trkpt lat="43.58696" lon="1.32267">
        <ele>184.8</ele>
        <time>2023-04-28T04:50:36Z</time>
      </trkpt>
      <trkpt lat="43.58712" lon="1.3225">
        <ele>185.4</ele>
        <time>2023-04-28T04:50:41Z</time>
      </trkpt>
      <trkpt lat="43.58719" lon="1.32244">
        <ele>185.6</ele>
        <time>2023-04-28T04:50:43Z</time>
      </trkpt>
      <trkpt lat="43.58738" lon="1.32224">
        <ele>186.4</ele>
        <time>2023-04-28T04:50:48Z</time>
      </trkpt>
      <trkpt lat="43.58749" lon="1.32213">
        <ele>186.6</ele>
        <time>2023-04-28T04:50:51Z</time>
      </trkpt>
      <trkpt lat="43.58767" lon="1.32194">
        <ele>187.2</ele>
        <time>2023-04-28T04:50:56Z</time>
      </trkpt>
      <trkpt lat="43.58771" lon="1.32191">
        <ele>187.2</ele>
        <time>2023-04-28T04:50:57Z</time>
      </trkpt>
      <trkpt lat="43.58798" lon="1.32162">
        <ele>187.6</ele>
        <time>2023-04-28T04:51:04Z</time>
      </trkpt>
      <trkpt lat="43.58801" lon="1.32159">
        <ele>187.8</ele>
        <time>2023-04-28T04:51:05Z</time>
      </trkpt>
      <trkpt lat="43.58805" lon="1.32151">
        <ele>187.8</ele>
        <time>2023-04-28T04:51:07Z</time>
      </trkpt>
      <trkpt lat="43.58807" lon="1.32147">
        <ele>187.8</ele>
        <time>2023-04-28T04:51:08Z</time>
      </trkpt>
      <trkpt lat="43.58813" lon="1.32125">
        <ele>187.8</ele>
        <time>2023-04-28T04:51:13Z</time>
      </trkpt>
      <trkpt lat="43.58815" lon="1.3212">
        <ele>187.8</ele>
        <time>2023-04-28T04:51:14Z</time>
      </trkpt>
      <trkpt lat="43.58822" lon="1.32111">
        <ele>187.8</ele>
        <time>2023-04-28T04:51:16Z</time>
      </trkpt>
      <trkpt lat="43.58826" lon="1.32108">
        <ele>187.8</ele>
        <time>2023-04-28T04:51:17Z</time>
      </trkpt>
      <trkpt lat="43.58854" lon="1.3208">
        <ele>188.2</ele>
        <time>2023-04-28T04:51:24Z</time>
      </trkpt>
      <trkpt lat="43.58891" lon="1.32042">
        <ele>188.2</ele>
        <time>2023-04-28T04:51:33Z</time>
      </trkpt>
      <trkpt lat="43.58919" lon="1.32015">
        <ele>188.8</ele>
        <time>2023-04-28T04:51:40Z</time>
      </trkpt>
      <trkpt lat="43.58928" lon="1.32007">
        <ele>188.8</ele>
        <time>2023-04-28T04:51:42Z</time>
      </trkpt>
      <trkpt lat="43.58932" lon="1.32005">
        <ele>188.8</ele>
        <time>2023-04-28T04:51:43Z</time>
      </trkpt>
      <trkpt lat="43.58939" lon="1.32005">
        <ele>188.8</ele>
        <time>2023-04-28T04:51:45Z</time>
      </trkpt>
      <trkpt lat="43.58942" lon="1.32004">
        <ele>188.8</ele>
        <time>2023-04-28T04:51:46Z</time>
      </trkpt>
      <trkpt lat="43.58947" lon="1.31996">
        <ele>188.8</ele>
        <time>2023-04-28T04:51:48Z</time>
      </trkpt>
      <trkpt lat="43.58947" lon="1.3197">
        <ele>188.6</ele>
        <time>2023-04-28T04:51:52Z</time>
      </trkpt>
      <trkpt lat="43.58946" lon="1.3194">
        <ele>188.4</ele>
        <time>2023-04-28T04:51:56Z</time>
      </trkpt>
      <trkpt lat="43.58943" lon="1.31925">
        <ele>188.6</ele>
        <time>2023-04-28T04:51:58Z</time>
      </trkpt>
      <trkpt lat="43.58927" lon="1.3189">
        <ele>188.6</ele>
        <time>2023-04-28T04:52:03Z</time>
      </trkpt>
      <trkpt lat="43.58901" lon="1.31841">
        <ele>188.6</ele>
        <time>2023-04-28T04:52:10Z</time>
      </trkpt>
      <trkpt lat="43.58885" lon="1.31797">
        <ele>188.8</ele>
        <time>2023-04-28T04:52:16Z</time>
      </trkpt>
      <trkpt lat="43.58883" lon="1.31773">
        <ele>188.8</ele>
        <time>2023-04-28T04:52:19Z</time>
      </trkpt>
      <trkpt lat="43.58885" lon="1.31765">
        <ele>188.8</ele>
        <time>2023-04-28T04:52:20Z</time>
      </trkpt>
      <trkpt lat="43.58888" lon="1.3176">
        <ele>188.8</ele>
        <time>2023-04-28T04:52:21Z</time>
      </trkpt>
      <trkpt lat="43.58893" lon="1.31755">
        <ele>189</ele>
        <time>2023-04-28T04:52:22Z</time>
      </trkpt>
      <trkpt lat="43.58899" lon="1.31751">
        <ele>189</ele>
        <time>2023-04-28T04:52:23Z</time>
      </trkpt>
      <trkpt lat="43.5895" lon="1.31723">
        <ele>189.6</ele>
        <time>2023-04-28T04:52:32Z</time>
      </trkpt>
      <trkpt lat="43.5899" lon="1.317">
        <ele>189.8</ele>
        <time>2023-04-28T04:52:39Z</time>
      </trkpt>
      <trkpt lat="43.58998" lon="1.31696">
        <ele>189.8</ele>
        <time>2023-04-28T04:52:40Z</time>
      </trkpt>
      <trkpt lat="43.59009" lon="1.3169">
        <ele>190</ele>
        <time>2023-04-28T04:52:42Z</time>
      </trkpt>
      <trkpt lat="43.59051" lon="1.31667">
        <ele>189.8</ele>
        <time>2023-04-28T04:52:49Z</time>
      </trkpt>
      <trkpt lat="43.59107" lon="1.31636">
        <ele>189.2</ele>
        <time>2023-04-28T04:52:58Z</time>
      </trkpt>
      <trkpt lat="43.59145" lon="1.31617">
        <ele>188.8</ele>
        <time>2023-04-28T04:53:04Z</time>
      </trkpt>
      <trkpt lat="43.592" lon="1.31585">
        <ele>188.8</ele>
        <time>2023-04-28T04:53:13Z</time>
      </trkpt>
      <trkpt lat="43.59206" lon="1.31581">
        <ele>188.8</ele>
        <time>2023-04-28T04:53:14Z</time>
      </trkpt>
      <trkpt lat="43.59212" lon="1.31578">
        <ele>188.8</ele>
        <time>2023-04-28T04:53:15Z</time>
      </trkpt>
      <trkpt lat="43.59235" lon="1.31567">
        <ele>188.8</ele>
        <time>2023-04-28T04:53:19Z</time>
      </trkpt>
      <trkpt lat="43.5924" lon="1.31568">
        <ele>188.6</ele>
        <time>2023-04-28T04:53:20Z</time>
      </trkpt>
      <trkpt lat="43.59248" lon="1.31579">
        <ele>188.6</ele>
        <time>2023-04-28T04:53:22Z</time>
      </trkpt>
      <trkpt lat="43.59252" lon="1.31586">
        <ele>188.6</ele>
        <time>2023-04-28T04:53:23Z</time>
      </trkpt>
      <trkpt lat="43.59255" lon="1.31593">
        <ele>188.6</ele>
        <time>2023-04-28T04:53:24Z</time>
      </trkpt>
      <trkpt lat="43.59283" lon="1.3165">
        <ele>188.8</ele>
        <time>2023-04-28T04:53:32Z</time>
      </trkpt>
      <trkpt lat="43.59311" lon="1.31708">
        <ele>188.8</ele>
        <time>2023-04-28T04:53:40Z</time>
      </trkpt>
      <trkpt lat="43.59338" lon="1.31768">
        <ele>188.8</ele>
        <time>2023-04-28T04:53:48Z</time>
      </trkpt>
      <trkpt lat="43.59362" lon="1.31821">
        <ele>188.4</ele>
        <time>2023-04-28T04:53:55Z</time>
      </trkpt>
      <trkpt lat="43.59386" lon="1.31861">
        <ele>188</ele>
        <time>2023-04-28T04:54:01Z</time>
      </trkpt>
      <trkpt lat="43.59391" lon="1.31865">
        <ele>188</ele>
        <time>2023-04-28T04:54:02Z</time>
      </trkpt>
      <trkpt lat="43.59396" lon="1.31867">
        <ele>188</ele>
        <time>2023-04-28T04:54:03Z</time>
      </trkpt>
      <trkpt lat="43.59406" lon="1.31865">
        <ele>188</ele>
        <time>2023-04-28T04:54:05Z</time>
      </trkpt>
      <trkpt lat="43.59426" lon="1.31848">
        <ele>187.8</ele>
        <time>2023-04-28T04:54:09Z</time>
      </trkpt>
      <trkpt lat="43.59431" lon="1.31843">
        <ele>187.8</ele>
        <time>2023-04-28T04:54:10Z</time>
      </trkpt>
      <trkpt lat="43.59456" lon="1.31824">
        <ele>187.8</ele>
        <time>2023-04-28T04:54:15Z</time>
      </trkpt>
      <trkpt lat="43.5946" lon="1.31822">
        <ele>187.8</ele>
        <time>2023-04-28T04:54:16Z</time>
      </trkpt>
      <trkpt lat="43.59464" lon="1.31823">
        <ele>187.8</ele>
        <time>2023-04-28T04:54:17Z</time>
      </trkpt>
      <trkpt lat="43.59468" lon="1.31827">
        <ele>187.8</ele>
        <time>2023-04-28T04:54:18Z</time>
      </trkpt>
      <trkpt lat="43.59481" lon="1.31849">
        <ele>188.2</ele>
        <time>2023-04-28T04:54:22Z</time>
      </trkpt>
      <trkpt lat="43.59484" lon="1.31856">
        <ele>188.2</ele>
        <time>2023-04-28T04:54:23Z</time>
      </trkpt>
      <trkpt lat="43.59485" lon="1.31864">
        <ele>188.2</ele>
        <time>2023-04-28T04:54:24Z</time>
      </trkpt>
      <trkpt lat="43.59486" lon="1.31887">
        <ele>188.4</ele>
        <time>2023-04-28T04:54:27Z</time>
      </trkpt>
      <trkpt lat="43.59486" lon="1.31894">
        <ele>188.4</ele>
        <time>2023-04-28T04:54:28Z</time>
      </trkpt>
      <trkpt lat="43.59483" lon="1.31918">
        <ele>188.4</ele>
        <time>2023-04-28T04:54:31Z</time>
      </trkpt>
      <trkpt lat="43.59482" lon="1.31926">
        <ele>188.4</ele>
        <time>2023-04-28T04:54:32Z</time>
      </trkpt>
      <trkpt lat="43.59484" lon="1.31941">
        <ele>188.4</ele>
        <time>2023-04-28T04:54:34Z</time>
      </trkpt>
      <trkpt lat="43.59487" lon="1.31947">
        <ele>188.4</ele>
        <time>2023-04-28T04:54:35Z</time>
      </trkpt>
      <trkpt lat="43.59491" lon="1.31952">
        <ele>188.4</ele>
        <time>2023-04-28T04:54:36Z</time>
      </trkpt>
      <trkpt lat="43.59502" lon="1.31959">
        <ele>188.4</ele>
        <time>2023-04-28T04:54:38Z</time>
      </trkpt>
      <trkpt lat="43.59546" lon="1.31988">
        <ele>188.2</ele>
        <time>2023-04-28T04:54:46Z</time>
      </trkpt>
      <trkpt lat="43.59551" lon="1.31992">
        <ele>188</ele>
        <time>2023-04-28T04:54:47Z</time>
      </trkpt>
      <trkpt lat="43.59562" lon="1.31994">
        <ele>187.8</ele>
        <time>2023-04-28T04:54:49Z</time>
      </trkpt>
      <trkpt lat="43.59568" lon="1.31993">
        <ele>187.8</ele>
        <time>2023-04-28T04:54:50Z</time>
      </trkpt>
      <trkpt lat="43.59573" lon="1.31993">
        <ele>187.6</ele>
        <time>2023-04-28T04:54:51Z</time>
      </trkpt>
      <trkpt lat="43.59582" lon="1.31998">
        <ele>187.4</ele>
        <time>2023-04-28T04:54:53Z</time>
      </trkpt>
      <trkpt lat="43.59588" lon="1.3201">
        <ele>187.4</ele>
        <time>2023-04-28T04:54:55Z</time>
      </trkpt>
      <trkpt lat="43.59593" lon="1.32022">
        <ele>187.2</ele>
        <time>2023-04-28T04:54:57Z</time>
      </trkpt>
      <trkpt lat="43.59619" lon="1.32043">
        <ele>187.4</ele>
        <time>2023-04-28T04:55:02Z</time>
      </trkpt>
      <trkpt lat="43.59629" lon="1.3205">
        <ele>187.4</ele>
        <time>2023-04-28T04:55:04Z</time>
      </trkpt>
      <trkpt lat="43.59673" lon="1.32082">
        <ele>187.6</ele>
        <time>2023-04-28T04:55:12Z</time>
      </trkpt>
      <trkpt lat="43.59719" lon="1.32114">
        <ele>187.6</ele>
        <time>2023-04-28T04:55:20Z</time>
      </trkpt>
      <trkpt lat="43.59765" lon="1.32147">
        <ele>187.4</ele>
        <time>2023-04-28T04:55:28Z</time>
      </trkpt>
      <trkpt lat="43.59774" lon="1.32148">
        <ele>187.4</ele>
        <time>2023-04-28T04:55:30Z</time>
      </trkpt>
      <trkpt lat="43.59778" lon="1.32147">
        <ele>187.2</ele>
        <time>2023-04-28T04:55:31Z</time>
      </trkpt>
      <trkpt lat="43.59785" lon="1.32151">
        <ele>187.2</ele>
        <time>2023-04-28T04:55:33Z</time>
      </trkpt>
      <trkpt lat="43.59787" lon="1.32155">
        <ele>187.2</ele>
        <time>2023-04-28T04:55:34Z</time>
      </trkpt>
      <trkpt lat="43.59789" lon="1.32161">
        <ele>187.2</ele>
        <time>2023-04-28T04:55:35Z</time>
      </trkpt>
      <trkpt lat="43.59795" lon="1.32172">
        <ele>187.2</ele>
        <time>2023-04-28T04:55:37Z</time>
      </trkpt>
      <trkpt lat="43.59799" lon="1.32176">
        <ele>187.2</ele>
        <time>2023-04-28T04:55:38Z</time>
      </trkpt>
      <trkpt lat="43.59813" lon="1.32188">
        <ele>187.2</ele>
        <time>2023-04-28T04:55:41Z</time>
      </trkpt>
      <trkpt lat="43.59817" lon="1.32194">
        <ele>187.2</ele>
        <time>2023-04-28T04:55:42Z</time>
      </trkpt>
      <trkpt lat="43.59822" lon="1.32199">
        <ele>187.2</ele>
        <time>2023-04-28T04:55:43Z</time>
      </trkpt>
      <trkpt lat="43.59827" lon="1.32203">
        <ele>187.2</ele>
        <time>2023-04-28T04:55:44Z</time>
      </trkpt>
      <trkpt lat="43.59837" lon="1.3221">
        <ele>187.2</ele>
        <time>2023-04-28T04:55:46Z</time>
      </trkpt>
      <trkpt lat="43.59843" lon="1.32212">
        <ele>187.2</ele>
        <time>2023-04-28T04:55:47Z</time>
      </trkpt>
      <trkpt lat="43.5988" lon="1.32217">
        <ele>187</ele>
        <time>2023-04-28T04:55:53Z</time>
      </trkpt>
      <trkpt lat="43.59906" lon="1.3222">
        <ele>186.8</ele>
        <time>2023-04-28T04:55:57Z</time>
      </trkpt>
      <trkpt lat="43.59956" lon="1.32229">
        <ele>187</ele>
        <time>2023-04-28T04:56:05Z</time>
      </trkpt>
      <trkpt lat="43.59967" lon="1.32235">
        <ele>187</ele>
        <time>2023-04-28T04:56:07Z</time>
      </trkpt>
      <trkpt lat="43.59977" lon="1.32244">
        <ele>187</ele>
        <time>2023-04-28T04:56:09Z</time>
      </trkpt>
      <trkpt lat="43.59992" lon="1.32264">
        <ele>187.2</ele>
        <time>2023-04-28T04:56:13Z</time>
      </trkpt>
      <trkpt lat="43.59999" lon="1.32271">
        <ele>187.2</ele>
        <time>2023-04-28T04:56:15Z</time>
      </trkpt>
      <trkpt lat="43.60008" lon="1.32272">
        <ele>187.4</ele>
        <time>2023-04-28T04:56:17Z</time>
      </trkpt>
      <trkpt lat="43.60028" lon="1.32268">
        <ele>187.2</ele>
        <time>2023-04-28T04:56:21Z</time>
      </trkpt>
      <trkpt lat="43.60037" lon="1.32263">
        <ele>187.2</ele>
        <time>2023-04-28T04:56:23Z</time>
      </trkpt>
      <trkpt lat="43.60044" lon="1.32261">
        <ele>187</ele>
        <time>2023-04-28T04:56:25Z</time>
      </trkpt>
      <trkpt lat="43.60047" lon="1.32263">
        <ele>187</ele>
        <time>2023-04-28T04:56:26Z</time>
      </trkpt>
      <trkpt lat="43.60048" lon="1.32266">
        <ele>187</ele>
        <time>2023-04-28T04:56:27Z</time>
      </trkpt>
      <trkpt lat="43.60048" lon="1.32276">
        <ele>187</ele>
        <time>2023-04-28T04:56:29Z</time>
      </trkpt>
      <trkpt lat="43.60048" lon="1.323">
        <ele>187</ele>
        <time>2023-04-28T04:56:33Z</time>
      </trkpt>
      <trkpt lat="43.60051" lon="1.32321">
        <ele>187</ele>
        <time>2023-04-28T04:56:36Z</time>
      </trkpt>
      <trkpt lat="43.60056" lon="1.32333">
        <ele>186.8</ele>
        <time>2023-04-28T04:56:38Z</time>
      </trkpt>
      <trkpt lat="43.60062" lon="1.32345">
        <ele>186.8</ele>
        <time>2023-04-28T04:56:40Z</time>
      </trkpt>
      <trkpt lat="43.60076" lon="1.32361">
        <ele>187</ele>
        <time>2023-04-28T04:56:43Z</time>
      </trkpt>
      <trkpt lat="43.60114" lon="1.32407">
        <ele>186.2</ele>
        <time>2023-04-28T04:56:51Z</time>
      </trkpt>
      <trkpt lat="43.6013" lon="1.32424">
        <ele>186</ele>
        <time>2023-04-28T04:56:54Z</time>
      </trkpt>
      <trkpt lat="43.60149" lon="1.32447">
        <ele>186</ele>
        <time>2023-04-28T04:56:58Z</time>
      </trkpt>
      <trkpt lat="43.60193" lon="1.32499">
        <ele>186</ele>
        <time>2023-04-28T04:57:07Z</time>
      </trkpt>
      <trkpt lat="43.60198" lon="1.32504">
        <ele>186</ele>
        <time>2023-04-28T04:57:08Z</time>
      </trkpt>
      <trkpt lat="43.60235" lon="1.32547">
        <ele>186</ele>
        <time>2023-04-28T04:57:16Z</time>
      </trkpt>
      <trkpt lat="43.60267" lon="1.32583">
        <ele>186.2</ele>
        <time>2023-04-28T04:57:23Z</time>
      </trkpt>
      <trkpt lat="43.60296" lon="1.32615">
        <ele>186.6</ele>
        <time>2023-04-28T04:57:29Z</time>
      </trkpt>
      <trkpt lat="43.60307" lon="1.32619">
        <ele>186.6</ele>
        <time>2023-04-28T04:57:31Z</time>
      </trkpt>
      <trkpt lat="43.60349" lon="1.3261">
        <ele>186.4</ele>
        <time>2023-04-28T04:57:38Z</time>
      </trkpt>
      <trkpt lat="43.60355" lon="1.32607">
        <ele>186.6</ele>
        <time>2023-04-28T04:57:39Z</time>
      </trkpt>
      <trkpt lat="43.60364" lon="1.32597">
        <ele>186.6</ele>
        <time>2023-04-28T04:57:41Z</time>
      </trkpt>
      <trkpt lat="43.60396" lon="1.32534">
        <ele>186.6</ele>
        <time>2023-04-28T04:57:50Z</time>
      </trkpt>
      <trkpt lat="43.60399" lon="1.32527">
        <ele>186.6</ele>
        <time>2023-04-28T04:57:51Z</time>
      </trkpt>
      <trkpt lat="43.60414" lon="1.32499">
        <ele>186.4</ele>
        <time>2023-04-28T04:57:55Z</time>
      </trkpt>
      <trkpt lat="43.60429" lon="1.32471">
        <ele>186.2</ele>
        <time>2023-04-28T04:57:59Z</time>
      </trkpt>
      <trkpt lat="43.60455" lon="1.32422">
        <ele>186.2</ele>
        <time>2023-04-28T04:58:06Z</time>
      </trkpt>
      <trkpt lat="43.60463" lon="1.32407">
        <ele>186.2</ele>
        <time>2023-04-28T04:58:08Z</time>
      </trkpt>
      <trkpt lat="43.60473" lon="1.32395">
        <ele>186.2</ele>
        <time>2023-04-28T04:58:10Z</time>
      </trkpt>
      <trkpt lat="43.60478" lon="1.3239">
        <ele>186.2</ele>
        <time>2023-04-28T04:58:11Z</time>
      </trkpt>
      <trkpt lat="43.60484" lon="1.32386">
        <ele>186.2</ele>
        <time>2023-04-28T04:58:12Z</time>
      </trkpt>
      <trkpt lat="43.60494" lon="1.32379">
        <ele>186.2</ele>
        <time>2023-04-28T04:58:14Z</time>
      </trkpt>
      <trkpt lat="43.60499" lon="1.32378">
        <ele>186.2</ele>
        <time>2023-04-28T04:58:15Z</time>
      </trkpt>
      <trkpt lat="43.60504" lon="1.32377">
        <ele>186.2</ele>
        <time>2023-04-28T04:58:16Z</time>
      </trkpt>
      <trkpt lat="43.60511" lon="1.32381">
        <ele>186.2</ele>
        <time>2023-04-28T04:58:18Z</time>
      </trkpt>
      <trkpt lat="43.60522" lon="1.32389">
        <ele>186.2</ele>
        <time>2023-04-28T04:58:21Z</time>
      </trkpt>
      <trkpt lat="43.60532" lon="1.32392">
        <ele>186.2</ele>
        <time>2023-04-28T04:58:23Z</time>
      </trkpt>
      <trkpt lat="43.60541" lon="1.32388">
        <ele>186.2</ele>
        <time>2023-04-28T04:58:25Z</time>
      </trkpt>
      <trkpt lat="43.60545" lon="1.32384">
        <ele>186.2</ele>
        <time>2023-04-28T04:58:26Z</time>
      </trkpt>
      <trkpt lat="43.60549" lon="1.32379">
        <ele>186.2</ele>
        <time>2023-04-28T04:58:27Z</time>
      </trkpt>
      <trkpt lat="43.60559" lon="1.32371">
        <ele>186.2</ele>
        <time>2023-04-28T04:58:29Z</time>
      </trkpt>
      <trkpt lat="43.60564" lon="1.32368">
        <ele>186</ele>
        <time>2023-04-28T04:58:30Z</time>
      </trkpt>
      <trkpt lat="43.60583" lon="1.32366">
        <ele>186</ele>
        <time>2023-04-28T04:58:33Z</time>
      </trkpt>
      <trkpt lat="43.60595" lon="1.3237">
        <ele>186</ele>
        <time>2023-04-28T04:58:35Z</time>
      </trkpt>
      <trkpt lat="43.60622" lon="1.32397">
        <ele>185.6</ele>
        <time>2023-04-28T04:58:40Z</time>
      </trkpt>
      <trkpt lat="43.60652" lon="1.32429">
        <ele>185.4</ele>
        <time>2023-04-28T04:58:46Z</time>
      </trkpt>
      <trkpt lat="43.60658" lon="1.32433">
        <ele>185.4</ele>
        <time>2023-04-28T04:58:47Z</time>
      </trkpt>
      <trkpt lat="43.60665" lon="1.32434">
        <ele>185.2</ele>
        <time>2023-04-28T04:58:48Z</time>
      </trkpt>
      <trkpt lat="43.60677" lon="1.32434">
        <ele>185.4</ele>
        <time>2023-04-28T04:58:50Z</time>
      </trkpt>
      <trkpt lat="43.60683" lon="1.32432">
        <ele>185.4</ele>
        <time>2023-04-28T04:58:51Z</time>
      </trkpt>
      <trkpt lat="43.607" lon="1.32426">
        <ele>185.2</ele>
        <time>2023-04-28T04:58:54Z</time>
      </trkpt>
      <trkpt lat="43.60712" lon="1.32421">
        <ele>185.2</ele>
        <time>2023-04-28T04:58:56Z</time>
      </trkpt>
      <trkpt lat="43.60732" lon="1.32405">
        <ele>185.2</ele>
        <time>2023-04-28T04:59:00Z</time>
      </trkpt>
      <trkpt lat="43.60737" lon="1.324">
        <ele>185.2</ele>
        <time>2023-04-28T04:59:01Z</time>
      </trkpt>
      <trkpt lat="43.60744" lon="1.32385">
        <ele>185.2</ele>
        <time>2023-04-28T04:59:03Z</time>
      </trkpt>
      <trkpt lat="43.60747" lon="1.32377">
        <ele>185</ele>
        <time>2023-04-28T04:59:04Z</time>
      </trkpt>
      <trkpt lat="43.60751" lon="1.3237">
        <ele>185</ele>
        <time>2023-04-28T04:59:05Z</time>
      </trkpt>
      <trkpt lat="43.60755" lon="1.32364">
        <ele>185</ele>
        <time>2023-04-28T04:59:06Z</time>
      </trkpt>
      <trkpt lat="43.6076" lon="1.32358">
        <ele>185</ele>
        <time>2023-04-28T04:59:07Z</time>
      </trkpt>
      <trkpt lat="43.60778" lon="1.3234">
        <ele>184.8</ele>
        <time>2023-04-28T04:59:12Z</time>
      </trkpt>
      <trkpt lat="43.6079" lon="1.32343">
        <ele>184.8</ele>
        <time>2023-04-28T04:59:15Z</time>
      </trkpt>
      <trkpt lat="43.60799" lon="1.32344">
        <ele>184.8</ele>
        <time>2023-04-28T04:59:17Z</time>
      </trkpt>
      <trkpt lat="43.60826" lon="1.32341">
        <ele>185</ele>
        <time>2023-04-28T04:59:22Z</time>
      </trkpt>
      <trkpt lat="43.60831" lon="1.32338">
        <ele>185</ele>
        <time>2023-04-28T04:59:23Z</time>
      </trkpt>
      <trkpt lat="43.60862" lon="1.3232">
        <ele>185.2</ele>
        <time>2023-04-28T04:59:29Z</time>
      </trkpt>
      <trkpt lat="43.60868" lon="1.32318">
        <ele>185.2</ele>
        <time>2023-04-28T04:59:30Z</time>
      </trkpt>
      <trkpt lat="43.60879" lon="1.32317">
        <ele>185.2</ele>
        <time>2023-04-28T04:59:32Z</time>
      </trkpt>
      <trkpt lat="43.60884" lon="1.32318">
        <ele>185.2</ele>
        <time>2023-04-28T04:59:33Z</time>
      </trkpt>
      <trkpt lat="43.6089" lon="1.32318">
        <ele>185.2</ele>
        <time>2023-04-28T04:59:34Z</time>
      </trkpt>
      <trkpt lat="43.60902" lon="1.32316">
        <ele>185.2</ele>
        <time>2023-04-28T04:59:36Z</time>
      </trkpt>
      <trkpt lat="43.60907" lon="1.32313">
        <ele>185.2</ele>
        <time>2023-04-28T04:59:37Z</time>
      </trkpt>
      <trkpt lat="43.60924" lon="1.32304">
        <ele>185.4</ele>
        <time>2023-04-28T04:59:41Z</time>
      </trkpt>
      <trkpt lat="43.60935" lon="1.32298">
        <ele>186.2</ele>
        <time>2023-04-28T04:59:45Z</time>
      </trkpt>
      <trkpt lat="43.60938" lon="1.32297">
        <ele>186.4</ele>
        <time>2023-04-28T04:59:46Z</time>
      </trkpt>
      <trkpt lat="43.60939" lon="1.32298">
        <ele>186.8</ele>
        <time>2023-04-28T04:59:47Z</time>
      </trkpt>
      <trkpt lat="43.60941" lon="1.32303">
        <ele>187.8</ele>
        <time>2023-04-28T04:59:49Z</time>
      </trkpt>
      <trkpt lat="43.60944" lon="1.32315">
        <ele>188.8</ele>
        <time>2023-04-28T04:59:52Z</time>
      </trkpt>
      <trkpt lat="43.60944" lon="1.3232">
        <ele>189</ele>
        <time>2023-04-28T04:59:53Z</time>
      </trkpt>
      <trkpt lat="43.60943" lon="1.32323">
        <ele>189.2</ele>
        <time>2023-04-28T04:59:54Z</time>
      </trkpt>
      <trkpt lat="43.60925" lon="1.32332">
        <ele>189.4</ele>
        <time>2023-04-28T04:59:58Z</time>
      </trkpt>
      <trkpt lat="43.60896" lon="1.32346">
        <ele>188.6</ele>
        <time>2023-04-28T05:00:02Z</time>
      </trkpt>
      <trkpt lat="43.60883" lon="1.32353">
        <ele>187.6</ele>
        <time>2023-04-28T05:00:04Z</time>
      </trkpt>
      <trkpt lat="43.60877" lon="1.32357">
        <ele>187.2</ele>
        <time>2023-04-28T05:00:05Z</time>
      </trkpt>
      <trkpt lat="43.60872" lon="1.32362">
        <ele>186.8</ele>
        <time>2023-04-28T05:00:06Z</time>
      </trkpt>
      <trkpt lat="43.60871" lon="1.32369">
        <ele>186.2</ele>
        <time>2023-04-28T05:00:07Z</time>
      </trkpt>
      <trkpt lat="43.60871" lon="1.32376">
        <ele>185.6</ele>
        <time>2023-04-28T05:00:08Z</time>
      </trkpt>
      <trkpt lat="43.60872" lon="1.32384">
        <ele>185.4</ele>
        <time>2023-04-28T05:00:09Z</time>
      </trkpt>
      <trkpt lat="43.60874" lon="1.32392">
        <ele>185</ele>
        <time>2023-04-28T05:00:10Z</time>
      </trkpt>
      <trkpt lat="43.6088" lon="1.32414">
        <ele>184.4</ele>
        <time>2023-04-28T05:00:13Z</time>
      </trkpt>
      <trkpt lat="43.60882" lon="1.32421">
        <ele>184.2</ele>
        <time>2023-04-28T05:00:14Z</time>
      </trkpt>
      <trkpt lat="43.60887" lon="1.32433">
        <ele>184</ele>
        <time>2023-04-28T05:00:16Z</time>
      </trkpt>
      <trkpt lat="43.60888" lon="1.32441">
        <ele>183.8</ele>
        <time>2023-04-28T05:00:17Z</time>
      </trkpt>
      <trkpt lat="43.6089" lon="1.32456">
        <ele>183.8</ele>
        <time>2023-04-28T05:00:19Z</time>
      </trkpt>
      <trkpt lat="43.60897" lon="1.3247">
        <ele>184</ele>
        <time>2023-04-28T05:00:21Z</time>
      </trkpt>
      <trkpt lat="43.60915" lon="1.32491">
        <ele>184</ele>
        <time>2023-04-28T05:00:25Z</time>
      </trkpt>
      <trkpt lat="43.60918" lon="1.32496">
        <ele>183.8</ele>
        <time>2023-04-28T05:00:26Z</time>
      </trkpt>
      <trkpt lat="43.60919" lon="1.32501">
        <ele>183.8</ele>
        <time>2023-04-28T05:00:27Z</time>
      </trkpt>
      <trkpt lat="43.60916" lon="1.32512">
        <ele>183.8</ele>
        <time>2023-04-28T05:00:29Z</time>
      </trkpt>
      <trkpt lat="43.60913" lon="1.32518">
        <ele>183.8</ele>
        <time>2023-04-28T05:00:30Z</time>
      </trkpt>
      <trkpt lat="43.60912" lon="1.3253">
        <ele>183.8</ele>
        <time>2023-04-28T05:00:32Z</time>
      </trkpt>
      <trkpt lat="43.60917" lon="1.32541">
        <ele>183.6</ele>
        <time>2023-04-28T05:00:34Z</time>
      </trkpt>
      <trkpt lat="43.60921" lon="1.32543">
        <ele>183.6</ele>
        <time>2023-04-28T05:00:35Z</time>
      </trkpt>
      <trkpt lat="43.60929" lon="1.32548">
        <ele>183.6</ele>
        <time>2023-04-28T05:00:37Z</time>
      </trkpt>
      <trkpt lat="43.60936" lon="1.32555">
        <ele>183.4</ele>
        <time>2023-04-28T05:00:39Z</time>
      </trkpt>
      <trkpt lat="43.60939" lon="1.32559">
        <ele>183.4</ele>
        <time>2023-04-28T05:00:40Z</time>
      </trkpt>
      <trkpt lat="43.60944" lon="1.32563">
        <ele>183.4</ele>
        <time>2023-04-28T05:00:42Z</time>
      </trkpt>
      <trkpt lat="43.60945" lon="1.32569">
        <ele>183.4</ele>
        <time>2023-04-28T05:00:44Z</time>
      </trkpt>
      <trkpt lat="43.60944" lon="1.32572">
        <ele>183.4</ele>
        <time>2023-04-28T05:00:45Z</time>
      </trkpt>
      <trkpt lat="43.60938" lon="1.32584">
        <ele>183.2</ele>
        <time>2023-04-28T05:00:48Z</time>
      </trkpt>
      <trkpt lat="43.60933" lon="1.32594">
        <ele>183.2</ele>
        <time>2023-04-28T05:00:50Z</time>
      </trkpt>
      <trkpt lat="43.60926" lon="1.32604">
        <ele>183.2</ele>
        <time>2023-04-28T05:00:52Z</time>
      </trkpt>
      <trkpt lat="43.60913" lon="1.32625">
        <ele>183.2</ele>
        <time>2023-04-28T05:00:56Z</time>
      </trkpt>
      <trkpt lat="43.60904" lon="1.32632">
        <ele>183.4</ele>
        <time>2023-04-28T05:00:58Z</time>
      </trkpt>
      <trkpt lat="43.60888" lon="1.32641">
        <ele>183.4</ele>
        <time>2023-04-28T05:01:01Z</time>
      </trkpt>
      <trkpt lat="43.60874" lon="1.32655">
        <ele>183.6</ele>
        <time>2023-04-28T05:01:04Z</time>
      </trkpt>
      <trkpt lat="43.60866" lon="1.32667">
        <ele>183.6</ele>
        <time>2023-04-28T05:01:06Z</time>
      </trkpt>
      <trkpt lat="43.60861" lon="1.32682">
        <ele>183.6</ele>
        <time>2023-04-28T05:01:08Z</time>
      </trkpt>
      <trkpt lat="43.60859" lon="1.32698">
        <ele>183.6</ele>
        <time>2023-04-28T05:01:10Z</time>
      </trkpt>
      <trkpt lat="43.60861" lon="1.32716">
        <ele>183.6</ele>
        <time>2023-04-28T05:01:12Z</time>
      </trkpt>
      <trkpt lat="43.60866" lon="1.32729">
        <ele>183.6</ele>
        <time>2023-04-28T05:01:14Z</time>
      </trkpt>
      <trkpt lat="43.60876" lon="1.3274">
        <ele>183.8</ele>
        <time>2023-04-28T05:01:16Z</time>
      </trkpt>
      <trkpt lat="43.60888" lon="1.32747">
        <ele>183.8</ele>
        <time>2023-04-28T05:01:18Z</time>
      </trkpt>
      <trkpt lat="43.60894" lon="1.32748">
        <ele>183.8</ele>
        <time>2023-04-28T05:01:19Z</time>
      </trkpt>
      <trkpt lat="43.60901" lon="1.32748">
        <ele>183.8</ele>
        <time>2023-04-28T05:01:20Z</time>
      </trkpt>
      <trkpt lat="43.6092" lon="1.32748">
        <ele>183.8</ele>
        <time>2023-04-28T05:01:23Z</time>
      </trkpt>
      <trkpt lat="43.60926" lon="1.3275">
        <ele>183.8</ele>
        <time>2023-04-28T05:01:24Z</time>
      </trkpt>
      <trkpt lat="43.60932" lon="1.32754">
        <ele>183.8</ele>
        <time>2023-04-28T05:01:25Z</time>
      </trkpt>
      <trkpt lat="43.60942" lon="1.32765">
        <ele>183.8</ele>
        <time>2023-04-28T05:01:27Z</time>
      </trkpt>
      <trkpt lat="43.60986" lon="1.32819">
        <ele>184</ele>
        <time>2023-04-28T05:01:36Z</time>
      </trkpt>
      <trkpt lat="43.61028" lon="1.32873">
        <ele>184.2</ele>
        <time>2023-04-28T05:01:45Z</time>
      </trkpt>
      <trkpt lat="43.61048" lon="1.32896">
        <ele>184.2</ele>
        <time>2023-04-28T05:01:49Z</time>
      </trkpt>
      <trkpt lat="43.61062" lon="1.32914">
        <ele>184.2</ele>
        <time>2023-04-28T05:01:52Z</time>
      </trkpt>
      <trkpt lat="43.61069" lon="1.32929">
        <ele>184.4</ele>
        <time>2023-04-28T05:01:54Z</time>
      </trkpt>
      <trkpt lat="43.61073" lon="1.32936">
        <ele>184.4</ele>
        <time>2023-04-28T05:01:55Z</time>
      </trkpt>
      <trkpt lat="43.61083" lon="1.32946">
        <ele>184.4</ele>
        <time>2023-04-28T05:01:57Z</time>
      </trkpt>
      <trkpt lat="43.61106" lon="1.32967">
        <ele>184.4</ele>
        <time>2023-04-28T05:02:01Z</time>
      </trkpt>
      <trkpt lat="43.61111" lon="1.32975">
        <ele>184.4</ele>
        <time>2023-04-28T05:02:02Z</time>
      </trkpt>
      <trkpt lat="43.61139" lon="1.3301">
        <ele>184</ele>
        <time>2023-04-28T05:02:07Z</time>
      </trkpt>
      <trkpt lat="43.6116" lon="1.33036">
        <ele>182.8</ele>
        <time>2023-04-28T05:02:11Z</time>
      </trkpt>
      <trkpt lat="43.61187" lon="1.33067">
        <ele>182</ele>
        <time>2023-04-28T05:02:16Z</time>
      </trkpt>
      <trkpt lat="43.6122" lon="1.33094">
        <ele>182.6</ele>
        <time>2023-04-28T05:02:22Z</time>
      </trkpt>
      <trkpt lat="43.61242" lon="1.33107">
        <ele>182.8</ele>
        <time>2023-04-28T05:02:26Z</time>
      </trkpt>
      <trkpt lat="43.61247" lon="1.33112">
        <ele>183</ele>
        <time>2023-04-28T05:02:27Z</time>
      </trkpt>
      <trkpt lat="43.61251" lon="1.33119">
        <ele>183</ele>
        <time>2023-04-28T05:02:28Z</time>
      </trkpt>
      <trkpt lat="43.61255" lon="1.33134">
        <ele>183.2</ele>
        <time>2023-04-28T05:02:30Z</time>
      </trkpt>
      <trkpt lat="43.6126" lon="1.33158">
        <ele>183.2</ele>
        <time>2023-04-28T05:02:33Z</time>
      </trkpt>
      <trkpt lat="43.61266" lon="1.33173">
        <ele>183.2</ele>
        <time>2023-04-28T05:02:35Z</time>
      </trkpt>
      <trkpt lat="43.6127" lon="1.33179">
        <ele>183.2</ele>
        <time>2023-04-28T05:02:36Z</time>
      </trkpt>
      <trkpt lat="43.61276" lon="1.33184">
        <ele>183.2</ele>
        <time>2023-04-28T05:02:37Z</time>
      </trkpt>
      <trkpt lat="43.61288" lon="1.33189">
        <ele>183.4</ele>
        <time>2023-04-28T05:02:39Z</time>
      </trkpt>
      <trkpt lat="43.613" lon="1.33188">
        <ele>183.4</ele>
        <time>2023-04-28T05:02:41Z</time>
      </trkpt>
      <trkpt lat="43.61305" lon="1.33185">
        <ele>183.2</ele>
        <time>2023-04-28T05:02:42Z</time>
      </trkpt>
      <trkpt lat="43.61311" lon="1.33179">
        <ele>183.4</ele>
        <time>2023-04-28T05:02:43Z</time>
      </trkpt>
      <trkpt lat="43.61325" lon="1.33159">
        <ele>183.6</ele>
        <time>2023-04-28T05:02:46Z</time>
      </trkpt>
      <trkpt lat="43.61335" lon="1.33146">
        <ele>183.6</ele>
        <time>2023-04-28T05:02:48Z</time>
      </trkpt>
      <trkpt lat="43.61347" lon="1.33138">
        <ele>183.6</ele>
        <time>2023-04-28T05:02:50Z</time>
      </trkpt>
      <trkpt lat="43.61375" lon="1.3314">
        <ele>183.2</ele>
        <time>2023-04-28T05:02:54Z</time>
      </trkpt>
      <trkpt lat="43.6142" lon="1.33155">
        <ele>182.8</ele>
        <time>2023-04-28T05:03:01Z</time>
      </trkpt>
      <trkpt lat="43.61445" lon="1.33169">
        <ele>182.8</ele>
        <time>2023-04-28T05:03:05Z</time>
      </trkpt>
      <trkpt lat="43.61469" lon="1.33185">
        <ele>183.2</ele>
        <time>2023-04-28T05:03:09Z</time>
      </trkpt>
      <trkpt lat="43.61486" lon="1.33198">
        <ele>183.4</ele>
        <time>2023-04-28T05:03:12Z</time>
      </trkpt>
      <trkpt lat="43.61505" lon="1.33209">
        <ele>183.4</ele>
        <time>2023-04-28T05:03:15Z</time>
      </trkpt>
      <trkpt lat="43.61553" lon="1.33242">
        <ele>183.2</ele>
        <time>2023-04-28T05:03:23Z</time>
      </trkpt>
      <trkpt lat="43.61572" lon="1.33251">
        <ele>183</ele>
        <time>2023-04-28T05:03:26Z</time>
      </trkpt>
      <trkpt lat="43.61583" lon="1.33262">
        <ele>183</ele>
        <time>2023-04-28T05:03:28Z</time>
      </trkpt>
      <trkpt lat="43.61594" lon="1.33274">
        <ele>183</ele>
        <time>2023-04-28T05:03:30Z</time>
      </trkpt>
      <trkpt lat="43.61606" lon="1.33283">
        <ele>182.8</ele>
        <time>2023-04-28T05:03:32Z</time>
      </trkpt>
      <trkpt lat="43.61612" lon="1.33286">
        <ele>182.6</ele>
        <time>2023-04-28T05:03:33Z</time>
      </trkpt>
      <trkpt lat="43.61638" lon="1.33294">
        <ele>182.6</ele>
        <time>2023-04-28T05:03:37Z</time>
      </trkpt>
      <trkpt lat="43.61644" lon="1.33297">
        <ele>182.6</ele>
        <time>2023-04-28T05:03:38Z</time>
      </trkpt>
      <trkpt lat="43.61649" lon="1.33301">
        <ele>182.6</ele>
        <time>2023-04-28T05:03:39Z</time>
      </trkpt>
      <trkpt lat="43.61658" lon="1.33311">
        <ele>182.6</ele>
        <time>2023-04-28T05:03:41Z</time>
      </trkpt>
      <trkpt lat="43.61675" lon="1.33312">
        <ele>182.6</ele>
        <time>2023-04-28T05:03:44Z</time>
      </trkpt>
      <trkpt lat="43.61687" lon="1.33316">
        <ele>182.8</ele>
        <time>2023-04-28T05:03:46Z</time>
      </trkpt>
      <trkpt lat="43.61699" lon="1.33322">
        <ele>182.8</ele>
        <time>2023-04-28T05:03:48Z</time>
      </trkpt>
      <trkpt lat="43.61741" lon="1.33344">
        <ele>182.8</ele>
        <time>2023-04-28T05:03:55Z</time>
      </trkpt>
      <trkpt lat="43.61786" lon="1.33369">
        <ele>183</ele>
        <time>2023-04-28T05:04:03Z</time>
      </trkpt>
      <trkpt lat="43.61821" lon="1.3339">
        <ele>183</ele>
        <time>2023-04-28T05:04:09Z</time>
      </trkpt>
      <trkpt lat="43.61829" lon="1.33399">
        <ele>182.8</ele>
        <time>2023-04-28T05:04:11Z</time>
      </trkpt>
      <trkpt lat="43.61836" lon="1.33415">
        <ele>182.8</ele>
        <time>2023-04-28T05:04:13Z</time>
      </trkpt>
      <trkpt lat="43.61841" lon="1.33431">
        <ele>182.6</ele>
        <time>2023-04-28T05:04:15Z</time>
      </trkpt>
      <trkpt lat="43.61862" lon="1.33465">
        <ele>182.2</ele>
        <time>2023-04-28T05:04:20Z</time>
      </trkpt>
      <trkpt lat="43.61883" lon="1.33503">
        <ele>181.8</ele>
        <time>2023-04-28T05:04:25Z</time>
      </trkpt>
      <trkpt lat="43.61896" lon="1.33522">
        <ele>181.6</ele>
        <time>2023-04-28T05:04:28Z</time>
      </trkpt>
      <trkpt lat="43.61915" lon="1.33541">
        <ele>181.4</ele>
        <time>2023-04-28T05:04:32Z</time>
      </trkpt>
      <trkpt lat="43.61917" lon="1.33547">
        <ele>181.4</ele>
        <time>2023-04-28T05:04:33Z</time>
      </trkpt>
      <trkpt lat="43.61918" lon="1.33554">
        <ele>181.2</ele>
        <time>2023-04-28T05:04:34Z</time>
      </trkpt>
      <trkpt lat="43.61917" lon="1.33561">
        <ele>181.2</ele>
        <time>2023-04-28T05:04:35Z</time>
      </trkpt>
      <trkpt lat="43.61917" lon="1.33568">
        <ele>181</ele>
        <time>2023-04-28T05:04:36Z</time>
      </trkpt>
      <trkpt lat="43.61922" lon="1.3358">
        <ele>181</ele>
        <time>2023-04-28T05:04:38Z</time>
      </trkpt>
      <trkpt lat="43.61951" lon="1.33608">
        <ele>180.8</ele>
        <time>2023-04-28T05:04:44Z</time>
      </trkpt>
      <trkpt lat="43.61964" lon="1.33626">
        <ele>180.8</ele>
        <time>2023-04-28T05:04:47Z</time>
      </trkpt>
      <trkpt lat="43.61967" lon="1.33632">
        <ele>180.8</ele>
        <time>2023-04-28T05:04:48Z</time>
      </trkpt>
      <trkpt lat="43.61969" lon="1.33639">
        <ele>180.6</ele>
        <time>2023-04-28T05:04:49Z</time>
      </trkpt>
      <trkpt lat="43.61972" lon="1.33646">
        <ele>180.6</ele>
        <time>2023-04-28T05:04:50Z</time>
      </trkpt>
      <trkpt lat="43.61972" lon="1.3366">
        <ele>180.6</ele>
        <time>2023-04-28T05:04:52Z</time>
      </trkpt>
      <trkpt lat="43.61972" lon="1.33675">
        <ele>180.6</ele>
        <time>2023-04-28T05:04:54Z</time>
      </trkpt>
      <trkpt lat="43.61972" lon="1.33682">
        <ele>180.6</ele>
        <time>2023-04-28T05:04:55Z</time>
      </trkpt>
      <trkpt lat="43.6197" lon="1.33689">
        <ele>180.4</ele>
        <time>2023-04-28T05:04:56Z</time>
      </trkpt>
      <trkpt lat="43.61961" lon="1.33698">
        <ele>180.4</ele>
        <time>2023-04-28T05:04:58Z</time>
      </trkpt>
      <trkpt lat="43.61946" lon="1.3371">
        <ele>180.4</ele>
        <time>2023-04-28T05:05:01Z</time>
      </trkpt>
      <trkpt lat="43.61938" lon="1.33722">
        <ele>180.4</ele>
        <time>2023-04-28T05:05:03Z</time>
      </trkpt>
      <trkpt lat="43.61919" lon="1.33766">
        <ele>180.4</ele>
        <time>2023-04-28T05:05:09Z</time>
      </trkpt>
      <trkpt lat="43.61894" lon="1.33813">
        <ele>180.4</ele>
        <time>2023-04-28T05:05:16Z</time>
      </trkpt>
      <trkpt lat="43.61854" lon="1.33871">
        <ele>180</ele>
        <time>2023-04-28T05:05:25Z</time>
      </trkpt>
      <trkpt lat="43.6185" lon="1.33878">
        <ele>179.8</ele>
        <time>2023-04-28T05:05:26Z</time>
      </trkpt>
      <trkpt lat="43.61845" lon="1.33894">
        <ele>179.8</ele>
        <time>2023-04-28T05:05:28Z</time>
      </trkpt>
      <trkpt lat="43.61843" lon="1.33902">
        <ele>179.6</ele>
        <time>2023-04-28T05:05:29Z</time>
      </trkpt>
      <trkpt lat="43.61842" lon="1.33911">
        <ele>179.4</ele>
        <time>2023-04-28T05:05:30Z</time>
      </trkpt>
      <trkpt lat="43.61841" lon="1.33919">
        <ele>179.2</ele>
        <time>2023-04-28T05:05:31Z</time>
      </trkpt>
      <trkpt lat="43.61833" lon="1.33931">
        <ele>179</ele>
        <time>2023-04-28T05:05:33Z</time>
      </trkpt>
      <trkpt lat="43.61823" lon="1.33935">
        <ele>178.4</ele>
        <time>2023-04-28T05:05:35Z</time>
      </trkpt>
      <trkpt lat="43.61818" lon="1.33939">
        <ele>178.4</ele>
        <time>2023-04-28T05:05:36Z</time>
      </trkpt>
      <trkpt lat="43.61814" lon="1.33944">
        <ele>178.2</ele>
        <time>2023-04-28T05:05:37Z</time>
      </trkpt>
      <trkpt lat="43.61799" lon="1.33963">
        <ele>177.8</ele>
        <time>2023-04-28T05:05:40Z</time>
      </trkpt>
      <trkpt lat="43.6178" lon="1.33982">
        <ele>177.4</ele>
        <time>2023-04-28T05:05:43Z</time>
      </trkpt>
      <trkpt lat="43.61775" lon="1.33987">
        <ele>176.8</ele>
        <time>2023-04-28T05:05:44Z</time>
      </trkpt>
      <trkpt lat="43.6177" lon="1.3399">
        <ele>176.4</ele>
        <time>2023-04-28T05:05:45Z</time>
      </trkpt>
      <trkpt lat="43.61766" lon="1.33992">
        <ele>176</ele>
        <time>2023-04-28T05:05:46Z</time>
      </trkpt>
      <trkpt lat="43.61762" lon="1.33993">
        <ele>175.4</ele>
        <time>2023-04-28T05:05:47Z</time>
      </trkpt>
      <trkpt lat="43.61761" lon="1.33997">
        <ele>174.6</ele>
        <time>2023-04-28T05:05:48Z</time>
      </trkpt>
      <trkpt lat="43.61763" lon="1.34009">
        <ele>173</ele>
        <time>2023-04-28T05:05:50Z</time>
      </trkpt>
      <trkpt lat="43.61765" lon="1.34016">
        <ele>172.2</ele>
        <time>2023-04-28T05:05:51Z</time>
      </trkpt>
      <trkpt lat="43.61767" lon="1.34024">
        <ele>171.4</ele>
        <time>2023-04-28T05:05:52Z</time>
      </trkpt>
      <trkpt lat="43.61771" lon="1.34041">
        <ele>170.4</ele>
        <time>2023-04-28T05:05:54Z</time>
      </trkpt>
      <trkpt lat="43.61777" lon="1.34062">
        <ele>169.4</ele>
        <time>2023-04-28T05:05:56Z</time>
      </trkpt>
      <trkpt lat="43.61787" lon="1.34096">
        <ele>168</ele>
        <time>2023-04-28T05:05:59Z</time>
      </trkpt>
      <trkpt lat="43.61793" lon="1.3412">
        <ele>167.2</ele>
        <time>2023-04-28T05:06:01Z</time>
      </trkpt>
      <trkpt lat="43.61796" lon="1.34132">
        <ele>166.4</ele>
        <time>2023-04-28T05:06:02Z</time>
      </trkpt>
      <trkpt lat="43.61804" lon="1.34154">
        <ele>165.2</ele>
        <time>2023-04-28T05:06:04Z</time>
      </trkpt>
      <trkpt lat="43.61809" lon="1.34163">
        <ele>165</ele>
        <time>2023-04-28T05:06:05Z</time>
      </trkpt>
      <trkpt lat="43.61815" lon="1.34171">
        <ele>164.2</ele>
        <time>2023-04-28T05:06:06Z</time>
      </trkpt>
      <trkpt lat="43.61827" lon="1.34186">
        <ele>163.4</ele>
        <time>2023-04-28T05:06:08Z</time>
      </trkpt>
      <trkpt lat="43.61832" lon="1.34193">
        <ele>162.8</ele>
        <time>2023-04-28T05:06:09Z</time>
      </trkpt>
      <trkpt lat="43.61855" lon="1.34222">
        <ele>161.6</ele>
        <time>2023-04-28T05:06:13Z</time>
      </trkpt>
      <trkpt lat="43.61861" lon="1.34229">
        <ele>161.6</ele>
        <time>2023-04-28T05:06:14Z</time>
      </trkpt>
      <trkpt lat="43.61903" lon="1.34279">
        <ele>161</ele>
        <time>2023-04-28T05:06:21Z</time>
      </trkpt>
      <trkpt lat="43.61909" lon="1.34285">
        <ele>160.8</ele>
        <time>2023-04-28T05:06:22Z</time>
      </trkpt>
      <trkpt lat="43.61926" lon="1.34304">
        <ele>160.6</ele>
        <time>2023-04-28T05:06:25Z</time>
      </trkpt>
      <trkpt lat="43.61949" lon="1.34327">
        <ele>159.8</ele>
        <time>2023-04-28T05:06:29Z</time>
      </trkpt>
      <trkpt lat="43.61959" lon="1.34338">
        <ele>159.6</ele>
        <time>2023-04-28T05:06:31Z</time>
      </trkpt>
      <trkpt lat="43.6197" lon="1.34347">
        <ele>159.4</ele>
        <time>2023-04-28T05:06:33Z</time>
      </trkpt>
      <trkpt lat="43.61975" lon="1.34352">
        <ele>159.2</ele>
        <time>2023-04-28T05:06:34Z</time>
      </trkpt>
      <trkpt lat="43.62007" lon="1.34386">
        <ele>158.6</ele>
        <time>2023-04-28T05:06:40Z</time>
      </trkpt>
      <trkpt lat="43.62012" lon="1.34392">
        <ele>158.4</ele>
        <time>2023-04-28T05:06:41Z</time>
      </trkpt>
      <trkpt lat="43.62016" lon="1.34399">
        <ele>158.4</ele>
        <time>2023-04-28T05:06:42Z</time>
      </trkpt>
      <trkpt lat="43.62028" lon="1.3442">
        <ele>158</ele>
        <time>2023-04-28T05:06:45Z</time>
      </trkpt>
      <trkpt lat="43.6203" lon="1.34428">
        <ele>158</ele>
        <time>2023-04-28T05:06:46Z</time>
      </trkpt>
      <trkpt lat="43.6203" lon="1.34436">
        <ele>157.8</ele>
        <time>2023-04-28T05:06:47Z</time>
      </trkpt>
      <trkpt lat="43.62026" lon="1.34449">
        <ele>157.6</ele>
        <time>2023-04-28T05:06:49Z</time>
      </trkpt>
      <trkpt lat="43.62023" lon="1.34458">
        <ele>157.6</ele>
        <time>2023-04-28T05:06:51Z</time>
      </trkpt>
      <trkpt lat="43.62024" lon="1.34462">
        <ele>157.4</ele>
        <time>2023-04-28T05:06:52Z</time>
      </trkpt>
      <trkpt lat="43.62026" lon="1.34465">
        <ele>157.4</ele>
        <time>2023-04-28T05:06:53Z</time>
      </trkpt>
      <trkpt lat="43.62031" lon="1.34464">
        <ele>157.4</ele>
        <time>2023-04-28T05:06:55Z</time>
      </trkpt>
      <trkpt lat="43.62034" lon="1.34462">
        <ele>157.2</ele>
        <time>2023-04-28T05:06:56Z</time>
      </trkpt>
      <trkpt lat="43.62046" lon="1.34459">
        <ele>156.8</ele>
        <time>2023-04-28T05:06:59Z</time>
      </trkpt>
      <trkpt lat="43.62061" lon="1.34459">
        <ele>156.6</ele>
        <time>2023-04-28T05:07:02Z</time>
      </trkpt>
      <trkpt lat="43.62071" lon="1.34462">
        <ele>156.6</ele>
        <time>2023-04-28T05:07:04Z</time>
      </trkpt>
      <trkpt lat="43.6209" lon="1.34479">
        <ele>156.6</ele>
        <time>2023-04-28T05:07:08Z</time>
      </trkpt>
      <trkpt lat="43.62131" lon="1.3452">
        <ele>156.6</ele>
        <time>2023-04-28T05:07:16Z</time>
      </trkpt>
      <trkpt lat="43.62166" lon="1.3455">
        <ele>156.2</ele>
        <time>2023-04-28T05:07:22Z</time>
      </trkpt>
      <trkpt lat="43.62184" lon="1.34565">
        <ele>156.2</ele>
        <time>2023-04-28T05:07:25Z</time>
      </trkpt>
      <trkpt lat="43.62214" lon="1.34587">
        <ele>156</ele>
        <time>2023-04-28T05:07:30Z</time>
      </trkpt>
      <trkpt lat="43.62265" lon="1.34618">
        <ele>156</ele>
        <time>2023-04-28T05:07:38Z</time>
      </trkpt>
      <trkpt lat="43.62279" lon="1.34625">
        <ele>155.8</ele>
        <time>2023-04-28T05:07:40Z</time>
      </trkpt>
      <trkpt lat="43.62333" lon="1.34649">
        <ele>155.4</ele>
        <time>2023-04-28T05:07:48Z</time>
      </trkpt>
      <trkpt lat="43.62339" lon="1.34652">
        <ele>155.4</ele>
        <time>2023-04-28T05:07:49Z</time>
      </trkpt>
      <trkpt lat="43.62364" lon="1.34665">
        <ele>155.2</ele>
        <time>2023-04-28T05:07:53Z</time>
      </trkpt>
      <trkpt lat="43.62374" lon="1.34676">
        <ele>155.2</ele>
        <time>2023-04-28T05:07:55Z</time>
      </trkpt>
      <trkpt lat="43.62382" lon="1.34689">
        <ele>155.2</ele>
        <time>2023-04-28T05:07:57Z</time>
      </trkpt>
      <trkpt lat="43.62392" lon="1.34695">
        <ele>155.2</ele>
        <time>2023-04-28T05:07:59Z</time>
      </trkpt>
      <trkpt lat="43.62409" lon="1.34687">
        <ele>155.4</ele>
        <time>2023-04-28T05:08:02Z</time>
      </trkpt>
      <trkpt lat="43.62421" lon="1.34684">
        <ele>155.4</ele>
        <time>2023-04-28T05:08:04Z</time>
      </trkpt>
      <trkpt lat="43.62435" lon="1.34684">
        <ele>155.4</ele>
        <time>2023-04-28T05:08:06Z</time>
      </trkpt>
      <trkpt lat="43.62481" lon="1.34685">
        <ele>155.4</ele>
        <time>2023-04-28T05:08:13Z</time>
      </trkpt>
      <trkpt lat="43.62493" lon="1.34691">
        <ele>155.4</ele>
        <time>2023-04-28T05:08:15Z</time>
      </trkpt>
      <trkpt lat="43.62498" lon="1.34697">
        <ele>155.4</ele>
        <time>2023-04-28T05:08:16Z</time>
      </trkpt>
      <trkpt lat="43.62501" lon="1.34703">
        <ele>155.4</ele>
        <time>2023-04-28T05:08:17Z</time>
      </trkpt>
      <trkpt lat="43.62507" lon="1.34724">
        <ele>155.4</ele>
        <time>2023-04-28T05:08:20Z</time>
      </trkpt>
      <trkpt lat="43.62508" lon="1.3473">
        <ele>155.4</ele>
        <time>2023-04-28T05:08:21Z</time>
      </trkpt>
      <trkpt lat="43.6251" lon="1.34738">
        <ele>155.2</ele>
        <time>2023-04-28T05:08:23Z</time>
      </trkpt>
      <trkpt lat="43.62509" lon="1.34741">
        <ele>154.8</ele>
        <time>2023-04-28T05:08:24Z</time>
      </trkpt>
      <trkpt lat="43.62509" lon="1.34742">
        <ele>154.6</ele>
        <time>2023-04-28T05:08:27Z</time>
      </trkpt>
      <trkpt lat="43.62509" lon="1.34748">
        <ele>154.2</ele>
        <time>2023-04-28T05:09:32Z</time>
      </trkpt>
      <trkpt lat="43.62507" lon="1.34764">
        <ele>154.2</ele>
        <time>2023-04-28T05:09:36Z</time>
      </trkpt>
      <trkpt lat="43.62501" lon="1.3477">
        <ele>154.2</ele>
        <time>2023-04-28T05:09:38Z</time>
      </trkpt>
      <trkpt lat="43.62496" lon="1.3477">
        <ele>154.2</ele>
        <time>2023-04-28T05:09:39Z</time>
      </trkpt>
      <trkpt lat="43.62461" lon="1.34773">
        <ele>154.4</ele>
        <time>2023-04-28T05:09:46Z</time>
      </trkpt>
      <trkpt lat="43.62412" lon="1.34777">
        <ele>155.2</ele>
        <time>2023-04-28T05:09:55Z</time>
      </trkpt>
      <trkpt lat="43.62372" lon="1.34778">
        <ele>155.4</ele>
        <time>2023-04-28T05:10:02Z</time>
      </trkpt>
      <trkpt lat="43.62343" lon="1.34785">
        <ele>155.2</ele>
        <time>2023-04-28T05:10:07Z</time>
      </trkpt>
      <trkpt lat="43.62338" lon="1.34789">
        <ele>155.2</ele>
        <time>2023-04-28T05:10:08Z</time>
      </trkpt>
      <trkpt lat="43.62308" lon="1.34816">
        <ele>155.2</ele>
        <time>2023-04-28T05:10:14Z</time>
      </trkpt>
      <trkpt lat="43.62262" lon="1.34867">
        <ele>154.4</ele>
        <time>2023-04-28T05:10:25Z</time>
      </trkpt>
      <trkpt lat="43.62258" lon="1.34875">
        <ele>154.4</ele>
        <time>2023-04-28T05:10:27Z</time>
      </trkpt>
      <trkpt lat="43.62258" lon="1.34879">
        <ele>154.2</ele>
        <time>2023-04-28T05:10:28Z</time>
      </trkpt>
      <trkpt lat="43.62258" lon="1.34909">
        <ele>153.8</ele>
        <time>2023-04-28T05:10:33Z</time>
      </trkpt>
      <trkpt lat="43.62259" lon="1.34954">
        <ele>153.2</ele>
        <time>2023-04-28T05:10:39Z</time>
      </trkpt>
      <trkpt lat="43.62261" lon="1.35023">
        <ele>152.8</ele>
        <time>2023-04-28T05:10:48Z</time>
      </trkpt>
      <trkpt lat="43.62264" lon="1.35092">
        <ele>153</ele>
        <time>2023-04-28T05:10:57Z</time>
      </trkpt>
      <trkpt lat="43.62266" lon="1.35145">
        <ele>153</ele>
        <time>2023-04-28T05:11:05Z</time>
      </trkpt>
      <trkpt lat="43.62268" lon="1.35152">
        <ele>153</ele>
        <time>2023-04-28T05:11:07Z</time>
      </trkpt>
      <trkpt lat="43.62267" lon="1.35152">
        <ele>153</ele>
        <time>2023-04-28T05:11:08Z</time>
      </trkpt>
      <trkpt lat="43.62265" lon="1.3515">
        <ele>153</ele>
        <time>2023-04-28T05:11:11Z</time>
      </trkpt>
      <trkpt lat="43.62263" lon="1.35149">
        <ele>159.6</ele>
        <time>2023-04-28T13:16:48Z</time>
      </trkpt>
      <trkpt lat="43.62261" lon="1.35147">
        <ele>161.4</ele>
        <time>2023-04-28T13:16:49Z</time>
      </trkpt>
      <trkpt lat="43.62259" lon="1.35146">
        <ele>161.2</ele>
        <time>2023-04-28T13:16:56Z</time>
      </trkpt>
      <trkpt lat="43.62257" lon="1.35144">
        <ele>161</ele>
        <time>2023-04-28T13:16:57Z</time>
      </trkpt>
      <trkpt lat="43.62267" lon="1.35149">
        <ele>160</ele>
        <time>2023-04-28T13:17:11Z</time>
      </trkpt>
      <trkpt lat="43.62267" lon="1.35144">
        <ele>160</ele>
        <time>2023-04-28T13:17:13Z</time>
      </trkpt>
      <trkpt lat="43.62264" lon="1.35124">
        <ele>160.2</ele>
        <time>2023-04-28T13:17:18Z</time>
      </trkpt>
      <trkpt lat="43.62265" lon="1.35102">
        <ele>160.4</ele>
        <time>2023-04-28T13:17:23Z</time>
      </trkpt>
      <trkpt lat="43.62265" lon="1.35068">
        <ele>160.2</ele>
        <time>2023-04-28T13:17:30Z</time>
      </trkpt>
      <trkpt lat="43.62266" lon="1.35066">
        <ele>160.2</ele>
        <time>2023-04-28T13:17:31Z</time>
      </trkpt>
      <trkpt lat="43.62265" lon="1.35064">
        <ele>160</ele>
        <time>2023-04-28T13:17:33Z</time>
      </trkpt>
      <trkpt lat="43.62265" lon="1.35063">
        <ele>160</ele>
        <time>2023-04-28T13:17:35Z</time>
      </trkpt>
      <trkpt lat="43.62262" lon="1.3505">
        <ele>158.6</ele>
        <time>2023-04-28T13:18:28Z</time>
      </trkpt>
      <trkpt lat="43.62262" lon="1.35047">
        <ele>158.6</ele>
        <time>2023-04-28T13:18:29Z</time>
      </trkpt>
      <trkpt lat="43.62261" lon="1.35013">
        <ele>159.6</ele>
        <time>2023-04-28T13:18:35Z</time>
      </trkpt>
      <trkpt lat="43.62261" lon="1.34996">
        <ele>160.6</ele>
        <time>2023-04-28T13:18:38Z</time>
      </trkpt>
      <trkpt lat="43.62261" lon="1.34975">
        <ele>160.8</ele>
        <time>2023-04-28T13:18:42Z</time>
      </trkpt>
      <trkpt lat="43.62259" lon="1.34932">
        <ele>160.8</ele>
        <time>2023-04-28T13:18:48Z</time>
      </trkpt>
      <trkpt lat="43.62258" lon="1.34898">
        <ele>160.8</ele>
        <time>2023-04-28T13:18:53Z</time>
      </trkpt>
      <trkpt lat="43.62258" lon="1.34883">
        <ele>160.8</ele>
        <time>2023-04-28T13:18:56Z</time>
      </trkpt>
      <trkpt lat="43.62261" lon="1.34873">
        <ele>160.8</ele>
        <time>2023-04-28T13:19:00Z</time>
      </trkpt>
      <trkpt lat="43.62263" lon="1.34871">
        <ele>160.8</ele>
        <time>2023-04-28T13:19:01Z</time>
      </trkpt>
      <trkpt lat="43.62278" lon="1.34857">
        <ele>161.2</ele>
        <time>2023-04-28T13:19:06Z</time>
      </trkpt>
      <trkpt lat="43.62307" lon="1.34827">
        <ele>161.4</ele>
        <time>2023-04-28T13:19:14Z</time>
      </trkpt>
      <trkpt lat="43.62342" lon="1.34796">
        <ele>161.8</ele>
        <time>2023-04-28T13:19:22Z</time>
      </trkpt>
      <trkpt lat="43.62351" lon="1.34791">
        <ele>162</ele>
        <time>2023-04-28T13:19:24Z</time>
      </trkpt>
      <trkpt lat="43.62367" lon="1.34787">
        <ele>162.2</ele>
        <time>2023-04-28T13:19:27Z</time>
      </trkpt>
      <trkpt lat="43.62384" lon="1.34786">
        <ele>162.4</ele>
        <time>2023-04-28T13:19:30Z</time>
      </trkpt>
      <trkpt lat="43.62407" lon="1.34784">
        <ele>163</ele>
        <time>2023-04-28T13:19:34Z</time>
      </trkpt>
      <trkpt lat="43.62413" lon="1.34783">
        <ele>163</ele>
        <time>2023-04-28T13:19:35Z</time>
      </trkpt>
      <trkpt lat="43.62428" lon="1.3478">
        <ele>163.6</ele>
        <time>2023-04-28T13:19:38Z</time>
      </trkpt>
      <trkpt lat="43.62434" lon="1.34779">
        <ele>163.8</ele>
        <time>2023-04-28T13:19:39Z</time>
      </trkpt>
      <trkpt lat="43.62448" lon="1.34778">
        <ele>164</ele>
        <time>2023-04-28T13:19:41Z</time>
      </trkpt>
      <trkpt lat="43.62478" lon="1.34774">
        <ele>164</ele>
        <time>2023-04-28T13:19:46Z</time>
      </trkpt>
      <trkpt lat="43.62503" lon="1.34779">
        <ele>164</ele>
        <time>2023-04-28T13:19:50Z</time>
      </trkpt>
      <trkpt lat="43.62513" lon="1.34784">
        <ele>163.6</ele>
        <time>2023-04-28T13:19:52Z</time>
      </trkpt>
      <trkpt lat="43.62518" lon="1.34786">
        <ele>163.6</ele>
        <time>2023-04-28T13:19:53Z</time>
      </trkpt>
      <trkpt lat="43.62529" lon="1.34782">
        <ele>163.4</ele>
        <time>2023-04-28T13:19:55Z</time>
      </trkpt>
      <trkpt lat="43.62535" lon="1.34771">
        <ele>163.2</ele>
        <time>2023-04-28T13:19:57Z</time>
      </trkpt>
      <trkpt lat="43.62537" lon="1.34764">
        <ele>163.2</ele>
        <time>2023-04-28T13:19:58Z</time>
      </trkpt>
      <trkpt lat="43.62537" lon="1.34759">
        <ele>163.2</ele>
        <time>2023-04-28T13:19:59Z</time>
      </trkpt>
      <trkpt lat="43.62537" lon="1.34744">
        <ele>163</ele>
        <time>2023-04-28T13:20:02Z</time>
      </trkpt>
      <trkpt lat="43.62537" lon="1.34742">
        <ele>163</ele>
        <time>2023-04-28T13:20:03Z</time>
      </trkpt>
      <trkpt lat="43.62537" lon="1.34741">
        <ele>163</ele>
        <time>2023-04-28T13:20:06Z</time>
      </trkpt>
      <trkpt lat="43.62537" lon="1.34735">
        <ele>162.8</ele>
        <time>2023-04-28T13:20:19Z</time>
      </trkpt>
      <trkpt lat="43.62538" lon="1.34731">
        <ele>162.6</ele>
        <time>2023-04-28T13:20:24Z</time>
      </trkpt>
      <trkpt lat="43.62538" lon="1.34725">
        <ele>162.8</ele>
        <time>2023-04-28T13:20:43Z</time>
      </trkpt>
      <trkpt lat="43.62539" lon="1.34722">
        <ele>163</ele>
        <time>2023-04-28T13:20:44Z</time>
      </trkpt>
      <trkpt lat="43.6254" lon="1.34719">
        <ele>163</ele>
        <time>2023-04-28T13:20:45Z</time>
      </trkpt>
      <trkpt lat="43.62547" lon="1.34695">
        <ele>163.4</ele>
        <time>2023-04-28T13:20:50Z</time>
      </trkpt>
      <trkpt lat="43.62552" lon="1.34667">
        <ele>164</ele>
        <time>2023-04-28T13:20:55Z</time>
      </trkpt>
      <trkpt lat="43.6256" lon="1.34667">
        <ele>164</ele>
        <time>2023-04-28T13:20:57Z</time>
      </trkpt>
      <trkpt lat="43.62565" lon="1.34667">
        <ele>164</ele>
        <time>2023-04-28T13:20:58Z</time>
      </trkpt>
      <trkpt lat="43.6257" lon="1.34668">
        <ele>164.2</ele>
        <time>2023-04-28T13:20:59Z</time>
      </trkpt>
      <trkpt lat="43.62599" lon="1.34665">
        <ele>164.2</ele>
        <time>2023-04-28T13:21:04Z</time>
      </trkpt>
      <trkpt lat="43.62651" lon="1.34661">
        <ele>163.4</ele>
        <time>2023-04-28T13:21:12Z</time>
      </trkpt>
      <trkpt lat="43.62712" lon="1.34657">
        <ele>163.4</ele>
        <time>2023-04-28T13:21:21Z</time>
      </trkpt>
      <trkpt lat="43.62726" lon="1.34656">
        <ele>163.4</ele>
        <time>2023-04-28T13:21:23Z</time>
      </trkpt>
      <trkpt lat="43.62784" lon="1.34652">
        <ele>163.6</ele>
        <time>2023-04-28T13:21:31Z</time>
      </trkpt>
      <trkpt lat="43.62791" lon="1.34652">
        <ele>163.6</ele>
        <time>2023-04-28T13:21:32Z</time>
      </trkpt>
      <trkpt lat="43.62845" lon="1.34647">
        <ele>163.4</ele>
        <time>2023-04-28T13:21:40Z</time>
      </trkpt>
      <trkpt lat="43.62852" lon="1.34647">
        <ele>163.4</ele>
        <time>2023-04-28T13:21:41Z</time>
      </trkpt>
      <trkpt lat="43.6288" lon="1.34645">
        <ele>163</ele>
        <time>2023-04-28T13:21:45Z</time>
      </trkpt>
      <trkpt lat="43.62913" lon="1.34638">
        <ele>163</ele>
        <time>2023-04-28T13:21:50Z</time>
      </trkpt>
      <trkpt lat="43.62948" lon="1.3462">
        <ele>162.8</ele>
        <time>2023-04-28T13:21:56Z</time>
      </trkpt>
      <trkpt lat="43.62957" lon="1.34612">
        <ele>162.8</ele>
        <time>2023-04-28T13:21:58Z</time>
      </trkpt>
      <trkpt lat="43.62966" lon="1.34608">
        <ele>162.6</ele>
        <time>2023-04-28T13:22:00Z</time>
      </trkpt>
      <trkpt lat="43.62974" lon="1.34606">
        <ele>162.6</ele>
        <time>2023-04-28T13:22:02Z</time>
      </trkpt>
      <trkpt lat="43.62977" lon="1.34602">
        <ele>162.6</ele>
        <time>2023-04-28T13:22:03Z</time>
      </trkpt>
      <trkpt lat="43.62978" lon="1.34596">
        <ele>162.4</ele>
        <time>2023-04-28T13:22:04Z</time>
      </trkpt>
      <trkpt lat="43.6298" lon="1.34569">
        <ele>162.4</ele>
        <time>2023-04-28T13:22:08Z</time>
      </trkpt>
      <trkpt lat="43.62982" lon="1.3452">
        <ele>162.4</ele>
        <time>2023-04-28T13:22:14Z</time>
      </trkpt>
      <trkpt lat="43.62988" lon="1.34444">
        <ele>163</ele>
        <time>2023-04-28T13:22:23Z</time>
      </trkpt>
      <trkpt lat="43.62989" lon="1.34426">
        <ele>163.2</ele>
        <time>2023-04-28T13:22:25Z</time>
      </trkpt>
      <trkpt lat="43.62991" lon="1.34418">
        <ele>163.2</ele>
        <time>2023-04-28T13:22:26Z</time>
      </trkpt>
      <trkpt lat="43.62996" lon="1.34403">
        <ele>163.2</ele>
        <time>2023-04-28T13:22:28Z</time>
      </trkpt>
      <trkpt lat="43.63001" lon="1.34396">
        <ele>163.2</ele>
        <time>2023-04-28T13:22:29Z</time>
      </trkpt>
      <trkpt lat="43.63006" lon="1.3439">
        <ele>163.4</ele>
        <time>2023-04-28T13:22:30Z</time>
      </trkpt>
      <trkpt lat="43.63017" lon="1.34383">
        <ele>163.4</ele>
        <time>2023-04-28T13:22:32Z</time>
      </trkpt>
      <trkpt lat="43.63023" lon="1.34381">
        <ele>163.6</ele>
        <time>2023-04-28T13:22:33Z</time>
      </trkpt>
      <trkpt lat="43.63029" lon="1.34381">
        <ele>163.6</ele>
        <time>2023-04-28T13:22:34Z</time>
      </trkpt>
      <trkpt lat="43.63042" lon="1.34381">
        <ele>163.8</ele>
        <time>2023-04-28T13:22:36Z</time>
      </trkpt>
      <trkpt lat="43.63055" lon="1.34382">
        <ele>164</ele>
        <time>2023-04-28T13:22:38Z</time>
      </trkpt>
      <trkpt lat="43.63062" lon="1.34382">
        <ele>164.2</ele>
        <time>2023-04-28T13:22:39Z</time>
      </trkpt>
      <trkpt lat="43.63121" lon="1.34385">
        <ele>164.8</ele>
        <time>2023-04-28T13:22:48Z</time>
      </trkpt>
      <trkpt lat="43.63133" lon="1.34386">
        <ele>165.2</ele>
        <time>2023-04-28T13:22:50Z</time>
      </trkpt>
      <trkpt lat="43.63146" lon="1.34386">
        <ele>165.2</ele>
        <time>2023-04-28T13:22:52Z</time>
      </trkpt>
      <trkpt lat="43.63192" lon="1.34388">
        <ele>165.8</ele>
        <time>2023-04-28T13:22:59Z</time>
      </trkpt>
      <trkpt lat="43.63248" lon="1.34392">
        <ele>166</ele>
        <time>2023-04-28T13:23:07Z</time>
      </trkpt>
      <trkpt lat="43.63256" lon="1.34392">
        <ele>166</ele>
        <time>2023-04-28T13:23:08Z</time>
      </trkpt>
      <trkpt lat="43.63296" lon="1.34393">
        <ele>166.4</ele>
        <time>2023-04-28T13:23:14Z</time>
      </trkpt>
      <trkpt lat="43.63331" lon="1.34396">
        <ele>166.6</ele>
        <time>2023-04-28T13:23:19Z</time>
      </trkpt>
      <trkpt lat="43.63377" lon="1.34409">
        <ele>166.6</ele>
        <time>2023-04-28T13:23:25Z</time>
      </trkpt>
      <trkpt lat="43.6343" lon="1.34433">
        <ele>166.6</ele>
        <time>2023-04-28T13:23:32Z</time>
      </trkpt>
      <trkpt lat="43.63438" lon="1.34437">
        <ele>166.4</ele>
        <time>2023-04-28T13:23:33Z</time>
      </trkpt>
      <trkpt lat="43.63462" lon="1.3445">
        <ele>166.4</ele>
        <time>2023-04-28T13:23:36Z</time>
      </trkpt>
      <trkpt lat="43.63468" lon="1.34456">
        <ele>166.2</ele>
        <time>2023-04-28T13:23:37Z</time>
      </trkpt>
      <trkpt lat="43.63473" lon="1.34464">
        <ele>166.2</ele>
        <time>2023-04-28T13:23:38Z</time>
      </trkpt>
      <trkpt lat="43.63476" lon="1.34477">
        <ele>165.8</ele>
        <time>2023-04-28T13:23:39Z</time>
      </trkpt>
      <trkpt lat="43.63477" lon="1.34489">
        <ele>165.6</ele>
        <time>2023-04-28T13:23:40Z</time>
      </trkpt>
      <trkpt lat="43.63476" lon="1.34501">
        <ele>165.4</ele>
        <time>2023-04-28T13:23:41Z</time>
      </trkpt>
      <trkpt lat="43.63474" lon="1.34509">
        <ele>165.2</ele>
        <time>2023-04-28T13:23:42Z</time>
      </trkpt>
      <trkpt lat="43.63465" lon="1.3453">
        <ele>165</ele>
        <time>2023-04-28T13:23:44Z</time>
      </trkpt>
      <trkpt lat="43.6346" lon="1.34538">
        <ele>165</ele>
        <time>2023-04-28T13:23:45Z</time>
      </trkpt>
      <trkpt lat="43.63452" lon="1.34555">
        <ele>164.8</ele>
        <time>2023-04-28T13:23:47Z</time>
      </trkpt>
      <trkpt lat="43.63447" lon="1.34575">
        <ele>164.6</ele>
        <time>2023-04-28T13:23:49Z</time>
      </trkpt>
      <trkpt lat="43.63448" lon="1.34595">
        <ele>164.2</ele>
        <time>2023-04-28T13:23:51Z</time>
      </trkpt>
      <trkpt lat="43.63451" lon="1.34604">
        <ele>164</ele>
        <time>2023-04-28T13:23:52Z</time>
      </trkpt>
      <trkpt lat="43.63455" lon="1.34611">
        <ele>163.8</ele>
        <time>2023-04-28T13:23:53Z</time>
      </trkpt>
      <trkpt lat="43.63468" lon="1.34621">
        <ele>163.8</ele>
        <time>2023-04-28T13:23:55Z</time>
      </trkpt>
      <trkpt lat="43.6349" lon="1.34623">
        <ele>163.4</ele>
        <time>2023-04-28T13:23:58Z</time>
      </trkpt>
      <trkpt lat="43.63528" lon="1.3462">
        <ele>163.2</ele>
        <time>2023-04-28T13:24:03Z</time>
      </trkpt>
      <trkpt lat="43.63567" lon="1.34619">
        <ele>162.6</ele>
        <time>2023-04-28T13:24:08Z</time>
      </trkpt>
      <trkpt lat="43.63621" lon="1.34617">
        <ele>162.4</ele>
        <time>2023-04-28T13:24:15Z</time>
      </trkpt>
      <trkpt lat="43.63637" lon="1.34618">
        <ele>162.2</ele>
        <time>2023-04-28T13:24:17Z</time>
      </trkpt>
      <trkpt lat="43.63645" lon="1.34618">
        <ele>162.2</ele>
        <time>2023-04-28T13:24:18Z</time>
      </trkpt>
      <trkpt lat="43.637" lon="1.3462">
        <ele>161.4</ele>
        <time>2023-04-28T13:24:25Z</time>
      </trkpt>
      <trkpt lat="43.63756" lon="1.34621">
        <ele>161.4</ele>
        <time>2023-04-28T13:24:32Z</time>
      </trkpt>
      <trkpt lat="43.63785" lon="1.34618">
        <ele>161.4</ele>
        <time>2023-04-28T13:24:36Z</time>
      </trkpt>
      <trkpt lat="43.6384" lon="1.34604">
        <ele>161.4</ele>
        <time>2023-04-28T13:24:43Z</time>
      </trkpt>
      <trkpt lat="43.63847" lon="1.346">
        <ele>161.6</ele>
        <time>2023-04-28T13:24:44Z</time>
      </trkpt>
      <trkpt lat="43.639" lon="1.34571">
        <ele>161.8</ele>
        <time>2023-04-28T13:24:52Z</time>
      </trkpt>
      <trkpt lat="43.63942" lon="1.34536">
        <ele>162.6</ele>
        <time>2023-04-28T13:24:59Z</time>
      </trkpt>
      <trkpt lat="43.6398" lon="1.34495">
        <ele>163.2</ele>
        <time>2023-04-28T13:25:06Z</time>
      </trkpt>
      <trkpt lat="43.64003" lon="1.34469">
        <ele>163.4</ele>
        <time>2023-04-28T13:25:10Z</time>
      </trkpt>
      <trkpt lat="43.6404" lon="1.34426">
        <ele>163.8</ele>
        <time>2023-04-28T13:25:17Z</time>
      </trkpt>
      <trkpt lat="43.64079" lon="1.34382">
        <ele>164.6</ele>
        <time>2023-04-28T13:25:24Z</time>
      </trkpt>
      <trkpt lat="43.64089" lon="1.34369">
        <ele>164.6</ele>
        <time>2023-04-28T13:25:26Z</time>
      </trkpt>
      <trkpt lat="43.64133" lon="1.34317">
        <ele>165</ele>
        <time>2023-04-28T13:25:34Z</time>
      </trkpt>
      <trkpt lat="43.64155" lon="1.34292">
        <ele>165.2</ele>
        <time>2023-04-28T13:25:38Z</time>
      </trkpt>
      <trkpt lat="43.64182" lon="1.3426">
        <ele>165.6</ele>
        <time>2023-04-28T13:25:43Z</time>
      </trkpt>
      <trkpt lat="43.64198" lon="1.34241">
        <ele>165.8</ele>
        <time>2023-04-28T13:25:46Z</time>
      </trkpt>
      <trkpt lat="43.64228" lon="1.34197">
        <ele>166.4</ele>
        <time>2023-04-28T13:25:53Z</time>
      </trkpt>
      <trkpt lat="43.64235" lon="1.34181">
        <ele>166.4</ele>
        <time>2023-04-28T13:25:56Z</time>
      </trkpt>
      <trkpt lat="43.64236" lon="1.34176">
        <ele>166.4</ele>
        <time>2023-04-28T13:25:57Z</time>
      </trkpt>
      <trkpt lat="43.64239" lon="1.34166">
        <ele>166.2</ele>
        <time>2023-04-28T13:26:00Z</time>
      </trkpt>
      <trkpt lat="43.64239" lon="1.34164">
        <ele>166.2</ele>
        <time>2023-04-28T13:26:01Z</time>
      </trkpt>
      <trkpt lat="43.64241" lon="1.34156">
        <ele>166.2</ele>
        <time>2023-04-28T13:26:03Z</time>
      </trkpt>
      <trkpt lat="43.64245" lon="1.34146">
        <ele>166.4</ele>
        <time>2023-04-28T13:26:05Z</time>
      </trkpt>
      <trkpt lat="43.64262" lon="1.34108">
        <ele>166.4</ele>
        <time>2023-04-28T13:26:12Z</time>
      </trkpt>
      <trkpt lat="43.64268" lon="1.34092">
        <ele>166.4</ele>
        <time>2023-04-28T13:26:14Z</time>
      </trkpt>
      <trkpt lat="43.64276" lon="1.34076">
        <ele>166.4</ele>
        <time>2023-04-28T13:26:16Z</time>
      </trkpt>
      <trkpt lat="43.64285" lon="1.34061">
        <ele>166.4</ele>
        <time>2023-04-28T13:26:18Z</time>
      </trkpt>
      <trkpt lat="43.64295" lon="1.34045">
        <ele>166.4</ele>
        <time>2023-04-28T13:26:20Z</time>
      </trkpt>
      <trkpt lat="43.64327" lon="1.33983">
        <ele>166.4</ele>
        <time>2023-04-28T13:26:27Z</time>
      </trkpt>
      <trkpt lat="43.64332" lon="1.33974">
        <ele>166.4</ele>
        <time>2023-04-28T13:26:28Z</time>
      </trkpt>
      <trkpt lat="43.64354" lon="1.33932">
        <ele>166.8</ele>
        <time>2023-04-28T13:26:33Z</time>
      </trkpt>
      <trkpt lat="43.64367" lon="1.33908">
        <ele>167</ele>
        <time>2023-04-28T13:26:36Z</time>
      </trkpt>
      <trkpt lat="43.64392" lon="1.33864">
        <ele>167</ele>
        <time>2023-04-28T13:26:42Z</time>
      </trkpt>
      <trkpt lat="43.64414" lon="1.33827">
        <ele>167</ele>
        <time>2023-04-28T13:26:48Z</time>
      </trkpt>
      <trkpt lat="43.64423" lon="1.3381">
        <ele>167</ele>
        <time>2023-04-28T13:26:51Z</time>
      </trkpt>
      <trkpt lat="43.64429" lon="1.33789">
        <ele>167</ele>
        <time>2023-04-28T13:26:54Z</time>
      </trkpt>
      <trkpt lat="43.64437" lon="1.33749">
        <ele>167</ele>
        <time>2023-04-28T13:26:59Z</time>
      </trkpt>
      <trkpt lat="43.64451" lon="1.33701">
        <ele>167</ele>
        <time>2023-04-28T13:27:05Z</time>
      </trkpt>
      <trkpt lat="43.64456" lon="1.33685">
        <ele>167.4</ele>
        <time>2023-04-28T13:27:07Z</time>
      </trkpt>
      <trkpt lat="43.64465" lon="1.33652">
        <ele>167.4</ele>
        <time>2023-04-28T13:27:11Z</time>
      </trkpt>
      <trkpt lat="43.64467" lon="1.33644">
        <ele>167.6</ele>
        <time>2023-04-28T13:27:12Z</time>
      </trkpt>
      <trkpt lat="43.64471" lon="1.33626">
        <ele>168</ele>
        <time>2023-04-28T13:27:14Z</time>
      </trkpt>
      <trkpt lat="43.64475" lon="1.33608">
        <ele>168.4</ele>
        <time>2023-04-28T13:27:16Z</time>
      </trkpt>
      <trkpt lat="43.64485" lon="1.33574">
        <ele>168.8</ele>
        <time>2023-04-28T13:27:21Z</time>
      </trkpt>
      <trkpt lat="43.64487" lon="1.33569">
        <ele>169</ele>
        <time>2023-04-28T13:27:22Z</time>
      </trkpt>
      <trkpt lat="43.64498" lon="1.33531">
        <ele>170</ele>
        <time>2023-04-28T13:27:28Z</time>
      </trkpt>
      <trkpt lat="43.64505" lon="1.33503">
        <ele>171.2</ele>
        <time>2023-04-28T13:27:33Z</time>
      </trkpt>
      <trkpt lat="43.64507" lon="1.33498">
        <ele>171.6</ele>
        <time>2023-04-28T13:27:34Z</time>
      </trkpt>
      <trkpt lat="43.6451" lon="1.33488">
        <ele>172.4</ele>
        <time>2023-04-28T13:27:36Z</time>
      </trkpt>
      <trkpt lat="43.64511" lon="1.33486">
        <ele>172.6</ele>
        <time>2023-04-28T13:27:37Z</time>
      </trkpt>
      <trkpt lat="43.64512" lon="1.33486">
        <ele>172.8</ele>
        <time>2023-04-28T13:27:38Z</time>
      </trkpt>
      <trkpt lat="43.64514" lon="1.33483">
        <ele>173.2</ele>
        <time>2023-04-28T13:27:41Z</time>
      </trkpt>
      <trkpt lat="43.6452" lon="1.33479">
        <ele>173.6</ele>
        <time>2023-04-28T13:27:44Z</time>
      </trkpt>
      <trkpt lat="43.64521" lon="1.33477">
        <ele>173.6</ele>
        <time>2023-04-28T13:27:45Z</time>
      </trkpt>
      <trkpt lat="43.6452" lon="1.33462">
        <ele>173.6</ele>
        <time>2023-04-28T13:27:48Z</time>
      </trkpt>
      <trkpt lat="43.64521" lon="1.33443">
        <ele>174</ele>
        <time>2023-04-28T13:27:53Z</time>
      </trkpt>
      <trkpt lat="43.64524" lon="1.33435">
        <ele>174.8</ele>
        <time>2023-04-28T13:27:55Z</time>
      </trkpt>
      <trkpt lat="43.64527" lon="1.33421">
        <ele>175.8</ele>
        <time>2023-04-28T13:27:59Z</time>
      </trkpt>
      <trkpt lat="43.64528" lon="1.33412">
        <ele>176.2</ele>
        <time>2023-04-28T13:28:01Z</time>
      </trkpt>
      <trkpt lat="43.64531" lon="1.33397">
        <ele>177.2</ele>
        <time>2023-04-28T13:28:04Z</time>
      </trkpt>
      <trkpt lat="43.64533" lon="1.3338">
        <ele>178.4</ele>
        <time>2023-04-28T13:28:08Z</time>
      </trkpt>
      <trkpt lat="43.64538" lon="1.33367">
        <ele>179.8</ele>
        <time>2023-04-28T13:28:11Z</time>
      </trkpt>
      <trkpt lat="43.64546" lon="1.33349">
        <ele>180.6</ele>
        <time>2023-04-28T13:28:15Z</time>
      </trkpt>
      <trkpt lat="43.64548" lon="1.33343">
        <ele>180.8</ele>
        <time>2023-04-28T13:28:16Z</time>
      </trkpt>
      <trkpt lat="43.64562" lon="1.33317">
        <ele>181.6</ele>
        <time>2023-04-28T13:28:21Z</time>
      </trkpt>
      <trkpt lat="43.64568" lon="1.33308">
        <ele>182</ele>
        <time>2023-04-28T13:28:23Z</time>
      </trkpt>
      <trkpt lat="43.64579" lon="1.33288">
        <ele>183</ele>
        <time>2023-04-28T13:28:27Z</time>
      </trkpt>
      <trkpt lat="43.64581" lon="1.33283">
        <ele>183.4</ele>
        <time>2023-04-28T13:28:28Z</time>
      </trkpt>
      <trkpt lat="43.64602" lon="1.33249">
        <ele>183.8</ele>
        <time>2023-04-28T13:28:35Z</time>
      </trkpt>
      <trkpt lat="43.64605" lon="1.33244">
        <ele>184</ele>
        <time>2023-04-28T13:28:36Z</time>
      </trkpt>
      <trkpt lat="43.6461" lon="1.33233">
        <ele>184.2</ele>
        <time>2023-04-28T13:28:38Z</time>
      </trkpt>
      <trkpt lat="43.64615" lon="1.33223">
        <ele>184.4</ele>
        <time>2023-04-28T13:28:40Z</time>
      </trkpt>
      <trkpt lat="43.64617" lon="1.33218">
        <ele>184.4</ele>
        <time>2023-04-28T13:28:41Z</time>
      </trkpt>
      <trkpt lat="43.64641" lon="1.33168">
        <ele>184.8</ele>
        <time>2023-04-28T13:28:49Z</time>
      </trkpt>
      <trkpt lat="43.64664" lon="1.33115">
        <ele>184.8</ele>
        <time>2023-04-28T13:28:57Z</time>
      </trkpt>
      <trkpt lat="43.6467" lon="1.33101">
        <ele>184.8</ele>
        <time>2023-04-28T13:28:59Z</time>
      </trkpt>
      <trkpt lat="43.64682" lon="1.33083">
        <ele>184.8</ele>
        <time>2023-04-28T13:29:02Z</time>
      </trkpt>
      <trkpt lat="43.64724" lon="1.33046">
        <ele>184.4</ele>
        <time>2023-04-28T13:29:10Z</time>
      </trkpt>
      <trkpt lat="43.64775" lon="1.33001">
        <ele>184.6</ele>
        <time>2023-04-28T13:29:19Z</time>
      </trkpt>
      <trkpt lat="43.6478" lon="1.32996">
        <ele>184.6</ele>
        <time>2023-04-28T13:29:20Z</time>
      </trkpt>
      <trkpt lat="43.64809" lon="1.32957">
        <ele>184.4</ele>
        <time>2023-04-28T13:29:26Z</time>
      </trkpt>
      <trkpt lat="43.64832" lon="1.32906">
        <ele>184</ele>
        <time>2023-04-28T13:29:32Z</time>
      </trkpt>
      <trkpt lat="43.64843" lon="1.32852">
        <ele>182.6</ele>
        <time>2023-04-28T13:29:36Z</time>
      </trkpt>
      <trkpt lat="43.64848" lon="1.32821">
        <ele>181</ele>
        <time>2023-04-28T13:29:38Z</time>
      </trkpt>
      <trkpt lat="43.64853" lon="1.3279">
        <ele>179.8</ele>
        <time>2023-04-28T13:29:40Z</time>
      </trkpt>
      <trkpt lat="43.64855" lon="1.32776">
        <ele>179.4</ele>
        <time>2023-04-28T13:29:41Z</time>
      </trkpt>
      <trkpt lat="43.64857" lon="1.32763">
        <ele>177.8</ele>
        <time>2023-04-28T13:29:42Z</time>
      </trkpt>
      <trkpt lat="43.6486" lon="1.32738">
        <ele>175.8</ele>
        <time>2023-04-28T13:29:44Z</time>
      </trkpt>
      <trkpt lat="43.6486" lon="1.32726">
        <ele>175</ele>
        <time>2023-04-28T13:29:45Z</time>
      </trkpt>
      <trkpt lat="43.64858" lon="1.32716">
        <ele>174.2</ele>
        <time>2023-04-28T13:29:46Z</time>
      </trkpt>
      <trkpt lat="43.64854" lon="1.32704">
        <ele>172.6</ele>
        <time>2023-04-28T13:29:47Z</time>
      </trkpt>
      <trkpt lat="43.64852" lon="1.32697">
        <ele>171.8</ele>
        <time>2023-04-28T13:29:48Z</time>
      </trkpt>
      <trkpt lat="43.64848" lon="1.32687">
        <ele>170.6</ele>
        <time>2023-04-28T13:29:49Z</time>
      </trkpt>
      <trkpt lat="43.64834" lon="1.32655">
        <ele>169.2</ele>
        <time>2023-04-28T13:29:52Z</time>
      </trkpt>
      <trkpt lat="43.6483" lon="1.32644">
        <ele>168.6</ele>
        <time>2023-04-28T13:29:53Z</time>
      </trkpt>
      <trkpt lat="43.64825" lon="1.32632">
        <ele>167.6</ele>
        <time>2023-04-28T13:29:54Z</time>
      </trkpt>
      <trkpt lat="43.64815" lon="1.32608">
        <ele>166.4</ele>
        <time>2023-04-28T13:29:56Z</time>
      </trkpt>
      <trkpt lat="43.64806" lon="1.32584">
        <ele>165.6</ele>
        <time>2023-04-28T13:29:58Z</time>
      </trkpt>
      <trkpt lat="43.64799" lon="1.32558">
        <ele>164.4</ele>
        <time>2023-04-28T13:30:00Z</time>
      </trkpt>
      <trkpt lat="43.64797" lon="1.32543">
        <ele>163.2</ele>
        <time>2023-04-28T13:30:01Z</time>
      </trkpt>
      <trkpt lat="43.64795" lon="1.32529">
        <ele>162.2</ele>
        <time>2023-04-28T13:30:02Z</time>
      </trkpt>
      <trkpt lat="43.64794" lon="1.32518">
        <ele>162</ele>
        <time>2023-04-28T13:30:03Z</time>
      </trkpt>
      <trkpt lat="43.64794" lon="1.32508">
        <ele>161.4</ele>
        <time>2023-04-28T13:30:04Z</time>
      </trkpt>
      <trkpt lat="43.64792" lon="1.32502">
        <ele>161.2</ele>
        <time>2023-04-28T13:30:05Z</time>
      </trkpt>
      <trkpt lat="43.6479" lon="1.32499">
        <ele>160.8</ele>
        <time>2023-04-28T13:30:06Z</time>
      </trkpt>
      <trkpt lat="43.64787" lon="1.32498">
        <ele>160.6</ele>
        <time>2023-04-28T13:30:07Z</time>
      </trkpt>
      <trkpt lat="43.64786" lon="1.325">
        <ele>160.2</ele>
        <time>2023-04-28T13:30:08Z</time>
      </trkpt>
      <trkpt lat="43.64786" lon="1.32504">
        <ele>159.8</ele>
        <time>2023-04-28T13:30:09Z</time>
      </trkpt>
      <trkpt lat="43.64784" lon="1.32508">
        <ele>159.6</ele>
        <time>2023-04-28T13:30:10Z</time>
      </trkpt>
      <trkpt lat="43.64778" lon="1.32511">
        <ele>159</ele>
        <time>2023-04-28T13:30:12Z</time>
      </trkpt>
      <trkpt lat="43.64774" lon="1.32511">
        <ele>158.6</ele>
        <time>2023-04-28T13:30:13Z</time>
      </trkpt>
      <trkpt lat="43.64769" lon="1.32511">
        <ele>158.4</ele>
        <time>2023-04-28T13:30:14Z</time>
      </trkpt>
      <trkpt lat="43.64757" lon="1.32508">
        <ele>157.4</ele>
        <time>2023-04-28T13:30:16Z</time>
      </trkpt>
      <trkpt lat="43.6474" lon="1.32505">
        <ele>156</ele>
        <time>2023-04-28T13:30:19Z</time>
      </trkpt>
      <trkpt lat="43.64736" lon="1.32501">
        <ele>155.6</ele>
        <time>2023-04-28T13:30:20Z</time>
      </trkpt>
      <trkpt lat="43.64732" lon="1.32494">
        <ele>155.2</ele>
        <time>2023-04-28T13:30:21Z</time>
      </trkpt>
      <trkpt lat="43.64723" lon="1.32481">
        <ele>155</ele>
        <time>2023-04-28T13:30:23Z</time>
      </trkpt>
      <trkpt lat="43.64717" lon="1.32476">
        <ele>155</ele>
        <time>2023-04-28T13:30:24Z</time>
      </trkpt>
      <trkpt lat="43.64676" lon="1.32448">
        <ele>154</ele>
        <time>2023-04-28T13:30:30Z</time>
      </trkpt>
      <trkpt lat="43.64662" lon="1.32439">
        <ele>154.2</ele>
        <time>2023-04-28T13:30:32Z</time>
      </trkpt>
      <trkpt lat="43.64635" lon="1.3242">
        <ele>154</ele>
        <time>2023-04-28T13:30:36Z</time>
      </trkpt>
      <trkpt lat="43.64592" lon="1.32383">
        <ele>154.6</ele>
        <time>2023-04-28T13:30:43Z</time>
      </trkpt>
      <trkpt lat="43.64579" lon="1.32371">
        <ele>154.8</ele>
        <time>2023-04-28T13:30:46Z</time>
      </trkpt>
      <trkpt lat="43.64576" lon="1.32369">
        <ele>154.8</ele>
        <time>2023-04-28T13:30:47Z</time>
      </trkpt>
      <trkpt lat="43.6457" lon="1.32366">
        <ele>154.8</ele>
        <time>2023-04-28T13:30:50Z</time>
      </trkpt>
      <trkpt lat="43.64555" lon="1.32357">
        <ele>154.8</ele>
        <time>2023-04-28T13:30:54Z</time>
      </trkpt>
      <trkpt lat="43.64519" lon="1.32338">
        <ele>155</ele>
        <time>2023-04-28T13:31:01Z</time>
      </trkpt>
      <trkpt lat="43.6451" lon="1.32332">
        <ele>155.2</ele>
        <time>2023-04-28T13:31:03Z</time>
      </trkpt>
      <trkpt lat="43.64493" lon="1.32323">
        <ele>155.8</ele>
        <time>2023-04-28T13:31:06Z</time>
      </trkpt>
      <trkpt lat="43.64471" lon="1.32308">
        <ele>156</ele>
        <time>2023-04-28T13:31:10Z</time>
      </trkpt>
      <trkpt lat="43.64437" lon="1.32274">
        <ele>156.2</ele>
        <time>2023-04-28T13:31:17Z</time>
      </trkpt>
      <trkpt lat="43.64432" lon="1.32267">
        <ele>156.2</ele>
        <time>2023-04-28T13:31:18Z</time>
      </trkpt>
      <trkpt lat="43.64408" lon="1.32232">
        <ele>156.6</ele>
        <time>2023-04-28T13:31:24Z</time>
      </trkpt>
      <trkpt lat="43.64391" lon="1.32204">
        <ele>157.4</ele>
        <time>2023-04-28T13:31:29Z</time>
      </trkpt>
      <trkpt lat="43.64378" lon="1.32181">
        <ele>157.8</ele>
        <time>2023-04-28T13:31:33Z</time>
      </trkpt>
      <trkpt lat="43.64368" lon="1.32164">
        <ele>158.4</ele>
        <time>2023-04-28T13:31:36Z</time>
      </trkpt>
      <trkpt lat="43.64356" lon="1.3214">
        <ele>159.4</ele>
        <time>2023-04-28T13:31:40Z</time>
      </trkpt>
      <trkpt lat="43.64343" lon="1.32115">
        <ele>160</ele>
        <time>2023-04-28T13:31:44Z</time>
      </trkpt>
      <trkpt lat="43.64319" lon="1.32063">
        <ele>160.4</ele>
        <time>2023-04-28T13:31:52Z</time>
      </trkpt>
      <trkpt lat="43.64317" lon="1.32056">
        <ele>160.4</ele>
        <time>2023-04-28T13:31:53Z</time>
      </trkpt>
      <trkpt lat="43.64303" lon="1.32016">
        <ele>161.2</ele>
        <time>2023-04-28T13:31:59Z</time>
      </trkpt>
      <trkpt lat="43.64293" lon="1.31988">
        <ele>161.4</ele>
        <time>2023-04-28T13:32:03Z</time>
      </trkpt>
      <trkpt lat="43.64282" lon="1.31955">
        <ele>161.6</ele>
        <time>2023-04-28T13:32:08Z</time>
      </trkpt>
      <trkpt lat="43.6428" lon="1.31948">
        <ele>161.6</ele>
        <time>2023-04-28T13:32:09Z</time>
      </trkpt>
      <trkpt lat="43.64274" lon="1.31936">
        <ele>161.6</ele>
        <time>2023-04-28T13:32:11Z</time>
      </trkpt>
      <trkpt lat="43.6427" lon="1.31931">
        <ele>161.6</ele>
        <time>2023-04-28T13:32:12Z</time>
      </trkpt>
      <trkpt lat="43.64265" lon="1.31926">
        <ele>161.4</ele>
        <time>2023-04-28T13:32:13Z</time>
      </trkpt>
      <trkpt lat="43.64246" lon="1.31909">
        <ele>161.4</ele>
        <time>2023-04-28T13:32:16Z</time>
      </trkpt>
      <trkpt lat="43.64225" lon="1.31893">
        <ele>160</ele>
        <time>2023-04-28T13:32:19Z</time>
      </trkpt>
      <trkpt lat="43.64206" lon="1.31879">
        <ele>158.6</ele>
        <time>2023-04-28T13:32:22Z</time>
      </trkpt>
      <trkpt lat="43.64199" lon="1.31875">
        <ele>158.4</ele>
        <time>2023-04-28T13:32:23Z</time>
      </trkpt>
      <trkpt lat="43.64179" lon="1.31862">
        <ele>157.4</ele>
        <time>2023-04-28T13:32:27Z</time>
      </trkpt>
      <trkpt lat="43.64154" lon="1.31855">
        <ele>157.2</ele>
        <time>2023-04-28T13:32:32Z</time>
      </trkpt>
      <trkpt lat="43.64115" lon="1.3184">
        <ele>157.2</ele>
        <time>2023-04-28T13:32:39Z</time>
      </trkpt>
      <trkpt lat="43.64103" lon="1.31834">
        <ele>157</ele>
        <time>2023-04-28T13:32:41Z</time>
      </trkpt>
      <trkpt lat="43.64087" lon="1.31826">
        <ele>157</ele>
        <time>2023-04-28T13:32:44Z</time>
      </trkpt>
      <trkpt lat="43.64043" lon="1.31799">
        <ele>156.6</ele>
        <time>2023-04-28T13:32:51Z</time>
      </trkpt>
      <trkpt lat="43.63999" lon="1.31773">
        <ele>156.8</ele>
        <time>2023-04-28T13:32:58Z</time>
      </trkpt>
      <trkpt lat="43.63986" lon="1.31766">
        <ele>157</ele>
        <time>2023-04-28T13:33:00Z</time>
      </trkpt>
      <trkpt lat="43.63967" lon="1.31755">
        <ele>157.4</ele>
        <time>2023-04-28T13:33:03Z</time>
      </trkpt>
      <trkpt lat="43.63955" lon="1.31747">
        <ele>157.4</ele>
        <time>2023-04-28T13:33:05Z</time>
      </trkpt>
      <trkpt lat="43.63913" lon="1.31713">
        <ele>157.6</ele>
        <time>2023-04-28T13:33:12Z</time>
      </trkpt>
      <trkpt lat="43.63876" lon="1.31679">
        <ele>157.6</ele>
        <time>2023-04-28T13:33:19Z</time>
      </trkpt>
      <trkpt lat="43.63841" lon="1.31643">
        <ele>157.6</ele>
        <time>2023-04-28T13:33:26Z</time>
      </trkpt>
      <trkpt lat="43.63829" lon="1.31629">
        <ele>157.6</ele>
        <time>2023-04-28T13:33:29Z</time>
      </trkpt>
      <trkpt lat="43.63821" lon="1.31616">
        <ele>157.6</ele>
        <time>2023-04-28T13:33:31Z</time>
      </trkpt>
      <trkpt lat="43.63792" lon="1.31556">
        <ele>157.8</ele>
        <time>2023-04-28T13:33:39Z</time>
      </trkpt>
      <trkpt lat="43.63782" lon="1.31533">
        <ele>158.6</ele>
        <time>2023-04-28T13:33:43Z</time>
      </trkpt>
      <trkpt lat="43.63778" lon="1.31526">
        <ele>158.6</ele>
        <time>2023-04-28T13:33:44Z</time>
      </trkpt>
      <trkpt lat="43.63754" lon="1.31481">
        <ele>158</ele>
        <time>2023-04-28T13:33:50Z</time>
      </trkpt>
      <trkpt lat="43.63726" lon="1.31419">
        <ele>158.6</ele>
        <time>2023-04-28T13:33:59Z</time>
      </trkpt>
      <trkpt lat="43.6372" lon="1.31407">
        <ele>159</ele>
        <time>2023-04-28T13:34:01Z</time>
      </trkpt>
      <trkpt lat="43.63716" lon="1.31392">
        <ele>159.2</ele>
        <time>2023-04-28T13:34:03Z</time>
      </trkpt>
      <trkpt lat="43.63713" lon="1.31385">
        <ele>159.2</ele>
        <time>2023-04-28T13:34:04Z</time>
      </trkpt>
      <trkpt lat="43.637" lon="1.31328">
        <ele>159.4</ele>
        <time>2023-04-28T13:34:11Z</time>
      </trkpt>
      <trkpt lat="43.63684" lon="1.31263">
        <ele>159.6</ele>
        <time>2023-04-28T13:34:19Z</time>
      </trkpt>
      <trkpt lat="43.63681" lon="1.31256">
        <ele>159.6</ele>
        <time>2023-04-28T13:34:20Z</time>
      </trkpt>
      <trkpt lat="43.63676" lon="1.31242">
        <ele>159.6</ele>
        <time>2023-04-28T13:34:22Z</time>
      </trkpt>
      <trkpt lat="43.63669" lon="1.31232">
        <ele>159.8</ele>
        <time>2023-04-28T13:34:24Z</time>
      </trkpt>
      <trkpt lat="43.63656" lon="1.31217">
        <ele>160</ele>
        <time>2023-04-28T13:34:28Z</time>
      </trkpt>
      <trkpt lat="43.63642" lon="1.31189">
        <ele>160.6</ele>
        <time>2023-04-28T13:34:33Z</time>
      </trkpt>
      <trkpt lat="43.63639" lon="1.31184">
        <ele>160.6</ele>
        <time>2023-04-28T13:34:34Z</time>
      </trkpt>
      <trkpt lat="43.63631" lon="1.31165">
        <ele>160.6</ele>
        <time>2023-04-28T13:34:37Z</time>
      </trkpt>
      <trkpt lat="43.63626" lon="1.31152">
        <ele>160.4</ele>
        <time>2023-04-28T13:34:39Z</time>
      </trkpt>
      <trkpt lat="43.63619" lon="1.31136">
        <ele>160.2</ele>
        <time>2023-04-28T13:34:41Z</time>
      </trkpt>
      <trkpt lat="43.63611" lon="1.31124">
        <ele>160</ele>
        <time>2023-04-28T13:34:43Z</time>
      </trkpt>
      <trkpt lat="43.63597" lon="1.31104">
        <ele>159.6</ele>
        <time>2023-04-28T13:34:47Z</time>
      </trkpt>
      <trkpt lat="43.63586" lon="1.31086">
        <ele>159.4</ele>
        <time>2023-04-28T13:34:50Z</time>
      </trkpt>
      <trkpt lat="43.63575" lon="1.31065">
        <ele>159.2</ele>
        <time>2023-04-28T13:34:53Z</time>
      </trkpt>
      <trkpt lat="43.63562" lon="1.31041">
        <ele>159.2</ele>
        <time>2023-04-28T13:34:56Z</time>
      </trkpt>
      <trkpt lat="43.63552" lon="1.31024">
        <ele>159.2</ele>
        <time>2023-04-28T13:34:58Z</time>
      </trkpt>
      <trkpt lat="43.63536" lon="1.30999">
        <ele>160</ele>
        <time>2023-04-28T13:35:02Z</time>
      </trkpt>
      <trkpt lat="43.6353" lon="1.30991">
        <ele>160</ele>
        <time>2023-04-28T13:35:03Z</time>
      </trkpt>
      <trkpt lat="43.6349" lon="1.30963">
        <ele>160.2</ele>
        <time>2023-04-28T13:35:09Z</time>
      </trkpt>
      <trkpt lat="43.63447" lon="1.30941">
        <ele>160.2</ele>
        <time>2023-04-28T13:35:16Z</time>
      </trkpt>
      <trkpt lat="43.63441" lon="1.30937">
        <ele>160.2</ele>
        <time>2023-04-28T13:35:17Z</time>
      </trkpt>
      <trkpt lat="43.63417" lon="1.30915">
        <ele>160</ele>
        <time>2023-04-28T13:35:21Z</time>
      </trkpt>
      <trkpt lat="43.63384" lon="1.30869">
        <ele>160</ele>
        <time>2023-04-28T13:35:28Z</time>
      </trkpt>
      <trkpt lat="43.63346" lon="1.30814">
        <ele>159.8</ele>
        <time>2023-04-28T13:35:36Z</time>
      </trkpt>
      <trkpt lat="43.63308" lon="1.30758">
        <ele>160</ele>
        <time>2023-04-28T13:35:45Z</time>
      </trkpt>
      <trkpt lat="43.63296" lon="1.30745">
        <ele>160</ele>
        <time>2023-04-28T13:35:48Z</time>
      </trkpt>
      <trkpt lat="43.63293" lon="1.30741">
        <ele>160.2</ele>
        <time>2023-04-28T13:35:49Z</time>
      </trkpt>
      <trkpt lat="43.63291" lon="1.30733">
        <ele>160.2</ele>
        <time>2023-04-28T13:35:51Z</time>
      </trkpt>
      <trkpt lat="43.63291" lon="1.30729">
        <ele>160.2</ele>
        <time>2023-04-28T13:35:52Z</time>
      </trkpt>
      <trkpt lat="43.63289" lon="1.30709">
        <ele>160</ele>
        <time>2023-04-28T13:35:56Z</time>
      </trkpt>
      <trkpt lat="43.63285" lon="1.30688">
        <ele>160</ele>
        <time>2023-04-28T13:36:00Z</time>
      </trkpt>
      <trkpt lat="43.63285" lon="1.30682">
        <ele>160</ele>
        <time>2023-04-28T13:36:01Z</time>
      </trkpt>
      <trkpt lat="43.63286" lon="1.30645">
        <ele>160.2</ele>
        <time>2023-04-28T13:36:07Z</time>
      </trkpt>
      <trkpt lat="43.63291" lon="1.30593">
        <ele>160.6</ele>
        <time>2023-04-28T13:36:12Z</time>
      </trkpt>
      <trkpt lat="43.63293" lon="1.30587">
        <ele>160.8</ele>
        <time>2023-04-28T13:36:13Z</time>
      </trkpt>
      <trkpt lat="43.63295" lon="1.30574">
        <ele>161</ele>
        <time>2023-04-28T13:36:15Z</time>
      </trkpt>
      <trkpt lat="43.63301" lon="1.30543">
        <ele>161.2</ele>
        <time>2023-04-28T13:36:18Z</time>
      </trkpt>
      <trkpt lat="43.63315" lon="1.30483">
        <ele>161.4</ele>
        <time>2023-04-28T13:36:25Z</time>
      </trkpt>
      <trkpt lat="43.63326" lon="1.30446">
        <ele>161.4</ele>
        <time>2023-04-28T13:36:29Z</time>
      </trkpt>
      <trkpt lat="43.63328" lon="1.30423">
        <ele>161.4</ele>
        <time>2023-04-28T13:36:31Z</time>
      </trkpt>
      <trkpt lat="43.63328" lon="1.30411">
        <ele>161.8</ele>
        <time>2023-04-28T13:36:32Z</time>
      </trkpt>
      <trkpt lat="43.63329" lon="1.30404">
        <ele>161.8</ele>
        <time>2023-04-28T13:36:33Z</time>
      </trkpt>
      <trkpt lat="43.63329" lon="1.30374">
        <ele>162.2</ele>
        <time>2023-04-28T13:36:36Z</time>
      </trkpt>
      <trkpt lat="43.63332" lon="1.30362">
        <ele>162.4</ele>
        <time>2023-04-28T13:36:38Z</time>
      </trkpt>
      <trkpt lat="43.63332" lon="1.30349">
        <ele>162.4</ele>
        <time>2023-04-28T13:36:40Z</time>
      </trkpt>
      <trkpt lat="43.63331" lon="1.30341">
        <ele>162.4</ele>
        <time>2023-04-28T13:36:41Z</time>
      </trkpt>
      <trkpt lat="43.63324" lon="1.30322">
        <ele>162.4</ele>
        <time>2023-04-28T13:36:43Z</time>
      </trkpt>
      <trkpt lat="43.63321" lon="1.30315">
        <ele>162.6</ele>
        <time>2023-04-28T13:36:44Z</time>
      </trkpt>
      <trkpt lat="43.63317" lon="1.30309">
        <ele>162.8</ele>
        <time>2023-04-28T13:36:46Z</time>
      </trkpt>
      <trkpt lat="43.63309" lon="1.30295">
        <ele>163.2</ele>
        <time>2023-04-28T13:36:50Z</time>
      </trkpt>
      <trkpt lat="43.63301" lon="1.30286">
        <ele>163.4</ele>
        <time>2023-04-28T13:36:53Z</time>
      </trkpt>
      <trkpt lat="43.63298" lon="1.30281">
        <ele>163.4</ele>
        <time>2023-04-28T13:36:54Z</time>
      </trkpt>
      <trkpt lat="43.63282" lon="1.30261">
        <ele>163.4</ele>
        <time>2023-04-28T13:36:57Z</time>
      </trkpt>
      <trkpt lat="43.63277" lon="1.30253">
        <ele>163.2</ele>
        <time>2023-04-28T13:36:58Z</time>
      </trkpt>
      <trkpt lat="43.63267" lon="1.3024">
        <ele>163.2</ele>
        <time>2023-04-28T13:37:00Z</time>
      </trkpt>
      <trkpt lat="43.63257" lon="1.30231">
        <ele>162.4</ele>
        <time>2023-04-28T13:37:02Z</time>
      </trkpt>
      <trkpt lat="43.63253" lon="1.30229">
        <ele>162.4</ele>
        <time>2023-04-28T13:37:03Z</time>
      </trkpt>
      <trkpt lat="43.63225" lon="1.3021">
        <ele>162.4</ele>
        <time>2023-04-28T13:37:08Z</time>
      </trkpt>
      <trkpt lat="43.6322" lon="1.30207">
        <ele>162.8</ele>
        <time>2023-04-28T13:37:09Z</time>
      </trkpt>
      <trkpt lat="43.63183" lon="1.30173">
        <ele>163</ele>
        <time>2023-04-28T13:37:15Z</time>
      </trkpt>
      <trkpt lat="43.63178" lon="1.30169">
        <ele>163</ele>
        <time>2023-04-28T13:37:16Z</time>
      </trkpt>
      <trkpt lat="43.63157" lon="1.30147">
        <ele>163.2</ele>
        <time>2023-04-28T13:37:20Z</time>
      </trkpt>
      <trkpt lat="43.63145" lon="1.30136">
        <ele>163.2</ele>
        <time>2023-04-28T13:37:22Z</time>
      </trkpt>
      <trkpt lat="43.63099" lon="1.30096">
        <ele>163.4</ele>
        <time>2023-04-28T13:37:30Z</time>
      </trkpt>
      <trkpt lat="43.63061" lon="1.30059">
        <ele>162.8</ele>
        <time>2023-04-28T13:37:37Z</time>
      </trkpt>
      <trkpt lat="43.63037" lon="1.30043">
        <ele>162.6</ele>
        <time>2023-04-28T13:37:41Z</time>
      </trkpt>
      <trkpt lat="43.6303" lon="1.30042">
        <ele>162.6</ele>
        <time>2023-04-28T13:37:42Z</time>
      </trkpt>
      <trkpt lat="43.62999" lon="1.30047">
        <ele>162.2</ele>
        <time>2023-04-28T13:37:47Z</time>
      </trkpt>
      <trkpt lat="43.62946" lon="1.30063">
        <ele>161.6</ele>
        <time>2023-04-28T13:37:56Z</time>
      </trkpt>
      <trkpt lat="43.6294" lon="1.30065">
        <ele>161.4</ele>
        <time>2023-04-28T13:37:57Z</time>
      </trkpt>
      <trkpt lat="43.62916" lon="1.30068">
        <ele>161.4</ele>
        <time>2023-04-28T13:38:01Z</time>
      </trkpt>
      <trkpt lat="43.6291" lon="1.30068">
        <ele>161.2</ele>
        <time>2023-04-28T13:38:02Z</time>
      </trkpt>
      <trkpt lat="43.62904" lon="1.30066">
        <ele>161</ele>
        <time>2023-04-28T13:38:03Z</time>
      </trkpt>
      <trkpt lat="43.62878" lon="1.30052">
        <ele>161</ele>
        <time>2023-04-28T13:38:08Z</time>
      </trkpt>
      <trkpt lat="43.62873" lon="1.3005">
        <ele>160.8</ele>
        <time>2023-04-28T13:38:09Z</time>
      </trkpt>
      <trkpt lat="43.62861" lon="1.30045">
        <ele>160.6</ele>
        <time>2023-04-28T13:38:12Z</time>
      </trkpt>
      <trkpt lat="43.62854" lon="1.3004">
        <ele>160.8</ele>
        <time>2023-04-28T13:38:15Z</time>
      </trkpt>
      <trkpt lat="43.62834" lon="1.3003">
        <ele>160.8</ele>
        <time>2023-04-28T13:38:20Z</time>
      </trkpt>
      <trkpt lat="43.6282" lon="1.30024">
        <ele>160.6</ele>
        <time>2023-04-28T13:38:23Z</time>
      </trkpt>
      <trkpt lat="43.62816" lon="1.30021">
        <ele>160.6</ele>
        <time>2023-04-28T13:38:24Z</time>
      </trkpt>
      <trkpt lat="43.62811" lon="1.30016">
        <ele>160.4</ele>
        <time>2023-04-28T13:38:25Z</time>
      </trkpt>
      <trkpt lat="43.62783" lon="1.29981">
        <ele>161</ele>
        <time>2023-04-28T13:38:32Z</time>
      </trkpt>
      <trkpt lat="43.62756" lon="1.29941">
        <ele>161.6</ele>
        <time>2023-04-28T13:38:39Z</time>
      </trkpt>
      <trkpt lat="43.62752" lon="1.29935">
        <ele>161.6</ele>
        <time>2023-04-28T13:38:40Z</time>
      </trkpt>
      <trkpt lat="43.62721" lon="1.2989">
        <ele>162.4</ele>
        <time>2023-04-28T13:38:48Z</time>
      </trkpt>
      <trkpt lat="43.62681" lon="1.29835">
        <ele>161.6</ele>
        <time>2023-04-28T13:38:58Z</time>
      </trkpt>
      <trkpt lat="43.62676" lon="1.2983">
        <ele>161.6</ele>
        <time>2023-04-28T13:38:59Z</time>
      </trkpt>
      <trkpt lat="43.62646" lon="1.29804">
        <ele>162.8</ele>
        <time>2023-04-28T13:39:05Z</time>
      </trkpt>
      <trkpt lat="43.62642" lon="1.298">
        <ele>163</ele>
        <time>2023-04-28T13:39:06Z</time>
      </trkpt>
      <trkpt lat="43.62613" lon="1.29774">
        <ele>163.8</ele>
        <time>2023-04-28T13:39:12Z</time>
      </trkpt>
      <trkpt lat="43.626" lon="1.29761">
        <ele>164.2</ele>
        <time>2023-04-28T13:39:15Z</time>
      </trkpt>
      <trkpt lat="43.62563" lon="1.29724">
        <ele>164.8</ele>
        <time>2023-04-28T13:39:23Z</time>
      </trkpt>
      <trkpt lat="43.62549" lon="1.29709">
        <ele>165.2</ele>
        <time>2023-04-28T13:39:26Z</time>
      </trkpt>
      <trkpt lat="43.62524" lon="1.29683">
        <ele>165.6</ele>
        <time>2023-04-28T13:39:31Z</time>
      </trkpt>
      <trkpt lat="43.6251" lon="1.29667">
        <ele>165.8</ele>
        <time>2023-04-28T13:39:34Z</time>
      </trkpt>
      <trkpt lat="43.62469" lon="1.29614">
        <ele>165.8</ele>
        <time>2023-04-28T13:39:43Z</time>
      </trkpt>
      <trkpt lat="43.62439" lon="1.29561">
        <ele>166</ele>
        <time>2023-04-28T13:39:51Z</time>
      </trkpt>
      <trkpt lat="43.62435" lon="1.29554">
        <ele>166</ele>
        <time>2023-04-28T13:39:52Z</time>
      </trkpt>
      <trkpt lat="43.6242" lon="1.29522">
        <ele>166.6</ele>
        <time>2023-04-28T13:39:57Z</time>
      </trkpt>
      <trkpt lat="43.62405" lon="1.29487">
        <ele>167.2</ele>
        <time>2023-04-28T13:40:02Z</time>
      </trkpt>
      <trkpt lat="43.62397" lon="1.29459">
        <ele>168</ele>
        <time>2023-04-28T13:40:06Z</time>
      </trkpt>
      <trkpt lat="43.62394" lon="1.29444">
        <ele>168.2</ele>
        <time>2023-04-28T13:40:08Z</time>
      </trkpt>
      <trkpt lat="43.62389" lon="1.29406">
        <ele>168.8</ele>
        <time>2023-04-28T13:40:13Z</time>
      </trkpt>
      <trkpt lat="43.62384" lon="1.2938">
        <ele>169.2</ele>
        <time>2023-04-28T13:40:16Z</time>
      </trkpt>
      <trkpt lat="43.62383" lon="1.29371">
        <ele>169.4</ele>
        <time>2023-04-28T13:40:17Z</time>
      </trkpt>
      <trkpt lat="43.62379" lon="1.29352">
        <ele>169.2</ele>
        <time>2023-04-28T13:40:19Z</time>
      </trkpt>
      <trkpt lat="43.62371" lon="1.29309">
        <ele>169</ele>
        <time>2023-04-28T13:40:23Z</time>
      </trkpt>
      <trkpt lat="43.6237" lon="1.29299">
        <ele>169</ele>
        <time>2023-04-28T13:40:24Z</time>
      </trkpt>
      <trkpt lat="43.62362" lon="1.29231">
        <ele>168.2</ele>
        <time>2023-04-28T13:40:30Z</time>
      </trkpt>
      <trkpt lat="43.62338" lon="1.29168">
        <ele>167.2</ele>
        <time>2023-04-28T13:40:36Z</time>
      </trkpt>
      <trkpt lat="43.62334" lon="1.29158">
        <ele>167</ele>
        <time>2023-04-28T13:40:37Z</time>
      </trkpt>
      <trkpt lat="43.62304" lon="1.29103">
        <ele>166.6</ele>
        <time>2023-04-28T13:40:43Z</time>
      </trkpt>
      <trkpt lat="43.62277" lon="1.29052">
        <ele>166.4</ele>
        <time>2023-04-28T13:40:49Z</time>
      </trkpt>
      <trkpt lat="43.6227" lon="1.29035">
        <ele>166.4</ele>
        <time>2023-04-28T13:40:51Z</time>
      </trkpt>
      <trkpt lat="43.62266" lon="1.29014">
        <ele>166.4</ele>
        <time>2023-04-28T13:40:53Z</time>
      </trkpt>
      <trkpt lat="43.62261" lon="1.28939">
        <ele>166.8</ele>
        <time>2023-04-28T13:41:00Z</time>
      </trkpt>
      <trkpt lat="43.6226" lon="1.28917">
        <ele>166.8</ele>
        <time>2023-04-28T13:41:02Z</time>
      </trkpt>
      <trkpt lat="43.62258" lon="1.28854">
        <ele>166.8</ele>
        <time>2023-04-28T13:41:08Z</time>
      </trkpt>
      <trkpt lat="43.6226" lon="1.28844">
        <ele>166.8</ele>
        <time>2023-04-28T13:41:09Z</time>
      </trkpt>
      <trkpt lat="43.62262" lon="1.28834">
        <ele>166.8</ele>
        <time>2023-04-28T13:41:10Z</time>
      </trkpt>
      <trkpt lat="43.62273" lon="1.28796">
        <ele>167</ele>
        <time>2023-04-28T13:41:14Z</time>
      </trkpt>
      <trkpt lat="43.62285" lon="1.2875">
        <ele>167</ele>
        <time>2023-04-28T13:41:19Z</time>
      </trkpt>
      <trkpt lat="43.62285" lon="1.28741">
        <ele>167</ele>
        <time>2023-04-28T13:41:20Z</time>
      </trkpt>
      <trkpt lat="43.62285" lon="1.28731">
        <ele>167</ele>
        <time>2023-04-28T13:41:21Z</time>
      </trkpt>
      <trkpt lat="43.62283" lon="1.28717">
        <ele>167</ele>
        <time>2023-04-28T13:41:23Z</time>
      </trkpt>
      <trkpt lat="43.62282" lon="1.28711">
        <ele>167.2</ele>
        <time>2023-04-28T13:41:24Z</time>
      </trkpt>
      <trkpt lat="43.62282" lon="1.28684">
        <ele>168.2</ele>
        <time>2023-04-28T13:41:29Z</time>
      </trkpt>
      <trkpt lat="43.62281" lon="1.28678">
        <ele>168.4</ele>
        <time>2023-04-28T13:41:30Z</time>
      </trkpt>
      <trkpt lat="43.62277" lon="1.28667">
        <ele>168.8</ele>
        <time>2023-04-28T13:41:32Z</time>
      </trkpt>
      <trkpt lat="43.62276" lon="1.28647">
        <ele>169</ele>
        <time>2023-04-28T13:41:35Z</time>
      </trkpt>
      <trkpt lat="43.62275" lon="1.2864">
        <ele>169</ele>
        <time>2023-04-28T13:41:36Z</time>
      </trkpt>
      <trkpt lat="43.62275" lon="1.28633">
        <ele>169</ele>
        <time>2023-04-28T13:41:37Z</time>
      </trkpt>
      <trkpt lat="43.62275" lon="1.28626">
        <ele>169</ele>
        <time>2023-04-28T13:41:38Z</time>
      </trkpt>
      <trkpt lat="43.62274" lon="1.2862">
        <ele>169</ele>
        <time>2023-04-28T13:41:39Z</time>
      </trkpt>
      <trkpt lat="43.62271" lon="1.28614">
        <ele>169</ele>
        <time>2023-04-28T13:41:40Z</time>
      </trkpt>
      <trkpt lat="43.62258" lon="1.28593">
        <ele>168.8</ele>
        <time>2023-04-28T13:41:44Z</time>
      </trkpt>
      <trkpt lat="43.62249" lon="1.28578">
        <ele>168.8</ele>
        <time>2023-04-28T13:41:47Z</time>
      </trkpt>
      <trkpt lat="43.62229" lon="1.28543">
        <ele>169</ele>
        <time>2023-04-28T13:41:53Z</time>
      </trkpt>
      <trkpt lat="43.62215" lon="1.28501">
        <ele>168.8</ele>
        <time>2023-04-28T13:41:58Z</time>
      </trkpt>
      <trkpt lat="43.62211" lon="1.28445">
        <ele>167.6</ele>
        <time>2023-04-28T13:42:04Z</time>
      </trkpt>
      <trkpt lat="43.62212" lon="1.28367">
        <ele>167.6</ele>
        <time>2023-04-28T13:42:12Z</time>
      </trkpt>
      <trkpt lat="43.62215" lon="1.28292">
        <ele>167.8</ele>
        <time>2023-04-28T13:42:20Z</time>
      </trkpt>
      <trkpt lat="43.62221" lon="1.2821">
        <ele>167.8</ele>
        <time>2023-04-28T13:42:29Z</time>
      </trkpt>
      <trkpt lat="43.6223" lon="1.28148">
        <ele>168.6</ele>
        <time>2023-04-28T13:42:36Z</time>
      </trkpt>
      <trkpt lat="43.62228" lon="1.28131">
        <ele>168.8</ele>
        <time>2023-04-28T13:42:38Z</time>
      </trkpt>
      <trkpt lat="43.62226" lon="1.28114">
        <ele>169.4</ele>
        <time>2023-04-28T13:42:40Z</time>
      </trkpt>
      <trkpt lat="43.62225" lon="1.28105">
        <ele>169.6</ele>
        <time>2023-04-28T13:42:41Z</time>
      </trkpt>
      <trkpt lat="43.62227" lon="1.28082">
        <ele>169.6</ele>
        <time>2023-04-28T13:42:44Z</time>
      </trkpt>
      <trkpt lat="43.62228" lon="1.28074">
        <ele>169.6</ele>
        <time>2023-04-28T13:42:45Z</time>
      </trkpt>
      <trkpt lat="43.62231" lon="1.28057">
        <ele>169.8</ele>
        <time>2023-04-28T13:42:47Z</time>
      </trkpt>
      <trkpt lat="43.62233" lon="1.2805">
        <ele>170</ele>
        <time>2023-04-28T13:42:48Z</time>
      </trkpt>
      <trkpt lat="43.62235" lon="1.28043">
        <ele>170</ele>
        <time>2023-04-28T13:42:49Z</time>
      </trkpt>
      <trkpt lat="43.62238" lon="1.28029">
        <ele>170</ele>
        <time>2023-04-28T13:42:51Z</time>
      </trkpt>
      <trkpt lat="43.62239" lon="1.28021">
        <ele>170</ele>
        <time>2023-04-28T13:42:52Z</time>
      </trkpt>
      <trkpt lat="43.62242" lon="1.28005">
        <ele>170.4</ele>
        <time>2023-04-28T13:42:54Z</time>
      </trkpt>
      <trkpt lat="43.62244" lon="1.27988">
        <ele>170.6</ele>
        <time>2023-04-28T13:42:56Z</time>
      </trkpt>
      <trkpt lat="43.62247" lon="1.27981">
        <ele>170.6</ele>
        <time>2023-04-28T13:42:57Z</time>
      </trkpt>
      <trkpt lat="43.62268" lon="1.27944">
        <ele>171</ele>
        <time>2023-04-28T13:43:03Z</time>
      </trkpt>
      <trkpt lat="43.62285" lon="1.27933">
        <ele>171</ele>
        <time>2023-04-28T13:43:07Z</time>
      </trkpt>
      <trkpt lat="43.62292" lon="1.27929">
        <ele>171.8</ele>
        <time>2023-04-28T13:43:09Z</time>
      </trkpt>
      <trkpt lat="43.62296" lon="1.27922">
        <ele>172.4</ele>
        <time>2023-04-28T13:43:11Z</time>
      </trkpt>
      <trkpt lat="43.62295" lon="1.27913">
        <ele>172.6</ele>
        <time>2023-04-28T13:43:13Z</time>
      </trkpt>
      <trkpt lat="43.62291" lon="1.27887">
        <ele>173.4</ele>
        <time>2023-04-28T13:43:17Z</time>
      </trkpt>
      <trkpt lat="43.62281" lon="1.27845">
        <ele>173.4</ele>
        <time>2023-04-28T13:43:23Z</time>
      </trkpt>
      <trkpt lat="43.62278" lon="1.27837">
        <ele>173.6</ele>
        <time>2023-04-28T13:43:24Z</time>
      </trkpt>
      <trkpt lat="43.62267" lon="1.27795">
        <ele>173.6</ele>
        <time>2023-04-28T13:43:29Z</time>
      </trkpt>
      <trkpt lat="43.62251" lon="1.27738">
        <ele>173.2</ele>
        <time>2023-04-28T13:43:36Z</time>
      </trkpt>
      <trkpt lat="43.6224" lon="1.27694">
        <ele>173.2</ele>
        <time>2023-04-28T13:43:42Z</time>
      </trkpt>
      <trkpt lat="43.62229" lon="1.27654">
        <ele>173</ele>
        <time>2023-04-28T13:43:47Z</time>
      </trkpt>
      <trkpt lat="43.62214" lon="1.27603">
        <ele>173</ele>
        <time>2023-04-28T13:43:53Z</time>
      </trkpt>
      <trkpt lat="43.6221" lon="1.27594">
        <ele>173</ele>
        <time>2023-04-28T13:43:54Z</time>
      </trkpt>
      <trkpt lat="43.62198" lon="1.27555">
        <ele>172.8</ele>
        <time>2023-04-28T13:43:58Z</time>
      </trkpt>
      <trkpt lat="43.62192" lon="1.27538">
        <ele>172.4</ele>
        <time>2023-04-28T13:44:00Z</time>
      </trkpt>
      <trkpt lat="43.62177" lon="1.27482">
        <ele>172</ele>
        <time>2023-04-28T13:44:06Z</time>
      </trkpt>
      <trkpt lat="43.62166" lon="1.27446">
        <ele>171.8</ele>
        <time>2023-04-28T13:44:10Z</time>
      </trkpt>
      <trkpt lat="43.62161" lon="1.27428">
        <ele>172.2</ele>
        <time>2023-04-28T13:44:12Z</time>
      </trkpt>
      <trkpt lat="43.62142" lon="1.27368">
        <ele>173</ele>
        <time>2023-04-28T13:44:19Z</time>
      </trkpt>
      <trkpt lat="43.62137" lon="1.27324">
        <ele>173.2</ele>
        <time>2023-04-28T13:44:24Z</time>
      </trkpt>
      <trkpt lat="43.62131" lon="1.27289">
        <ele>173.2</ele>
        <time>2023-04-28T13:44:28Z</time>
      </trkpt>
      <trkpt lat="43.6213" lon="1.27273">
        <ele>173.2</ele>
        <time>2023-04-28T13:44:30Z</time>
      </trkpt>
      <trkpt lat="43.6213" lon="1.27253">
        <ele>173.6</ele>
        <time>2023-04-28T13:44:32Z</time>
      </trkpt>
      <trkpt lat="43.6213" lon="1.27244">
        <ele>173.6</ele>
        <time>2023-04-28T13:44:33Z</time>
      </trkpt>
      <trkpt lat="43.62132" lon="1.27227">
        <ele>173.6</ele>
        <time>2023-04-28T13:44:35Z</time>
      </trkpt>
      <trkpt lat="43.62134" lon="1.27221">
        <ele>173.6</ele>
        <time>2023-04-28T13:44:36Z</time>
      </trkpt>
      <trkpt lat="43.62133" lon="1.27204">
        <ele>173.8</ele>
        <time>2023-04-28T13:44:38Z</time>
      </trkpt>
      <trkpt lat="43.62132" lon="1.27194">
        <ele>173.8</ele>
        <time>2023-04-28T13:44:39Z</time>
      </trkpt>
      <trkpt lat="43.6213" lon="1.27178">
        <ele>174.2</ele>
        <time>2023-04-28T13:44:41Z</time>
      </trkpt>
      <trkpt lat="43.62127" lon="1.27164">
        <ele>174</ele>
        <time>2023-04-28T13:44:43Z</time>
      </trkpt>
      <trkpt lat="43.62119" lon="1.27117">
        <ele>174.4</ele>
        <time>2023-04-28T13:44:49Z</time>
      </trkpt>
      <trkpt lat="43.62118" lon="1.27107">
        <ele>174.4</ele>
        <time>2023-04-28T13:44:50Z</time>
      </trkpt>
      <trkpt lat="43.62115" lon="1.27091">
        <ele>174.6</ele>
        <time>2023-04-28T13:44:52Z</time>
      </trkpt>
      <trkpt lat="43.62114" lon="1.27083">
        <ele>174.8</ele>
        <time>2023-04-28T13:44:53Z</time>
      </trkpt>
      <trkpt lat="43.6211" lon="1.27069">
        <ele>175</ele>
        <time>2023-04-28T13:44:55Z</time>
      </trkpt>
      <trkpt lat="43.62104" lon="1.27038">
        <ele>175.2</ele>
        <time>2023-04-28T13:44:59Z</time>
      </trkpt>
      <trkpt lat="43.62103" lon="1.2703">
        <ele>175.2</ele>
        <time>2023-04-28T13:45:00Z</time>
      </trkpt>
      <trkpt lat="43.62101" lon="1.27016">
        <ele>175.2</ele>
        <time>2023-04-28T13:45:02Z</time>
      </trkpt>
      <trkpt lat="43.62096" lon="1.26982">
        <ele>175.2</ele>
        <time>2023-04-28T13:45:06Z</time>
      </trkpt>
      <trkpt lat="43.62094" lon="1.26974">
        <ele>175.2</ele>
        <time>2023-04-28T13:45:07Z</time>
      </trkpt>
      <trkpt lat="43.62083" lon="1.26916">
        <ele>175.8</ele>
        <time>2023-04-28T13:45:14Z</time>
      </trkpt>
      <trkpt lat="43.62082" lon="1.26909">
        <ele>175.8</ele>
        <time>2023-04-28T13:45:15Z</time>
      </trkpt>
      <trkpt lat="43.62079" lon="1.26892">
        <ele>176.2</ele>
        <time>2023-04-28T13:45:17Z</time>
      </trkpt>
      <trkpt lat="43.62077" lon="1.2688">
        <ele>176.4</ele>
        <time>2023-04-28T13:45:19Z</time>
      </trkpt>
      <trkpt lat="43.62077" lon="1.26873">
        <ele>176.4</ele>
        <time>2023-04-28T13:45:20Z</time>
      </trkpt>
      <trkpt lat="43.62075" lon="1.26862">
        <ele>176.6</ele>
        <time>2023-04-28T13:45:22Z</time>
      </trkpt>
      <trkpt lat="43.62073" lon="1.26849">
        <ele>176.6</ele>
        <time>2023-04-28T13:45:24Z</time>
      </trkpt>
      <trkpt lat="43.62073" lon="1.26843">
        <ele>176.8</ele>
        <time>2023-04-28T13:45:25Z</time>
      </trkpt>
      <trkpt lat="43.62072" lon="1.26838">
        <ele>176.8</ele>
        <time>2023-04-28T13:45:26Z</time>
      </trkpt>
      <trkpt lat="43.62068" lon="1.2682">
        <ele>177</ele>
        <time>2023-04-28T13:45:29Z</time>
      </trkpt>
      <trkpt lat="43.62059" lon="1.26781">
        <ele>177</ele>
        <time>2023-04-28T13:45:34Z</time>
      </trkpt>
      <trkpt lat="43.62051" lon="1.2675">
        <ele>177</ele>
        <time>2023-04-28T13:45:38Z</time>
      </trkpt>
      <trkpt lat="43.62051" lon="1.26743">
        <ele>177</ele>
        <time>2023-04-28T13:45:39Z</time>
      </trkpt>
      <trkpt lat="43.62046" lon="1.26717">
        <ele>177.4</ele>
        <time>2023-04-28T13:45:43Z</time>
      </trkpt>
      <trkpt lat="43.62043" lon="1.267">
        <ele>177.6</ele>
        <time>2023-04-28T13:45:45Z</time>
      </trkpt>
      <trkpt lat="43.62041" lon="1.2669">
        <ele>178</ele>
        <time>2023-04-28T13:45:46Z</time>
      </trkpt>
      <trkpt lat="43.62039" lon="1.2668">
        <ele>177.6</ele>
        <time>2023-04-28T13:45:47Z</time>
      </trkpt>
      <trkpt lat="43.62033" lon="1.26641">
        <ele>177.8</ele>
        <time>2023-04-28T13:45:51Z</time>
      </trkpt>
      <trkpt lat="43.62031" lon="1.26632">
        <ele>177.6</ele>
        <time>2023-04-28T13:45:52Z</time>
      </trkpt>
      <trkpt lat="43.62028" lon="1.26615">
        <ele>177.6</ele>
        <time>2023-04-28T13:45:54Z</time>
      </trkpt>
      <trkpt lat="43.62025" lon="1.26594">
        <ele>177.6</ele>
        <time>2023-04-28T13:45:56Z</time>
      </trkpt>
      <trkpt lat="43.62021" lon="1.26564">
        <ele>177.8</ele>
        <time>2023-04-28T13:46:00Z</time>
      </trkpt>
      <trkpt lat="43.62015" lon="1.26515">
        <ele>178.2</ele>
        <time>2023-04-28T13:46:06Z</time>
      </trkpt>
      <trkpt lat="43.62013" lon="1.26501">
        <ele>178.4</ele>
        <time>2023-04-28T13:46:08Z</time>
      </trkpt>
      <trkpt lat="43.62009" lon="1.26472">
        <ele>178.6</ele>
        <time>2023-04-28T13:46:11Z</time>
      </trkpt>
      <trkpt lat="43.62004" lon="1.26439">
        <ele>178.2</ele>
        <time>2023-04-28T13:46:15Z</time>
      </trkpt>
      <trkpt lat="43.62003" lon="1.2643">
        <ele>178.2</ele>
        <time>2023-04-28T13:46:16Z</time>
      </trkpt>
      <trkpt lat="43.61993" lon="1.26382">
        <ele>178.2</ele>
        <time>2023-04-28T13:46:22Z</time>
      </trkpt>
      <trkpt lat="43.61992" lon="1.26368">
        <ele>178.8</ele>
        <time>2023-04-28T13:46:24Z</time>
      </trkpt>
      <trkpt lat="43.61991" lon="1.26352">
        <ele>179.2</ele>
        <time>2023-04-28T13:46:26Z</time>
      </trkpt>
      <trkpt lat="43.61991" lon="1.26346">
        <ele>179.4</ele>
        <time>2023-04-28T13:46:27Z</time>
      </trkpt>
      <trkpt lat="43.61985" lon="1.2632">
        <ele>179.6</ele>
        <time>2023-04-28T13:46:31Z</time>
      </trkpt>
      <trkpt lat="43.61979" lon="1.26309">
        <ele>179.8</ele>
        <time>2023-04-28T13:46:33Z</time>
      </trkpt>
      <trkpt lat="43.61973" lon="1.26303">
        <ele>179.8</ele>
        <time>2023-04-28T13:46:35Z</time>
      </trkpt>
      <trkpt lat="43.61969" lon="1.26301">
        <ele>179.8</ele>
        <time>2023-04-28T13:46:36Z</time>
      </trkpt>
      <trkpt lat="43.61959" lon="1.26302">
        <ele>179.8</ele>
        <time>2023-04-28T13:46:38Z</time>
      </trkpt>
      <trkpt lat="43.61953" lon="1.26306">
        <ele>179.8</ele>
        <time>2023-04-28T13:46:39Z</time>
      </trkpt>
      <trkpt lat="43.61947" lon="1.2631">
        <ele>180</ele>
        <time>2023-04-28T13:46:40Z</time>
      </trkpt>
      <trkpt lat="43.6194" lon="1.26314">
        <ele>180</ele>
        <time>2023-04-28T13:46:41Z</time>
      </trkpt>
      <trkpt lat="43.61933" lon="1.26317">
        <ele>180</ele>
        <time>2023-04-28T13:46:42Z</time>
      </trkpt>
      <trkpt lat="43.61908" lon="1.26335">
        <ele>179</ele>
        <time>2023-04-28T13:46:46Z</time>
      </trkpt>
      <trkpt lat="43.61902" lon="1.26341">
        <ele>178.8</ele>
        <time>2023-04-28T13:46:47Z</time>
      </trkpt>
      <trkpt lat="43.61897" lon="1.26348">
        <ele>178.6</ele>
        <time>2023-04-28T13:46:48Z</time>
      </trkpt>
      <trkpt lat="43.61884" lon="1.26371">
        <ele>178.4</ele>
        <time>2023-04-28T13:46:51Z</time>
      </trkpt>
      <trkpt lat="43.61875" lon="1.26399">
        <ele>178</ele>
        <time>2023-04-28T13:46:54Z</time>
      </trkpt>
      <trkpt lat="43.61874" lon="1.26409">
        <ele>177.4</ele>
        <time>2023-04-28T13:46:55Z</time>
      </trkpt>
      <trkpt lat="43.61873" lon="1.2642">
        <ele>177.2</ele>
        <time>2023-04-28T13:46:56Z</time>
      </trkpt>
      <trkpt lat="43.6187" lon="1.26443">
        <ele>177</ele>
        <time>2023-04-28T13:46:59Z</time>
      </trkpt>
      <trkpt lat="43.61869" lon="1.26448">
        <ele>177</ele>
        <time>2023-04-28T13:47:01Z</time>
      </trkpt>
      <trkpt lat="43.61864" lon="1.26455">
        <ele>177.4</ele>
        <time>2023-04-28T13:47:04Z</time>
      </trkpt>
      <trkpt lat="43.61864" lon="1.2646">
        <ele>177.4</ele>
        <time>2023-04-28T13:47:05Z</time>
      </trkpt>
      <trkpt lat="43.6186" lon="1.26487">
        <ele>177.6</ele>
        <time>2023-04-28T13:47:09Z</time>
      </trkpt>
      <trkpt lat="43.61857" lon="1.26501">
        <ele>178</ele>
        <time>2023-04-28T13:47:11Z</time>
      </trkpt>
      <trkpt lat="43.6185" lon="1.26519">
        <ele>178</ele>
        <time>2023-04-28T13:47:14Z</time>
      </trkpt>
      <trkpt lat="43.61844" lon="1.26529">
        <ele>178.2</ele>
        <time>2023-04-28T13:47:16Z</time>
      </trkpt>
      <trkpt lat="43.61838" lon="1.26532">
        <ele>178.2</ele>
        <time>2023-04-28T13:47:18Z</time>
      </trkpt>
      <trkpt lat="43.61836" lon="1.26525">
        <ele>178.2</ele>
        <time>2023-04-28T13:47:20Z</time>
      </trkpt>
      <trkpt lat="43.61835" lon="1.26513">
        <ele>178.2</ele>
        <time>2023-04-28T13:47:22Z</time>
      </trkpt>
      <trkpt lat="43.61834" lon="1.26505">
        <ele>178.2</ele>
        <time>2023-04-28T13:47:23Z</time>
      </trkpt>
      <trkpt lat="43.61822" lon="1.26453">
        <ele>177.8</ele>
        <time>2023-04-28T13:47:29Z</time>
      </trkpt>
      <trkpt lat="43.61803" lon="1.26375">
        <ele>177</ele>
        <time>2023-04-28T13:47:38Z</time>
      </trkpt>
      <trkpt lat="43.61787" lon="1.26304">
        <ele>177</ele>
        <time>2023-04-28T13:47:47Z</time>
      </trkpt>
      <trkpt lat="43.61785" lon="1.26296">
        <ele>176.8</ele>
        <time>2023-04-28T13:47:48Z</time>
      </trkpt>
      <trkpt lat="43.61769" lon="1.26217">
        <ele>177.4</ele>
        <time>2023-04-28T13:47:58Z</time>
      </trkpt>
      <trkpt lat="43.61765" lon="1.26176">
        <ele>178.4</ele>
        <time>2023-04-28T13:48:03Z</time>
      </trkpt>
      <trkpt lat="43.61765" lon="1.26168">
        <ele>178.6</ele>
        <time>2023-04-28T13:48:04Z</time>
      </trkpt>
      <trkpt lat="43.61764" lon="1.26161">
        <ele>178.4</ele>
        <time>2023-04-28T13:48:05Z</time>
      </trkpt>
      <trkpt lat="43.61752" lon="1.26115">
        <ele>177.4</ele>
        <time>2023-04-28T13:48:12Z</time>
      </trkpt>
      <trkpt lat="43.61738" lon="1.26067">
        <ele>177.2</ele>
        <time>2023-04-28T13:48:20Z</time>
      </trkpt>
      <trkpt lat="43.61735" lon="1.26054">
        <ele>177</ele>
        <time>2023-04-28T13:48:22Z</time>
      </trkpt>
      <trkpt lat="43.61732" lon="1.26044">
        <ele>177</ele>
        <time>2023-04-28T13:48:24Z</time>
      </trkpt>
      <trkpt lat="43.61725" lon="1.26029">
        <ele>177</ele>
        <time>2023-04-28T13:48:27Z</time>
      </trkpt>
      <trkpt lat="43.61721" lon="1.2602">
        <ele>177.2</ele>
        <time>2023-04-28T13:48:29Z</time>
      </trkpt>
      <trkpt lat="43.61716" lon="1.26005">
        <ele>178.2</ele>
        <time>2023-04-28T13:48:32Z</time>
      </trkpt>
      <trkpt lat="43.61714" lon="1.26001">
        <ele>178.4</ele>
        <time>2023-04-28T13:48:33Z</time>
      </trkpt>
      <trkpt lat="43.61708" lon="1.25994">
        <ele>179.2</ele>
        <time>2023-04-28T13:48:35Z</time>
      </trkpt>
      <trkpt lat="43.61695" lon="1.25983">
        <ele>179.6</ele>
        <time>2023-04-28T13:48:39Z</time>
      </trkpt>
      <trkpt lat="43.61688" lon="1.25976">
        <ele>180.4</ele>
        <time>2023-04-28T13:48:42Z</time>
      </trkpt>
      <trkpt lat="43.61684" lon="1.2597">
        <ele>180.6</ele>
        <time>2023-04-28T13:48:44Z</time>
      </trkpt>
      <trkpt lat="43.61673" lon="1.25951">
        <ele>181.4</ele>
        <time>2023-04-28T13:48:49Z</time>
      </trkpt>
      <trkpt lat="43.6167" lon="1.25943">
        <ele>181.6</ele>
        <time>2023-04-28T13:48:51Z</time>
      </trkpt>
      <trkpt lat="43.61659" lon="1.25916">
        <ele>182.6</ele>
        <time>2023-04-28T13:48:57Z</time>
      </trkpt>
      <trkpt lat="43.61656" lon="1.25907">
        <ele>182.8</ele>
        <time>2023-04-28T13:48:59Z</time>
      </trkpt>
      <trkpt lat="43.61649" lon="1.25882">
        <ele>184</ele>
        <time>2023-04-28T13:49:05Z</time>
      </trkpt>
      <trkpt lat="43.61647" lon="1.25876">
        <ele>184.4</ele>
        <time>2023-04-28T13:49:07Z</time>
      </trkpt>
      <trkpt lat="43.61648" lon="1.25868">
        <ele>184.8</ele>
        <time>2023-04-28T13:49:09Z</time>
      </trkpt>
      <trkpt lat="43.61649" lon="1.25865">
        <ele>185.4</ele>
        <time>2023-04-28T13:49:10Z</time>
      </trkpt>
      <trkpt lat="43.61649" lon="1.25861">
        <ele>186.2</ele>
        <time>2023-04-28T13:49:14Z</time>
      </trkpt>
      <trkpt lat="43.6165" lon="1.25857">
        <ele>186.2</ele>
        <time>2023-04-28T13:49:16Z</time>
      </trkpt>
      <trkpt lat="43.6165" lon="1.25854">
        <ele>186</ele>
        <time>2023-04-28T13:49:22Z</time>
      </trkpt>
      <trkpt lat="43.61651" lon="1.2585">
        <ele>185.8</ele>
        <time>2023-04-28T13:49:23Z</time>
      </trkpt>
      <trkpt lat="43.6165" lon="1.25844">
        <ele>185.8</ele>
        <time>2023-04-28T13:49:24Z</time>
      </trkpt>
      <trkpt lat="43.61642" lon="1.2582">
        <ele>185.2</ele>
        <time>2023-04-28T13:49:27Z</time>
      </trkpt>
      <trkpt lat="43.61628" lon="1.25785">
        <ele>184.2</ele>
        <time>2023-04-28T13:49:31Z</time>
      </trkpt>
      <trkpt lat="43.61624" lon="1.25774">
        <ele>184</ele>
        <time>2023-04-28T13:49:32Z</time>
      </trkpt>
      <trkpt lat="43.61604" lon="1.25728">
        <ele>183.2</ele>
        <time>2023-04-28T13:49:37Z</time>
      </trkpt>
      <trkpt lat="43.61597" lon="1.2571">
        <ele>182.6</ele>
        <time>2023-04-28T13:49:39Z</time>
      </trkpt>
      <trkpt lat="43.61579" lon="1.2565">
        <ele>182.2</ele>
        <time>2023-04-28T13:49:45Z</time>
      </trkpt>
      <trkpt lat="43.61577" lon="1.25641">
        <ele>182</ele>
        <time>2023-04-28T13:49:46Z</time>
      </trkpt>
      <trkpt lat="43.6157" lon="1.25588">
        <ele>181.8</ele>
        <time>2023-04-28T13:49:51Z</time>
      </trkpt>
      <trkpt lat="43.61569" lon="1.25566">
        <ele>181.6</ele>
        <time>2023-04-28T13:49:53Z</time>
      </trkpt>
      <trkpt lat="43.6157" lon="1.25538">
        <ele>181.4</ele>
        <time>2023-04-28T13:49:57Z</time>
      </trkpt>
      <trkpt lat="43.6157" lon="1.2549">
        <ele>181.4</ele>
        <time>2023-04-28T13:50:01Z</time>
      </trkpt>
      <trkpt lat="43.61568" lon="1.25469">
        <ele>181.4</ele>
        <time>2023-04-28T13:50:03Z</time>
      </trkpt>
      <trkpt lat="43.6156" lon="1.25403">
        <ele>181.8</ele>
        <time>2023-04-28T13:50:10Z</time>
      </trkpt>
      <trkpt lat="43.6156" lon="1.25396">
        <ele>181.8</ele>
        <time>2023-04-28T13:50:11Z</time>
      </trkpt>
      <trkpt lat="43.61559" lon="1.25359">
        <ele>182</ele>
        <time>2023-04-28T13:50:15Z</time>
      </trkpt>
      <trkpt lat="43.61559" lon="1.25304">
        <ele>182.8</ele>
        <time>2023-04-28T13:50:21Z</time>
      </trkpt>
      <trkpt lat="43.61561" lon="1.25268">
        <ele>183.2</ele>
        <time>2023-04-28T13:50:25Z</time>
      </trkpt>
      <trkpt lat="43.61563" lon="1.25252">
        <ele>183.2</ele>
        <time>2023-04-28T13:50:27Z</time>
      </trkpt>
      <trkpt lat="43.61573" lon="1.252">
        <ele>183.8</ele>
        <time>2023-04-28T13:50:33Z</time>
      </trkpt>
      <trkpt lat="43.61578" lon="1.25175">
        <ele>184.2</ele>
        <time>2023-04-28T13:50:36Z</time>
      </trkpt>
      <trkpt lat="43.61584" lon="1.25145">
        <ele>184.6</ele>
        <time>2023-04-28T13:50:40Z</time>
      </trkpt>
      <trkpt lat="43.61584" lon="1.25137">
        <ele>184.6</ele>
        <time>2023-04-28T13:50:41Z</time>
      </trkpt>
      <trkpt lat="43.61582" lon="1.25115">
        <ele>185.2</ele>
        <time>2023-04-28T13:50:44Z</time>
      </trkpt>
      <trkpt lat="43.6158" lon="1.25108">
        <ele>185.2</ele>
        <time>2023-04-28T13:50:45Z</time>
      </trkpt>
      <trkpt lat="43.61579" lon="1.25102">
        <ele>185.4</ele>
        <time>2023-04-28T13:50:46Z</time>
      </trkpt>
      <trkpt lat="43.61571" lon="1.25075">
        <ele>186.4</ele>
        <time>2023-04-28T13:50:50Z</time>
      </trkpt>
      <trkpt lat="43.61567" lon="1.25063">
        <ele>186.8</ele>
        <time>2023-04-28T13:50:52Z</time>
      </trkpt>
      <trkpt lat="43.61561" lon="1.25046">
        <ele>187.6</ele>
        <time>2023-04-28T13:50:55Z</time>
      </trkpt>
      <trkpt lat="43.6156" lon="1.2504">
        <ele>187.6</ele>
        <time>2023-04-28T13:50:56Z</time>
      </trkpt>
      <trkpt lat="43.61558" lon="1.25029">
        <ele>187.8</ele>
        <time>2023-04-28T13:50:58Z</time>
      </trkpt>
      <trkpt lat="43.61557" lon="1.25018">
        <ele>188.2</ele>
        <time>2023-04-28T13:51:00Z</time>
      </trkpt>
      <trkpt lat="43.61556" lon="1.25013">
        <ele>188.6</ele>
        <time>2023-04-28T13:51:01Z</time>
      </trkpt>
      <trkpt lat="43.61554" lon="1.25009">
        <ele>189</ele>
        <time>2023-04-28T13:51:02Z</time>
      </trkpt>
      <trkpt lat="43.61548" lon="1.25004">
        <ele>189.6</ele>
        <time>2023-04-28T13:51:04Z</time>
      </trkpt>
      <trkpt lat="43.61545" lon="1.25003">
        <ele>189.8</ele>
        <time>2023-04-28T13:51:05Z</time>
      </trkpt>
      <trkpt lat="43.61536" lon="1.24998">
        <ele>190.4</ele>
        <time>2023-04-28T13:51:08Z</time>
      </trkpt>
      <trkpt lat="43.61533" lon="1.24993">
        <ele>191</ele>
        <time>2023-04-28T13:51:09Z</time>
      </trkpt>
      <trkpt lat="43.6153" lon="1.24967">
        <ele>192.2</ele>
        <time>2023-04-28T13:51:14Z</time>
      </trkpt>
      <trkpt lat="43.6153" lon="1.24962">
        <ele>192.2</ele>
        <time>2023-04-28T13:51:15Z</time>
      </trkpt>
      <trkpt lat="43.61528" lon="1.24958">
        <ele>192.2</ele>
        <time>2023-04-28T13:51:16Z</time>
      </trkpt>
      <trkpt lat="43.6152" lon="1.24957">
        <ele>192.4</ele>
        <time>2023-04-28T13:51:18Z</time>
      </trkpt>
      <trkpt lat="43.61506" lon="1.24968">
        <ele>193.2</ele>
        <time>2023-04-28T13:51:22Z</time>
      </trkpt>
      <trkpt lat="43.61501" lon="1.2497">
        <ele>193.6</ele>
        <time>2023-04-28T13:51:23Z</time>
      </trkpt>
      <trkpt lat="43.61497" lon="1.24971">
        <ele>193.8</ele>
        <time>2023-04-28T13:51:24Z</time>
      </trkpt>
      <trkpt lat="43.61493" lon="1.24973">
        <ele>194.4</ele>
        <time>2023-04-28T13:51:25Z</time>
      </trkpt>
      <trkpt lat="43.61473" lon="1.24976">
        <ele>195.2</ele>
        <time>2023-04-28T13:51:30Z</time>
      </trkpt>
      <trkpt lat="43.61459" lon="1.24973">
        <ele>195.4</ele>
        <time>2023-04-28T13:51:33Z</time>
      </trkpt>
      <trkpt lat="43.6145" lon="1.24969">
        <ele>195.8</ele>
        <time>2023-04-28T13:51:35Z</time>
      </trkpt>
      <trkpt lat="43.61427" lon="1.24961">
        <ele>196.6</ele>
        <time>2023-04-28T13:51:40Z</time>
      </trkpt>
      <trkpt lat="43.61414" lon="1.24956">
        <ele>197</ele>
        <time>2023-04-28T13:51:43Z</time>
      </trkpt>
      <trkpt lat="43.61401" lon="1.24953">
        <ele>197.8</ele>
        <time>2023-04-28T13:51:46Z</time>
      </trkpt>
      <trkpt lat="43.61379" lon="1.24953">
        <ele>198.4</ele>
        <time>2023-04-28T13:51:51Z</time>
      </trkpt>
      <trkpt lat="43.61357" lon="1.24955">
        <ele>198.8</ele>
        <time>2023-04-28T13:51:56Z</time>
      </trkpt>
      <trkpt lat="43.61344" lon="1.24953">
        <ele>199.2</ele>
        <time>2023-04-28T13:51:59Z</time>
      </trkpt>
      <trkpt lat="43.61326" lon="1.2495">
        <ele>200</ele>
        <time>2023-04-28T13:52:03Z</time>
      </trkpt>
      <trkpt lat="43.61305" lon="1.24942">
        <ele>200.4</ele>
        <time>2023-04-28T13:52:08Z</time>
      </trkpt>
      <trkpt lat="43.61272" lon="1.24922">
        <ele>201</ele>
        <time>2023-04-28T13:52:16Z</time>
      </trkpt>
      <trkpt lat="43.61268" lon="1.24918">
        <ele>201</ele>
        <time>2023-04-28T13:52:17Z</time>
      </trkpt>
      <trkpt lat="43.6123" lon="1.24871">
        <ele>201.6</ele>
        <time>2023-04-28T13:52:28Z</time>
      </trkpt>
      <trkpt lat="43.61206" lon="1.24837">
        <ele>202.2</ele>
        <time>2023-04-28T13:52:35Z</time>
      </trkpt>
      <trkpt lat="43.61199" lon="1.24826">
        <ele>202.4</ele>
        <time>2023-04-28T13:52:37Z</time>
      </trkpt>
      <trkpt lat="43.61179" lon="1.24793">
        <ele>202.6</ele>
        <time>2023-04-28T13:52:43Z</time>
      </trkpt>
      <trkpt lat="43.61172" lon="1.24782">
        <ele>202.8</ele>
        <time>2023-04-28T13:52:45Z</time>
      </trkpt>
      <trkpt lat="43.6115" lon="1.24744">
        <ele>202.6</ele>
        <time>2023-04-28T13:52:52Z</time>
      </trkpt>
      <trkpt lat="43.61115" lon="1.24688">
        <ele>202.6</ele>
        <time>2023-04-28T13:53:02Z</time>
      </trkpt>
      <trkpt lat="43.61093" lon="1.24652">
        <ele>202.6</ele>
        <time>2023-04-28T13:53:08Z</time>
      </trkpt>
      <trkpt lat="43.6109" lon="1.24647">
        <ele>202.8</ele>
        <time>2023-04-28T13:53:09Z</time>
      </trkpt>
      <trkpt lat="43.61078" lon="1.24633">
        <ele>203</ele>
        <time>2023-04-28T13:53:12Z</time>
      </trkpt>
      <trkpt lat="43.61071" lon="1.24628">
        <ele>203.2</ele>
        <time>2023-04-28T13:53:14Z</time>
      </trkpt>
      <trkpt lat="43.61064" lon="1.24628">
        <ele>203.2</ele>
        <time>2023-04-28T13:53:16Z</time>
      </trkpt>
      <trkpt lat="43.61061" lon="1.2463">
        <ele>203.4</ele>
        <time>2023-04-28T13:53:17Z</time>
      </trkpt>
      <trkpt lat="43.61058" lon="1.24634">
        <ele>203.4</ele>
        <time>2023-04-28T13:53:18Z</time>
      </trkpt>
      <trkpt lat="43.61046" lon="1.24653">
        <ele>203.6</ele>
        <time>2023-04-28T13:53:22Z</time>
      </trkpt>
      <trkpt lat="43.61029" lon="1.2468">
        <ele>204</ele>
        <time>2023-04-28T13:53:27Z</time>
      </trkpt>
      <trkpt lat="43.61003" lon="1.24716">
        <ele>204</ele>
        <time>2023-04-28T13:53:34Z</time>
      </trkpt>
      <trkpt lat="43.60977" lon="1.24736">
        <ele>204.2</ele>
        <time>2023-04-28T13:53:40Z</time>
      </trkpt>
      <trkpt lat="43.60968" lon="1.24742">
        <ele>204.4</ele>
        <time>2023-04-28T13:53:42Z</time>
      </trkpt>
      <trkpt lat="43.60935" lon="1.24764">
        <ele>204.8</ele>
        <time>2023-04-28T13:53:49Z</time>
      </trkpt>
      <trkpt lat="43.60896" lon="1.2479">
        <ele>205</ele>
        <time>2023-04-28T13:53:57Z</time>
      </trkpt>
      <trkpt lat="43.60871" lon="1.24807">
        <ele>204.8</ele>
        <time>2023-04-28T13:54:02Z</time>
      </trkpt>
      <trkpt lat="43.60864" lon="1.24812">
        <ele>204.8</ele>
        <time>2023-04-28T13:54:04Z</time>
      </trkpt>
      <trkpt lat="43.60861" lon="1.2481">
        <ele>204.8</ele>
        <time>2023-04-28T13:54:05Z</time>
      </trkpt>
      <trkpt lat="43.60859" lon="1.24808">
        <ele>204.8</ele>
        <time>2023-04-28T13:54:06Z</time>
      </trkpt>
      <trkpt lat="43.60858" lon="1.24803">
        <ele>204.8</ele>
        <time>2023-04-28T13:54:07Z</time>
      </trkpt>
      <trkpt lat="43.60853" lon="1.24775">
        <ele>204.6</ele>
        <time>2023-04-28T13:54:12Z</time>
      </trkpt>
      <trkpt lat="43.60836" lon="1.24706">
        <ele>204.6</ele>
        <time>2023-04-28T13:54:22Z</time>
      </trkpt>
      <trkpt lat="43.60828" lon="1.24685">
        <ele>204.6</ele>
        <time>2023-04-28T13:54:25Z</time>
      </trkpt>
      <trkpt lat="43.60819" lon="1.24665">
        <ele>204.6</ele>
        <time>2023-04-28T13:54:28Z</time>
      </trkpt>
      <trkpt lat="43.60804" lon="1.24617">
        <ele>204.6</ele>
        <time>2023-04-28T13:54:35Z</time>
      </trkpt>
      <trkpt lat="43.60792" lon="1.24572">
        <ele>204.8</ele>
        <time>2023-04-28T13:54:41Z</time>
      </trkpt>
      <trkpt lat="43.60774" lon="1.24506">
        <ele>205.2</ele>
        <time>2023-04-28T13:54:50Z</time>
      </trkpt>
      <trkpt lat="43.60761" lon="1.24469">
        <ele>204.6</ele>
        <time>2023-04-28T13:54:55Z</time>
      </trkpt>
      <trkpt lat="43.60757" lon="1.24463">
        <ele>204.4</ele>
        <time>2023-04-28T13:54:56Z</time>
      </trkpt>
      <trkpt lat="43.60723" lon="1.24405">
        <ele>204.8</ele>
        <time>2023-04-28T13:55:05Z</time>
      </trkpt>
      <trkpt lat="43.60715" lon="1.24393">
        <ele>204.8</ele>
        <time>2023-04-28T13:55:07Z</time>
      </trkpt>
      <trkpt lat="43.60699" lon="1.24369">
        <ele>205</ele>
        <time>2023-04-28T13:55:12Z</time>
      </trkpt>
      <trkpt lat="43.60684" lon="1.24347">
        <ele>205.6</ele>
        <time>2023-04-28T13:55:17Z</time>
      </trkpt>
      <trkpt lat="43.60668" lon="1.24322">
        <ele>205.6</ele>
        <time>2023-04-28T13:55:22Z</time>
      </trkpt>
      <trkpt lat="43.60659" lon="1.24308">
        <ele>205.4</ele>
        <time>2023-04-28T13:55:25Z</time>
      </trkpt>
      <trkpt lat="43.60651" lon="1.24298">
        <ele>205</ele>
        <time>2023-04-28T13:55:28Z</time>
      </trkpt>
      <trkpt lat="43.60652" lon="1.24282">
        <ele>205</ele>
        <time>2023-04-28T13:55:31Z</time>
      </trkpt>
      <trkpt lat="43.60654" lon="1.2427">
        <ele>204.8</ele>
        <time>2023-04-28T13:55:33Z</time>
      </trkpt>
      <trkpt lat="43.6066" lon="1.24244">
        <ele>204.4</ele>
        <time>2023-04-28T13:55:37Z</time>
      </trkpt>
      <trkpt lat="43.60677" lon="1.24179">
        <ele>204.8</ele>
        <time>2023-04-28T13:55:46Z</time>
      </trkpt>
      <trkpt lat="43.60691" lon="1.24123">
        <ele>205.2</ele>
        <time>2023-04-28T13:55:53Z</time>
      </trkpt>
      <trkpt lat="43.6071" lon="1.24055">
        <ele>205</ele>
        <time>2023-04-28T13:56:01Z</time>
      </trkpt>
      <trkpt lat="43.6073" lon="1.23977">
        <ele>204.6</ele>
        <time>2023-04-28T13:56:10Z</time>
      </trkpt>
      <trkpt lat="43.60749" lon="1.23905">
        <ele>204.2</ele>
        <time>2023-04-28T13:56:18Z</time>
      </trkpt>
      <trkpt lat="43.60762" lon="1.23845">
        <ele>204.6</ele>
        <time>2023-04-28T13:56:25Z</time>
      </trkpt>
      <trkpt lat="43.60779" lon="1.23781">
        <ele>205.4</ele>
        <time>2023-04-28T13:56:33Z</time>
      </trkpt>
      <trkpt lat="43.60792" lon="1.23728">
        <ele>205.8</ele>
        <time>2023-04-28T13:56:40Z</time>
      </trkpt>
      <trkpt lat="43.60793" lon="1.23719">
        <ele>205.8</ele>
        <time>2023-04-28T13:56:41Z</time>
      </trkpt>
      <trkpt lat="43.60806" lon="1.23639">
        <ele>206</ele>
        <time>2023-04-28T13:56:51Z</time>
      </trkpt>
      <trkpt lat="43.60821" lon="1.23563">
        <ele>205.2</ele>
        <time>2023-04-28T13:57:00Z</time>
      </trkpt>
      <trkpt lat="43.60837" lon="1.23486">
        <ele>205.2</ele>
        <time>2023-04-28T13:57:09Z</time>
      </trkpt>
      <trkpt lat="43.60844" lon="1.23462">
        <ele>205</ele>
        <time>2023-04-28T13:57:13Z</time>
      </trkpt>
      <trkpt lat="43.60845" lon="1.23459">
        <ele>205</ele>
        <time>2023-04-28T13:57:14Z</time>
      </trkpt>
      <trkpt lat="43.60844" lon="1.23452">
        <ele>204.6</ele>
        <time>2023-04-28T13:57:16Z</time>
      </trkpt>
      <trkpt lat="43.60842" lon="1.23448">
        <ele>204.4</ele>
        <time>2023-04-28T13:57:17Z</time>
      </trkpt>
      <trkpt lat="43.60823" lon="1.23439">
        <ele>204</ele>
        <time>2023-04-28T13:57:21Z</time>
      </trkpt>
      <trkpt lat="43.60812" lon="1.23435">
        <ele>203.8</ele>
        <time>2023-04-28T13:57:23Z</time>
      </trkpt>
      <trkpt lat="43.60787" lon="1.23428">
        <ele>203.4</ele>
        <time>2023-04-28T13:57:27Z</time>
      </trkpt>
      <trkpt lat="43.60746" lon="1.23424">
        <ele>203.2</ele>
        <time>2023-04-28T13:57:34Z</time>
      </trkpt>
      <trkpt lat="43.60741" lon="1.23423">
        <ele>203.2</ele>
        <time>2023-04-28T13:57:35Z</time>
      </trkpt>
      <trkpt lat="43.60728" lon="1.23414">
        <ele>203.4</ele>
        <time>2023-04-28T13:57:38Z</time>
      </trkpt>
      <trkpt lat="43.60718" lon="1.23415">
        <ele>203.6</ele>
        <time>2023-04-28T13:57:40Z</time>
      </trkpt>
      <trkpt lat="43.60713" lon="1.23417">
        <ele>203.6</ele>
        <time>2023-04-28T13:57:41Z</time>
      </trkpt>
      <trkpt lat="43.60704" lon="1.23423">
        <ele>203.8</ele>
        <time>2023-04-28T13:57:43Z</time>
      </trkpt>
      <trkpt lat="43.60693" lon="1.23424">
        <ele>204.2</ele>
        <time>2023-04-28T13:57:45Z</time>
      </trkpt>
      <trkpt lat="43.60662" lon="1.23424">
        <ele>205</ele>
        <time>2023-04-28T13:57:51Z</time>
      </trkpt>
      <trkpt lat="43.60656" lon="1.23423">
        <ele>205</ele>
        <time>2023-04-28T13:57:52Z</time>
      </trkpt>
      <trkpt lat="43.60601" lon="1.23414">
        <ele>206</ele>
        <time>2023-04-28T13:58:02Z</time>
      </trkpt>
      <trkpt lat="43.60596" lon="1.23413">
        <ele>206</ele>
        <time>2023-04-28T13:58:03Z</time>
      </trkpt>
      <trkpt lat="43.60544" lon="1.23394">
        <ele>206.4</ele>
        <time>2023-04-28T13:58:12Z</time>
      </trkpt>
      <trkpt lat="43.60506" lon="1.23377">
        <ele>206.6</ele>
        <time>2023-04-28T13:58:19Z</time>
      </trkpt>
      <trkpt lat="43.60479" lon="1.23366">
        <ele>207</ele>
        <time>2023-04-28T13:58:24Z</time>
      </trkpt>
      <trkpt lat="43.60457" lon="1.23358">
        <ele>207.2</ele>
        <time>2023-04-28T13:58:28Z</time>
      </trkpt>
      <trkpt lat="43.60408" lon="1.23338">
        <ele>207.2</ele>
        <time>2023-04-28T13:58:37Z</time>
      </trkpt>
      <trkpt lat="43.60402" lon="1.23336">
        <ele>207.4</ele>
        <time>2023-04-28T13:58:38Z</time>
      </trkpt>
      <trkpt lat="43.60359" lon="1.23322">
        <ele>207</ele>
        <time>2023-04-28T13:58:45Z</time>
      </trkpt>
      <trkpt lat="43.60314" lon="1.23315">
        <ele>206.2</ele>
        <time>2023-04-28T13:58:52Z</time>
      </trkpt>
      <trkpt lat="43.603" lon="1.23313">
        <ele>206.2</ele>
        <time>2023-04-28T13:58:54Z</time>
      </trkpt>
      <trkpt lat="43.60286" lon="1.23315">
        <ele>206</ele>
        <time>2023-04-28T13:58:56Z</time>
      </trkpt>
      <trkpt lat="43.60279" lon="1.23317">
        <ele>206</ele>
        <time>2023-04-28T13:58:57Z</time>
      </trkpt>
      <trkpt lat="43.60255" lon="1.23321">
        <ele>205</ele>
        <time>2023-04-28T13:59:00Z</time>
      </trkpt>
      <trkpt lat="43.60229" lon="1.23324">
        <ele>203.8</ele>
        <time>2023-04-28T13:59:03Z</time>
      </trkpt>
      <trkpt lat="43.60201" lon="1.23325">
        <ele>202.4</ele>
        <time>2023-04-28T13:59:06Z</time>
      </trkpt>
      <trkpt lat="43.60182" lon="1.23325">
        <ele>201.4</ele>
        <time>2023-04-28T13:59:08Z</time>
      </trkpt>
      <trkpt lat="43.60163" lon="1.23326">
        <ele>200.6</ele>
        <time>2023-04-28T13:59:10Z</time>
      </trkpt>
      <trkpt lat="43.60154" lon="1.23326">
        <ele>200</ele>
        <time>2023-04-28T13:59:11Z</time>
      </trkpt>
      <trkpt lat="43.60136" lon="1.23327">
        <ele>198.8</ele>
        <time>2023-04-28T13:59:13Z</time>
      </trkpt>
      <trkpt lat="43.60104" lon="1.23331">
        <ele>197.8</ele>
        <time>2023-04-28T13:59:17Z</time>
      </trkpt>
      <trkpt lat="43.60076" lon="1.23335">
        <ele>197.6</ele>
        <time>2023-04-28T13:59:22Z</time>
      </trkpt>
      <trkpt lat="43.60068" lon="1.2333">
        <ele>197.8</ele>
        <time>2023-04-28T13:59:24Z</time>
      </trkpt>
      <trkpt lat="43.60066" lon="1.23324">
        <ele>198</ele>
        <time>2023-04-28T13:59:25Z</time>
      </trkpt>
      <trkpt lat="43.60065" lon="1.23317">
        <ele>198</ele>
        <time>2023-04-28T13:59:26Z</time>
      </trkpt>
      <trkpt lat="43.60063" lon="1.23293">
        <ele>198.6</ele>
        <time>2023-04-28T13:59:29Z</time>
      </trkpt>
      <trkpt lat="43.6006" lon="1.23277">
        <ele>198.8</ele>
        <time>2023-04-28T13:59:31Z</time>
      </trkpt>
      <trkpt lat="43.60058" lon="1.23269">
        <ele>198.8</ele>
        <time>2023-04-28T13:59:32Z</time>
      </trkpt>
      <trkpt lat="43.60053" lon="1.23253">
        <ele>199</ele>
        <time>2023-04-28T13:59:34Z</time>
      </trkpt>
      <trkpt lat="43.60045" lon="1.23227">
        <ele>199.2</ele>
        <time>2023-04-28T13:59:38Z</time>
      </trkpt>
      <trkpt lat="43.60044" lon="1.23211">
        <ele>199.2</ele>
        <time>2023-04-28T13:59:40Z</time>
      </trkpt>
      <trkpt lat="43.60038" lon="1.23201">
        <ele>199.4</ele>
        <time>2023-04-28T13:59:42Z</time>
      </trkpt>
      <trkpt lat="43.60032" lon="1.23201">
        <ele>199.6</ele>
        <time>2023-04-28T13:59:44Z</time>
      </trkpt>
      <trkpt lat="43.60029" lon="1.23205">
        <ele>199.8</ele>
        <time>2023-04-28T13:59:45Z</time>
      </trkpt>
      <trkpt lat="43.60026" lon="1.2321">
        <ele>200.2</ele>
        <time>2023-04-28T13:59:46Z</time>
      </trkpt>
      <trkpt lat="43.60018" lon="1.23218">
        <ele>200.4</ele>
        <time>2023-04-28T13:59:48Z</time>
      </trkpt>
      <trkpt lat="43.60015" lon="1.23222">
        <ele>200.6</ele>
        <time>2023-04-28T13:59:49Z</time>
      </trkpt>
      <trkpt lat="43.60011" lon="1.23224">
        <ele>201</ele>
        <time>2023-04-28T13:59:50Z</time>
      </trkpt>
      <trkpt lat="43.60007" lon="1.23227">
        <ele>201.2</ele>
        <time>2023-04-28T13:59:51Z</time>
      </trkpt>
      <trkpt lat="43.59996" lon="1.23237">
        <ele>202.2</ele>
        <time>2023-04-28T13:59:54Z</time>
      </trkpt>
      <trkpt lat="43.59993" lon="1.23239">
        <ele>202.6</ele>
        <time>2023-04-28T13:59:55Z</time>
      </trkpt>
      <trkpt lat="43.59977" lon="1.23252">
        <ele>203.8</ele>
        <time>2023-04-28T14:00:00Z</time>
      </trkpt>
      <trkpt lat="43.59975" lon="1.23255">
        <ele>204</ele>
        <time>2023-04-28T14:00:01Z</time>
      </trkpt>
      <trkpt lat="43.59969" lon="1.2326">
        <ele>204.8</ele>
        <time>2023-04-28T14:00:03Z</time>
      </trkpt>
      <trkpt lat="43.59958" lon="1.23267">
        <ele>205.6</ele>
        <time>2023-04-28T14:00:06Z</time>
      </trkpt>
      <trkpt lat="43.59945" lon="1.23276">
        <ele>206</ele>
        <time>2023-04-28T14:00:09Z</time>
      </trkpt>
      <trkpt lat="43.59929" lon="1.2329">
        <ele>206.2</ele>
        <time>2023-04-28T14:00:13Z</time>
      </trkpt>
      <trkpt lat="43.59901" lon="1.23312">
        <ele>206.4</ele>
        <time>2023-04-28T14:00:21Z</time>
      </trkpt>
      <trkpt lat="43.59889" lon="1.23322">
        <ele>206.6</ele>
        <time>2023-04-28T14:00:26Z</time>
      </trkpt>
      <trkpt lat="43.59876" lon="1.23334">
        <ele>206.6</ele>
        <time>2023-04-28T14:00:30Z</time>
      </trkpt>
      <trkpt lat="43.59868" lon="1.23341">
        <ele>206.6</ele>
        <time>2023-04-28T14:00:32Z</time>
      </trkpt>
      <trkpt lat="43.59856" lon="1.2335">
        <ele>207</ele>
        <time>2023-04-28T14:00:35Z</time>
      </trkpt>
      <trkpt lat="43.59851" lon="1.23353">
        <ele>207</ele>
        <time>2023-04-28T14:00:36Z</time>
      </trkpt>
      <trkpt lat="43.59847" lon="1.23357">
        <ele>207</ele>
        <time>2023-04-28T14:00:37Z</time>
      </trkpt>
      <trkpt lat="43.59837" lon="1.23365">
        <ele>206.8</ele>
        <time>2023-04-28T14:00:39Z</time>
      </trkpt>
      <trkpt lat="43.59828" lon="1.23374">
        <ele>206.6</ele>
        <time>2023-04-28T14:00:41Z</time>
      </trkpt>
      <trkpt lat="43.59811" lon="1.23387">
        <ele>206.6</ele>
        <time>2023-04-28T14:00:44Z</time>
      </trkpt>
      <trkpt lat="43.59798" lon="1.23394">
        <ele>206.4</ele>
        <time>2023-04-28T14:00:46Z</time>
      </trkpt>
      <trkpt lat="43.5979" lon="1.23396">
        <ele>206</ele>
        <time>2023-04-28T14:00:47Z</time>
      </trkpt>
      <trkpt lat="43.59774" lon="1.23403">
        <ele>205.4</ele>
        <time>2023-04-28T14:00:49Z</time>
      </trkpt>
      <trkpt lat="43.59765" lon="1.23408">
        <ele>204.8</ele>
        <time>2023-04-28T14:00:50Z</time>
      </trkpt>
      <trkpt lat="43.59747" lon="1.23417">
        <ele>203.4</ele>
        <time>2023-04-28T14:00:52Z</time>
      </trkpt>
      <trkpt lat="43.59719" lon="1.2343">
        <ele>202</ele>
        <time>2023-04-28T14:00:55Z</time>
      </trkpt>
      <trkpt lat="43.59701" lon="1.2344">
        <ele>200.6</ele>
        <time>2023-04-28T14:00:57Z</time>
      </trkpt>
      <trkpt lat="43.59682" lon="1.23451">
        <ele>199.4</ele>
        <time>2023-04-28T14:00:59Z</time>
      </trkpt>
      <trkpt lat="43.59667" lon="1.2346">
        <ele>198.6</ele>
        <time>2023-04-28T14:01:01Z</time>
      </trkpt>
      <trkpt lat="43.59659" lon="1.23465">
        <ele>198</ele>
        <time>2023-04-28T14:01:02Z</time>
      </trkpt>
      <trkpt lat="43.59631" lon="1.2348">
        <ele>197</ele>
        <time>2023-04-28T14:01:06Z</time>
      </trkpt>
      <trkpt lat="43.59596" lon="1.23495">
        <ele>197.4</ele>
        <time>2023-04-28T14:01:12Z</time>
      </trkpt>
      <trkpt lat="43.59563" lon="1.23509">
        <ele>198.4</ele>
        <time>2023-04-28T14:01:19Z</time>
      </trkpt>
      <trkpt lat="43.59549" lon="1.23514">
        <ele>199.2</ele>
        <time>2023-04-28T14:01:22Z</time>
      </trkpt>
      <trkpt lat="43.59545" lon="1.23516">
        <ele>199.4</ele>
        <time>2023-04-28T14:01:23Z</time>
      </trkpt>
      <trkpt lat="43.59533" lon="1.23522">
        <ele>200.2</ele>
        <time>2023-04-28T14:01:26Z</time>
      </trkpt>
      <trkpt lat="43.59524" lon="1.23525">
        <ele>200.8</ele>
        <time>2023-04-28T14:01:28Z</time>
      </trkpt>
      <trkpt lat="43.59504" lon="1.23533">
        <ele>201.8</ele>
        <time>2023-04-28T14:01:33Z</time>
      </trkpt>
      <trkpt lat="43.595" lon="1.23534">
        <ele>202.2</ele>
        <time>2023-04-28T14:01:34Z</time>
      </trkpt>
      <trkpt lat="43.59488" lon="1.23538">
        <ele>203</ele>
        <time>2023-04-28T14:01:37Z</time>
      </trkpt>
      <trkpt lat="43.59472" lon="1.23542">
        <ele>204.2</ele>
        <time>2023-04-28T14:01:41Z</time>
      </trkpt>
      <trkpt lat="43.59463" lon="1.23543">
        <ele>204.6</ele>
        <time>2023-04-28T14:01:43Z</time>
      </trkpt>
      <trkpt lat="43.5945" lon="1.23543">
        <ele>205.4</ele>
        <time>2023-04-28T14:01:46Z</time>
      </trkpt>
      <trkpt lat="43.59422" lon="1.23544">
        <ele>206.4</ele>
        <time>2023-04-28T14:01:52Z</time>
      </trkpt>
      <trkpt lat="43.59412" lon="1.23544">
        <ele>206.6</ele>
        <time>2023-04-28T14:01:54Z</time>
      </trkpt>
      <trkpt lat="43.59383" lon="1.23546">
        <ele>207.2</ele>
        <time>2023-04-28T14:02:00Z</time>
      </trkpt>
      <trkpt lat="43.59368" lon="1.23548">
        <ele>207.2</ele>
        <time>2023-04-28T14:02:03Z</time>
      </trkpt>
      <trkpt lat="43.5934" lon="1.23553">
        <ele>207.4</ele>
        <time>2023-04-28T14:02:09Z</time>
      </trkpt>
      <trkpt lat="43.59326" lon="1.23556">
        <ele>207.8</ele>
        <time>2023-04-28T14:02:12Z</time>
      </trkpt>
      <trkpt lat="43.59279" lon="1.23568">
        <ele>208.4</ele>
        <time>2023-04-28T14:02:22Z</time>
      </trkpt>
      <trkpt lat="43.59227" lon="1.23581">
        <ele>209</ele>
        <time>2023-04-28T14:02:33Z</time>
      </trkpt>
      <trkpt lat="43.59184" lon="1.23588">
        <ele>209</ele>
        <time>2023-04-28T14:02:41Z</time>
      </trkpt>
      <trkpt lat="43.59134" lon="1.23594">
        <ele>209.4</ele>
        <time>2023-04-28T14:02:51Z</time>
      </trkpt>
      <trkpt lat="43.59087" lon="1.23602">
        <ele>208.4</ele>
        <time>2023-04-28T14:03:00Z</time>
      </trkpt>
      <trkpt lat="43.59029" lon="1.23616">
        <ele>208.4</ele>
        <time>2023-04-28T14:03:11Z</time>
      </trkpt>
      <trkpt lat="43.58973" lon="1.23629">
        <ele>209</ele>
        <time>2023-04-28T14:03:22Z</time>
      </trkpt>
      <trkpt lat="43.58963" lon="1.23631">
        <ele>209</ele>
        <time>2023-04-28T14:03:24Z</time>
      </trkpt>
      <trkpt lat="43.58909" lon="1.23643">
        <ele>209.2</ele>
        <time>2023-04-28T14:03:35Z</time>
      </trkpt>
      <trkpt lat="43.58893" lon="1.23647">
        <ele>209</ele>
        <time>2023-04-28T14:03:38Z</time>
      </trkpt>
      <trkpt lat="43.58835" lon="1.2366">
        <ele>209</ele>
        <time>2023-04-28T14:03:49Z</time>
      </trkpt>
      <trkpt lat="43.58825" lon="1.23663">
        <ele>209</ele>
        <time>2023-04-28T14:03:51Z</time>
      </trkpt>
      <trkpt lat="43.58771" lon="1.2367">
        <ele>208.8</ele>
        <time>2023-04-28T14:04:01Z</time>
      </trkpt>
      <trkpt lat="43.58729" lon="1.23678">
        <ele>208.8</ele>
        <time>2023-04-28T14:04:09Z</time>
      </trkpt>
      <trkpt lat="43.58685" lon="1.23689">
        <ele>209.2</ele>
        <time>2023-04-28T14:04:18Z</time>
      </trkpt>
      <trkpt lat="43.58645" lon="1.237">
        <ele>208.8</ele>
        <time>2023-04-28T14:04:26Z</time>
      </trkpt>
      <trkpt lat="43.58594" lon="1.23713">
        <ele>208.6</ele>
        <time>2023-04-28T14:04:36Z</time>
      </trkpt>
      <trkpt lat="43.58562" lon="1.23711">
        <ele>208.6</ele>
        <time>2023-04-28T14:04:42Z</time>
      </trkpt>
      <trkpt lat="43.58511" lon="1.23698">
        <ele>209</ele>
        <time>2023-04-28T14:04:52Z</time>
      </trkpt>
      <trkpt lat="43.58453" lon="1.23683">
        <ele>209</ele>
        <time>2023-04-28T14:05:03Z</time>
      </trkpt>
      <trkpt lat="43.58396" lon="1.23669">
        <ele>209.8</ele>
        <time>2023-04-28T14:05:14Z</time>
      </trkpt>
      <trkpt lat="43.58386" lon="1.23667">
        <ele>209.8</ele>
        <time>2023-04-28T14:05:16Z</time>
      </trkpt>
      <trkpt lat="43.58346" lon="1.2366">
        <ele>210.4</ele>
        <time>2023-04-28T14:05:24Z</time>
      </trkpt>
      <trkpt lat="43.58309" lon="1.23656">
        <ele>210.8</ele>
        <time>2023-04-28T14:05:31Z</time>
      </trkpt>
      <trkpt lat="43.58303" lon="1.23655">
        <ele>211</ele>
        <time>2023-04-28T14:05:32Z</time>
      </trkpt>
      <trkpt lat="43.58249" lon="1.2365">
        <ele>211.8</ele>
        <time>2023-04-28T14:05:43Z</time>
      </trkpt>
      <trkpt lat="43.58244" lon="1.23649">
        <ele>211.8</ele>
        <time>2023-04-28T14:05:44Z</time>
      </trkpt>
      <trkpt lat="43.58201" lon="1.23646">
        <ele>213.4</ele>
        <time>2023-04-28T14:05:53Z</time>
      </trkpt>
      <trkpt lat="43.58172" lon="1.23643">
        <ele>214.4</ele>
        <time>2023-04-28T14:05:59Z</time>
      </trkpt>
      <trkpt lat="43.58129" lon="1.23639">
        <ele>214.8</ele>
        <time>2023-04-28T14:06:07Z</time>
      </trkpt>
      <trkpt lat="43.58071" lon="1.23635">
        <ele>215.2</ele>
        <time>2023-04-28T14:06:17Z</time>
      </trkpt>
      <trkpt lat="43.58026" lon="1.23631">
        <ele>214.4</ele>
        <time>2023-04-28T14:06:24Z</time>
      </trkpt>
      <trkpt lat="43.58012" lon="1.2363">
        <ele>214.2</ele>
        <time>2023-04-28T14:06:26Z</time>
      </trkpt>
      <trkpt lat="43.57984" lon="1.23628">
        <ele>213.4</ele>
        <time>2023-04-28T14:06:30Z</time>
      </trkpt>
      <trkpt lat="43.57955" lon="1.23625">
        <ele>212.4</ele>
        <time>2023-04-28T14:06:34Z</time>
      </trkpt>
      <trkpt lat="43.57941" lon="1.23624">
        <ele>212.2</ele>
        <time>2023-04-28T14:06:36Z</time>
      </trkpt>
      <trkpt lat="43.57895" lon="1.2362">
        <ele>211.4</ele>
        <time>2023-04-28T14:06:43Z</time>
      </trkpt>
      <trkpt lat="43.57889" lon="1.2362">
        <ele>211.4</ele>
        <time>2023-04-28T14:06:44Z</time>
      </trkpt>
      <trkpt lat="43.57836" lon="1.23615">
        <ele>211</ele>
        <time>2023-04-28T14:06:53Z</time>
      </trkpt>
      <trkpt lat="43.57779" lon="1.2361">
        <ele>211.2</ele>
        <time>2023-04-28T14:07:03Z</time>
      </trkpt>
      <trkpt lat="43.57768" lon="1.23609">
        <ele>211.4</ele>
        <time>2023-04-28T14:07:05Z</time>
      </trkpt>
      <trkpt lat="43.57713" lon="1.23604">
        <ele>211.8</ele>
        <time>2023-04-28T14:07:15Z</time>
      </trkpt>
      <trkpt lat="43.57702" lon="1.23603">
        <ele>212</ele>
        <time>2023-04-28T14:07:17Z</time>
      </trkpt>
      <trkpt lat="43.57652" lon="1.23599">
        <ele>212</ele>
        <time>2023-04-28T14:07:26Z</time>
      </trkpt>
      <trkpt lat="43.57596" lon="1.23595">
        <ele>212</ele>
        <time>2023-04-28T14:07:36Z</time>
      </trkpt>
      <trkpt lat="43.57591" lon="1.23595">
        <ele>212</ele>
        <time>2023-04-28T14:07:37Z</time>
      </trkpt>
      <trkpt lat="43.57583" lon="1.23596">
        <ele>212</ele>
        <time>2023-04-28T14:07:39Z</time>
      </trkpt>
      <trkpt lat="43.57577" lon="1.23603">
        <ele>212</ele>
        <time>2023-04-28T14:07:41Z</time>
      </trkpt>
      <trkpt lat="43.57575" lon="1.23615">
        <ele>212</ele>
        <time>2023-04-28T14:07:43Z</time>
      </trkpt>
      <trkpt lat="43.57576" lon="1.23622">
        <ele>212</ele>
        <time>2023-04-28T14:07:44Z</time>
      </trkpt>
      <trkpt lat="43.57586" lon="1.23693">
        <ele>212.2</ele>
        <time>2023-04-28T14:07:54Z</time>
      </trkpt>
      <trkpt lat="43.57586" lon="1.23708">
        <ele>212.2</ele>
        <time>2023-04-28T14:07:56Z</time>
      </trkpt>
      <trkpt lat="43.5758" lon="1.2372">
        <ele>212.2</ele>
        <time>2023-04-28T14:07:58Z</time>
      </trkpt>
      <trkpt lat="43.57569" lon="1.23721">
        <ele>212.2</ele>
        <time>2023-04-28T14:08:00Z</time>
      </trkpt>
      <trkpt lat="43.57565" lon="1.23719">
        <ele>212.2</ele>
        <time>2023-04-28T14:08:01Z</time>
      </trkpt>
      <trkpt lat="43.57516" lon="1.23693">
        <ele>212.2</ele>
        <time>2023-04-28T14:08:10Z</time>
      </trkpt>
      <trkpt lat="43.5746" lon="1.23665">
        <ele>212.6</ele>
        <time>2023-04-28T14:08:20Z</time>
      </trkpt>
      <trkpt lat="43.57455" lon="1.23662">
        <ele>212.6</ele>
        <time>2023-04-28T14:08:21Z</time>
      </trkpt>
      <trkpt lat="43.57437" lon="1.23654">
        <ele>212.6</ele>
        <time>2023-04-28T14:08:24Z</time>
      </trkpt>
      <trkpt lat="43.574" lon="1.23636">
        <ele>213</ele>
        <time>2023-04-28T14:08:30Z</time>
      </trkpt>
      <trkpt lat="43.57347" lon="1.2361">
        <ele>213.4</ele>
        <time>2023-04-28T14:08:39Z</time>
      </trkpt>
      <trkpt lat="43.57342" lon="1.23607">
        <ele>213.4</ele>
        <time>2023-04-28T14:08:40Z</time>
      </trkpt>
      <trkpt lat="43.57289" lon="1.2358">
        <ele>213.6</ele>
        <time>2023-04-28T14:08:49Z</time>
      </trkpt>
      <trkpt lat="43.57283" lon="1.23576">
        <ele>213.6</ele>
        <time>2023-04-28T14:08:50Z</time>
      </trkpt>
      <trkpt lat="43.57248" lon="1.23546">
        <ele>213.4</ele>
        <time>2023-04-28T14:08:56Z</time>
      </trkpt>
      <trkpt lat="43.57203" lon="1.23512">
        <ele>212.8</ele>
        <time>2023-04-28T14:09:03Z</time>
      </trkpt>
      <trkpt lat="43.57163" lon="1.23485">
        <ele>211.6</ele>
        <time>2023-04-28T14:09:09Z</time>
      </trkpt>
      <trkpt lat="43.57129" lon="1.23462">
        <ele>210.8</ele>
        <time>2023-04-28T14:09:14Z</time>
      </trkpt>
      <trkpt lat="43.57123" lon="1.23458">
        <ele>210.6</ele>
        <time>2023-04-28T14:09:15Z</time>
      </trkpt>
      <trkpt lat="43.57073" lon="1.23424">
        <ele>210.4</ele>
        <time>2023-04-28T14:09:23Z</time>
      </trkpt>
      <trkpt lat="43.5706" lon="1.23416">
        <ele>210.4</ele>
        <time>2023-04-28T14:09:25Z</time>
      </trkpt>
      <trkpt lat="43.57006" lon="1.2338">
        <ele>210.6</ele>
        <time>2023-04-28T14:09:34Z</time>
      </trkpt>
      <trkpt lat="43.5699" lon="1.23369">
        <ele>210.8</ele>
        <time>2023-04-28T14:09:37Z</time>
      </trkpt>
      <trkpt lat="43.56946" lon="1.23339">
        <ele>211.2</ele>
        <time>2023-04-28T14:09:45Z</time>
      </trkpt>
      <trkpt lat="43.56929" lon="1.23331">
        <ele>211.4</ele>
        <time>2023-04-28T14:09:49Z</time>
      </trkpt>
      <trkpt lat="43.56927" lon="1.2333">
        <ele>211.4</ele>
        <time>2023-04-28T14:09:50Z</time>
      </trkpt>
      <trkpt lat="43.56923" lon="1.2333">
        <ele>211.4</ele>
        <time>2023-04-28T14:09:54Z</time>
      </trkpt>
      <trkpt lat="43.56922" lon="1.23331">
        <ele>211.4</ele>
        <time>2023-04-28T14:09:55Z</time>
      </trkpt>
      <trkpt lat="43.5692" lon="1.23336">
        <ele>211.4</ele>
        <time>2023-04-28T14:09:57Z</time>
      </trkpt>
      <trkpt lat="43.56921" lon="1.23342">
        <ele>211.4</ele>
        <time>2023-04-28T14:09:58Z</time>
      </trkpt>
      <trkpt lat="43.56921" lon="1.23366">
        <ele>211.2</ele>
        <time>2023-04-28T14:10:02Z</time>
      </trkpt>
      <trkpt lat="43.56926" lon="1.23428">
        <ele>210.8</ele>
        <time>2023-04-28T14:10:10Z</time>
      </trkpt>
      <trkpt lat="43.56933" lon="1.23491">
        <ele>209.8</ele>
        <time>2023-04-28T14:10:17Z</time>
      </trkpt>
      <trkpt lat="43.56938" lon="1.23519">
        <ele>209.6</ele>
        <time>2023-04-28T14:10:20Z</time>
      </trkpt>
      <trkpt lat="43.56951" lon="1.23592">
        <ele>208.6</ele>
        <time>2023-04-28T14:10:28Z</time>
      </trkpt>
      <trkpt lat="43.56954" lon="1.23609">
        <ele>208.6</ele>
        <time>2023-04-28T14:10:30Z</time>
      </trkpt>
      <trkpt lat="43.56966" lon="1.23677">
        <ele>208.2</ele>
        <time>2023-04-28T14:10:37Z</time>
      </trkpt>
      <trkpt lat="43.56977" lon="1.23745">
        <ele>207.6</ele>
        <time>2023-04-28T14:10:44Z</time>
      </trkpt>
      <trkpt lat="43.56979" lon="1.23754">
        <ele>207.6</ele>
        <time>2023-04-28T14:10:45Z</time>
      </trkpt>
      <trkpt lat="43.56978" lon="1.23797">
        <ele>207.6</ele>
        <time>2023-04-28T14:10:50Z</time>
      </trkpt>
      <trkpt lat="43.56965" lon="1.23856">
        <ele>208</ele>
        <time>2023-04-28T14:10:57Z</time>
      </trkpt>
      <trkpt lat="43.56946" lon="1.23933">
        <ele>208.2</ele>
        <time>2023-04-28T14:11:06Z</time>
      </trkpt>
      <trkpt lat="43.56944" lon="1.23941">
        <ele>208.4</ele>
        <time>2023-04-28T14:11:07Z</time>
      </trkpt>
      <trkpt lat="43.56935" lon="1.24007">
        <ele>208.6</ele>
        <time>2023-04-28T14:11:15Z</time>
      </trkpt>
      <trkpt lat="43.56929" lon="1.24085">
        <ele>208.6</ele>
        <time>2023-04-28T14:11:24Z</time>
      </trkpt>
      <trkpt lat="43.56924" lon="1.24166">
        <ele>208.4</ele>
        <time>2023-04-28T14:11:33Z</time>
      </trkpt>
      <trkpt lat="43.56921" lon="1.24247">
        <ele>208.6</ele>
        <time>2023-04-28T14:11:42Z</time>
      </trkpt>
      <trkpt lat="43.56929" lon="1.2431">
        <ele>208.6</ele>
        <time>2023-04-28T14:11:49Z</time>
      </trkpt>
      <trkpt lat="43.56948" lon="1.24379">
        <ele>208.6</ele>
        <time>2023-04-28T14:11:57Z</time>
      </trkpt>
      <trkpt lat="43.56971" lon="1.24447">
        <ele>208.6</ele>
        <time>2023-04-28T14:12:05Z</time>
      </trkpt>
      <trkpt lat="43.56977" lon="1.24463">
        <ele>208.2</ele>
        <time>2023-04-28T14:12:07Z</time>
      </trkpt>
      <trkpt lat="43.56988" lon="1.24506">
        <ele>208</ele>
        <time>2023-04-28T14:12:12Z</time>
      </trkpt>
      <trkpt lat="43.56989" lon="1.24515">
        <ele>208</ele>
        <time>2023-04-28T14:12:13Z</time>
      </trkpt>
      <trkpt lat="43.56988" lon="1.24524">
        <ele>208</ele>
        <time>2023-04-28T14:12:14Z</time>
      </trkpt>
      <trkpt lat="43.56983" lon="1.24541">
        <ele>208</ele>
        <time>2023-04-28T14:12:16Z</time>
      </trkpt>
      <trkpt lat="43.56982" lon="1.24558">
        <ele>208</ele>
        <time>2023-04-28T14:12:18Z</time>
      </trkpt>
      <trkpt lat="43.56984" lon="1.24566">
        <ele>208</ele>
        <time>2023-04-28T14:12:19Z</time>
      </trkpt>
      <trkpt lat="43.56986" lon="1.24573">
        <ele>208</ele>
        <time>2023-04-28T14:12:20Z</time>
      </trkpt>
      <trkpt lat="43.56995" lon="1.24585">
        <ele>208</ele>
        <time>2023-04-28T14:12:22Z</time>
      </trkpt>
      <trkpt lat="43.57005" lon="1.24595">
        <ele>208.2</ele>
        <time>2023-04-28T14:12:24Z</time>
      </trkpt>
      <trkpt lat="43.57012" lon="1.24609">
        <ele>208.4</ele>
        <time>2023-04-28T14:12:26Z</time>
      </trkpt>
      <trkpt lat="43.57028" lon="1.24673">
        <ele>208.6</ele>
        <time>2023-04-28T14:12:34Z</time>
      </trkpt>
      <trkpt lat="43.57047" lon="1.24719">
        <ele>208.6</ele>
        <time>2023-04-28T14:12:40Z</time>
      </trkpt>
      <trkpt lat="43.57085" lon="1.24773">
        <ele>208.4</ele>
        <time>2023-04-28T14:12:48Z</time>
      </trkpt>
      <trkpt lat="43.57124" lon="1.24828">
        <ele>208</ele>
        <time>2023-04-28T14:12:56Z</time>
      </trkpt>
      <trkpt lat="43.57133" lon="1.24841">
        <ele>208</ele>
        <time>2023-04-28T14:12:58Z</time>
      </trkpt>
      <trkpt lat="43.57164" lon="1.24898">
        <ele>208</ele>
        <time>2023-04-28T14:13:06Z</time>
      </trkpt>
      <trkpt lat="43.572" lon="1.24964">
        <ele>208</ele>
        <time>2023-04-28T14:13:15Z</time>
      </trkpt>
      <trkpt lat="43.57205" lon="1.24971">
        <ele>208</ele>
        <time>2023-04-28T14:13:16Z</time>
      </trkpt>
      <trkpt lat="43.57232" lon="1.25">
        <ele>207.6</ele>
        <time>2023-04-28T14:13:21Z</time>
      </trkpt>
      <trkpt lat="43.57279" lon="1.25039">
        <ele>207</ele>
        <time>2023-04-28T14:13:29Z</time>
      </trkpt>
      <trkpt lat="43.57285" lon="1.25045">
        <ele>206.8</ele>
        <time>2023-04-28T14:13:30Z</time>
      </trkpt>
      <trkpt lat="43.57291" lon="1.25051">
        <ele>206.8</ele>
        <time>2023-04-28T14:13:31Z</time>
      </trkpt>
      <trkpt lat="43.57313" lon="1.25086">
        <ele>206.6</ele>
        <time>2023-04-28T14:13:36Z</time>
      </trkpt>
      <trkpt lat="43.5732" lon="1.25104">
        <ele>206.6</ele>
        <time>2023-04-28T14:13:38Z</time>
      </trkpt>
      <trkpt lat="43.57326" lon="1.25132">
        <ele>206.6</ele>
        <time>2023-04-28T14:13:41Z</time>
      </trkpt>
      <trkpt lat="43.57345" lon="1.25206">
        <ele>206</ele>
        <time>2023-04-28T14:13:49Z</time>
      </trkpt>
      <trkpt lat="43.57348" lon="1.25214">
        <ele>206</ele>
        <time>2023-04-28T14:13:50Z</time>
      </trkpt>
      <trkpt lat="43.57374" lon="1.25271">
        <ele>206</ele>
        <time>2023-04-28T14:13:57Z</time>
      </trkpt>
      <trkpt lat="43.57406" lon="1.25334">
        <ele>206</ele>
        <time>2023-04-28T14:14:05Z</time>
      </trkpt>
      <trkpt lat="43.57426" lon="1.25375">
        <ele>206.6</ele>
        <time>2023-04-28T14:14:10Z</time>
      </trkpt>
      <trkpt lat="43.57458" lon="1.25439">
        <ele>206.6</ele>
        <time>2023-04-28T14:14:18Z</time>
      </trkpt>
      <trkpt lat="43.57462" lon="1.25447">
        <ele>206.8</ele>
        <time>2023-04-28T14:14:19Z</time>
      </trkpt>
      <trkpt lat="43.57482" lon="1.25488">
        <ele>206.8</ele>
        <time>2023-04-28T14:14:24Z</time>
      </trkpt>
      <trkpt lat="43.57505" lon="1.25536">
        <ele>207</ele>
        <time>2023-04-28T14:14:30Z</time>
      </trkpt>
      <trkpt lat="43.57537" lon="1.25594">
        <ele>207.2</ele>
        <time>2023-04-28T14:14:38Z</time>
      </trkpt>
      <trkpt lat="43.57549" lon="1.25615">
        <ele>207.2</ele>
        <time>2023-04-28T14:14:41Z</time>
      </trkpt>
      <trkpt lat="43.57567" lon="1.25645">
        <ele>207.2</ele>
        <time>2023-04-28T14:14:45Z</time>
      </trkpt>
      <trkpt lat="43.57601" lon="1.25701">
        <ele>206.6</ele>
        <time>2023-04-28T14:14:53Z</time>
      </trkpt>
      <trkpt lat="43.57605" lon="1.25708">
        <ele>206.6</ele>
        <time>2023-04-28T14:14:54Z</time>
      </trkpt>
      <trkpt lat="43.57617" lon="1.25727">
        <ele>206.4</ele>
        <time>2023-04-28T14:14:57Z</time>
      </trkpt>
      <trkpt lat="43.57622" lon="1.25752">
        <ele>206</ele>
        <time>2023-04-28T14:15:00Z</time>
      </trkpt>
      <trkpt lat="43.57623" lon="1.2576">
        <ele>205.6</ele>
        <time>2023-04-28T14:15:01Z</time>
      </trkpt>
      <trkpt lat="43.57633" lon="1.2582">
        <ele>205</ele>
        <time>2023-04-28T14:15:07Z</time>
      </trkpt>
      <trkpt lat="43.57635" lon="1.25831">
        <ele>204.6</ele>
        <time>2023-04-28T14:15:08Z</time>
      </trkpt>
      <trkpt lat="43.57643" lon="1.25866">
        <ele>203.2</ele>
        <time>2023-04-28T14:15:11Z</time>
      </trkpt>
      <trkpt lat="43.57646" lon="1.25879">
        <ele>203</ele>
        <time>2023-04-28T14:15:12Z</time>
      </trkpt>
      <trkpt lat="43.57649" lon="1.25905">
        <ele>202</ele>
        <time>2023-04-28T14:15:14Z</time>
      </trkpt>
      <trkpt lat="43.57649" lon="1.25933">
        <ele>201.4</ele>
        <time>2023-04-28T14:15:16Z</time>
      </trkpt>
      <trkpt lat="43.57649" lon="1.25946">
        <ele>200.4</ele>
        <time>2023-04-28T14:15:17Z</time>
      </trkpt>
      <trkpt lat="43.57649" lon="1.25972">
        <ele>199.2</ele>
        <time>2023-04-28T14:15:19Z</time>
      </trkpt>
      <trkpt lat="43.5765" lon="1.26009">
        <ele>197.4</ele>
        <time>2023-04-28T14:15:22Z</time>
      </trkpt>
      <trkpt lat="43.5765" lon="1.26022">
        <ele>197</ele>
        <time>2023-04-28T14:15:23Z</time>
      </trkpt>
      <trkpt lat="43.57651" lon="1.26052">
        <ele>196.4</ele>
        <time>2023-04-28T14:15:26Z</time>
      </trkpt>
      <trkpt lat="43.57651" lon="1.26073">
        <ele>196</ele>
        <time>2023-04-28T14:15:28Z</time>
      </trkpt>
      <trkpt lat="43.57651" lon="1.26104">
        <ele>195.2</ele>
        <time>2023-04-28T14:15:31Z</time>
      </trkpt>
      <trkpt lat="43.57653" lon="1.26136">
        <ele>194.2</ele>
        <time>2023-04-28T14:15:34Z</time>
      </trkpt>
      <trkpt lat="43.57653" lon="1.26146">
        <ele>194</ele>
        <time>2023-04-28T14:15:35Z</time>
      </trkpt>
      <trkpt lat="43.57653" lon="1.262">
        <ele>193.2</ele>
        <time>2023-04-28T14:15:40Z</time>
      </trkpt>
      <trkpt lat="43.57654" lon="1.26211">
        <ele>192.8</ele>
        <time>2023-04-28T14:15:41Z</time>
      </trkpt>
      <trkpt lat="43.57654" lon="1.26221">
        <ele>192.8</ele>
        <time>2023-04-28T14:15:42Z</time>
      </trkpt>
      <trkpt lat="43.57653" lon="1.26243">
        <ele>192.6</ele>
        <time>2023-04-28T14:15:44Z</time>
      </trkpt>
      <trkpt lat="43.57653" lon="1.26253">
        <ele>192.6</ele>
        <time>2023-04-28T14:15:45Z</time>
      </trkpt>
      <trkpt lat="43.57655" lon="1.26328">
        <ele>192.4</ele>
        <time>2023-04-28T14:15:52Z</time>
      </trkpt>
      <trkpt lat="43.57657" lon="1.26379">
        <ele>192.4</ele>
        <time>2023-04-28T14:15:57Z</time>
      </trkpt>
      <trkpt lat="43.57658" lon="1.2643">
        <ele>191.8</ele>
        <time>2023-04-28T14:16:02Z</time>
      </trkpt>
      <trkpt lat="43.57659" lon="1.2647">
        <ele>191</ele>
        <time>2023-04-28T14:16:06Z</time>
      </trkpt>
      <trkpt lat="43.5766" lon="1.2649">
        <ele>190.6</ele>
        <time>2023-04-28T14:16:08Z</time>
      </trkpt>
      <trkpt lat="43.57662" lon="1.26553">
        <ele>189.6</ele>
        <time>2023-04-28T14:16:14Z</time>
      </trkpt>
      <trkpt lat="43.57663" lon="1.26574">
        <ele>189.4</ele>
        <time>2023-04-28T14:16:16Z</time>
      </trkpt>
      <trkpt lat="43.57663" lon="1.26584">
        <ele>189.4</ele>
        <time>2023-04-28T14:16:17Z</time>
      </trkpt>
      <trkpt lat="43.57664" lon="1.26604">
        <ele>188.6</ele>
        <time>2023-04-28T14:16:19Z</time>
      </trkpt>
      <trkpt lat="43.57665" lon="1.26645">
        <ele>187.4</ele>
        <time>2023-04-28T14:16:23Z</time>
      </trkpt>
      <trkpt lat="43.57666" lon="1.26677">
        <ele>187</ele>
        <time>2023-04-28T14:16:26Z</time>
      </trkpt>
      <trkpt lat="43.57671" lon="1.26739">
        <ele>186.4</ele>
        <time>2023-04-28T14:16:32Z</time>
      </trkpt>
      <trkpt lat="43.57672" lon="1.2676">
        <ele>186.2</ele>
        <time>2023-04-28T14:16:34Z</time>
      </trkpt>
      <trkpt lat="43.57674" lon="1.2679">
        <ele>185.6</ele>
        <time>2023-04-28T14:16:37Z</time>
      </trkpt>
      <trkpt lat="43.57672" lon="1.26809">
        <ele>185.4</ele>
        <time>2023-04-28T14:16:39Z</time>
      </trkpt>
      <trkpt lat="43.5767" lon="1.26818">
        <ele>185.2</ele>
        <time>2023-04-28T14:16:40Z</time>
      </trkpt>
      <trkpt lat="43.57663" lon="1.26844">
        <ele>184.8</ele>
        <time>2023-04-28T14:16:43Z</time>
      </trkpt>
      <trkpt lat="43.57662" lon="1.26854">
        <ele>184.6</ele>
        <time>2023-04-28T14:16:44Z</time>
      </trkpt>
      <trkpt lat="43.57661" lon="1.2688">
        <ele>184.4</ele>
        <time>2023-04-28T14:16:47Z</time>
      </trkpt>
      <trkpt lat="43.57662" lon="1.26897">
        <ele>184.4</ele>
        <time>2023-04-28T14:16:49Z</time>
      </trkpt>
      <trkpt lat="43.57662" lon="1.26904">
        <ele>184.4</ele>
        <time>2023-04-28T14:16:50Z</time>
      </trkpt>
      <trkpt lat="43.5766" lon="1.26919">
        <ele>184.4</ele>
        <time>2023-04-28T14:16:52Z</time>
      </trkpt>
      <trkpt lat="43.57646" lon="1.26951">
        <ele>184.6</ele>
        <time>2023-04-28T14:16:57Z</time>
      </trkpt>
      <trkpt lat="43.57623" lon="1.26998">
        <ele>185.8</ele>
        <time>2023-04-28T14:17:05Z</time>
      </trkpt>
      <trkpt lat="43.57616" lon="1.27016">
        <ele>186.4</ele>
        <time>2023-04-28T14:17:08Z</time>
      </trkpt>
      <trkpt lat="43.57611" lon="1.27034">
        <ele>186.8</ele>
        <time>2023-04-28T14:17:11Z</time>
      </trkpt>
      <trkpt lat="43.5761" lon="1.27046">
        <ele>187</ele>
        <time>2023-04-28T14:17:13Z</time>
      </trkpt>
      <trkpt lat="43.57611" lon="1.27058">
        <ele>187.4</ele>
        <time>2023-04-28T14:17:15Z</time>
      </trkpt>
      <trkpt lat="43.57612" lon="1.27064">
        <ele>187.6</ele>
        <time>2023-04-28T14:17:16Z</time>
      </trkpt>
      <trkpt lat="43.57617" lon="1.2708">
        <ele>188.2</ele>
        <time>2023-04-28T14:17:19Z</time>
      </trkpt>
      <trkpt lat="43.5762" lon="1.27084">
        <ele>188.6</ele>
        <time>2023-04-28T14:17:20Z</time>
      </trkpt>
      <trkpt lat="43.57623" lon="1.27087">
        <ele>188.8</ele>
        <time>2023-04-28T14:17:21Z</time>
      </trkpt>
      <trkpt lat="43.57633" lon="1.27096">
        <ele>189.8</ele>
        <time>2023-04-28T14:17:24Z</time>
      </trkpt>
      <trkpt lat="43.57641" lon="1.27105">
        <ele>190.6</ele>
        <time>2023-04-28T14:17:27Z</time>
      </trkpt>
      <trkpt lat="43.57648" lon="1.27111">
        <ele>191</ele>
        <time>2023-04-28T14:17:29Z</time>
      </trkpt>
      <trkpt lat="43.57662" lon="1.27125">
        <ele>192.2</ele>
        <time>2023-04-28T14:17:34Z</time>
      </trkpt>
      <trkpt lat="43.57672" lon="1.27134">
        <ele>193.4</ele>
        <time>2023-04-28T14:17:38Z</time>
      </trkpt>
      <trkpt lat="43.57674" lon="1.27136">
        <ele>193.8</ele>
        <time>2023-04-28T14:17:39Z</time>
      </trkpt>
      <trkpt lat="43.5768" lon="1.27142">
        <ele>194.6</ele>
        <time>2023-04-28T14:17:42Z</time>
      </trkpt>
      <trkpt lat="43.57685" lon="1.27146">
        <ele>195.6</ele>
        <time>2023-04-28T14:17:44Z</time>
      </trkpt>
      <trkpt lat="43.57687" lon="1.27147">
        <ele>195.6</ele>
        <time>2023-04-28T14:17:45Z</time>
      </trkpt>
      <trkpt lat="43.57697" lon="1.27157">
        <ele>196.8</ele>
        <time>2023-04-28T14:17:49Z</time>
      </trkpt>
      <trkpt lat="43.57702" lon="1.27161">
        <ele>197.4</ele>
        <time>2023-04-28T14:17:51Z</time>
      </trkpt>
      <trkpt lat="43.57707" lon="1.27167">
        <ele>198</ele>
        <time>2023-04-28T14:17:53Z</time>
      </trkpt>
      <trkpt lat="43.57718" lon="1.27177">
        <ele>199</ele>
        <time>2023-04-28T14:17:57Z</time>
      </trkpt>
      <trkpt lat="43.57723" lon="1.27184">
        <ele>199.4</ele>
        <time>2023-04-28T14:17:59Z</time>
      </trkpt>
      <trkpt lat="43.57729" lon="1.27194">
        <ele>200.6</ele>
        <time>2023-04-28T14:18:02Z</time>
      </trkpt>
      <trkpt lat="43.57733" lon="1.27205">
        <ele>201.4</ele>
        <time>2023-04-28T14:18:05Z</time>
      </trkpt>
      <trkpt lat="43.57734" lon="1.27209">
        <ele>201.6</ele>
        <time>2023-04-28T14:18:06Z</time>
      </trkpt>
      <trkpt lat="43.57737" lon="1.27226">
        <ele>202.8</ele>
        <time>2023-04-28T14:18:10Z</time>
      </trkpt>
      <trkpt lat="43.57738" lon="1.27232">
        <ele>203.8</ele>
        <time>2023-04-28T14:18:12Z</time>
      </trkpt>
      <trkpt lat="43.57738" lon="1.27236">
        <ele>204</ele>
        <time>2023-04-28T14:18:14Z</time>
      </trkpt>
      <trkpt lat="43.57737" lon="1.27243">
        <ele>204.6</ele>
        <time>2023-04-28T14:18:17Z</time>
      </trkpt>
      <trkpt lat="43.57739" lon="1.2726">
        <ele>205.2</ele>
        <time>2023-04-28T14:18:21Z</time>
      </trkpt>
      <trkpt lat="43.57745" lon="1.27268">
        <ele>205.2</ele>
        <time>2023-04-28T14:18:23Z</time>
      </trkpt>
      <trkpt lat="43.57749" lon="1.27269">
        <ele>205.4</ele>
        <time>2023-04-28T14:18:24Z</time>
      </trkpt>
      <trkpt lat="43.57754" lon="1.27269">
        <ele>205.6</ele>
        <time>2023-04-28T14:18:25Z</time>
      </trkpt>
      <trkpt lat="43.57768" lon="1.27266">
        <ele>205.6</ele>
        <time>2023-04-28T14:18:28Z</time>
      </trkpt>
      <trkpt lat="43.57805" lon="1.27272">
        <ele>206</ele>
        <time>2023-04-28T14:18:35Z</time>
      </trkpt>
      <trkpt lat="43.57844" lon="1.27279">
        <ele>206</ele>
        <time>2023-04-28T14:18:42Z</time>
      </trkpt>
      <trkpt lat="43.57898" lon="1.27289">
        <ele>205.6</ele>
        <time>2023-04-28T14:18:51Z</time>
      </trkpt>
      <trkpt lat="43.57956" lon="1.27302">
        <ele>205.4</ele>
        <time>2023-04-28T14:19:00Z</time>
      </trkpt>
      <trkpt lat="43.57963" lon="1.27304">
        <ele>205.2</ele>
        <time>2023-04-28T14:19:01Z</time>
      </trkpt>
      <trkpt lat="43.5798" lon="1.27309">
        <ele>205</ele>
        <time>2023-04-28T14:19:04Z</time>
      </trkpt>
      <trkpt lat="43.57984" lon="1.27313">
        <ele>205</ele>
        <time>2023-04-28T14:19:05Z</time>
      </trkpt>
      <trkpt lat="43.57985" lon="1.27318">
        <ele>205.2</ele>
        <time>2023-04-28T14:19:06Z</time>
      </trkpt>
      <trkpt lat="43.57985" lon="1.27325">
        <ele>205.2</ele>
        <time>2023-04-28T14:19:07Z</time>
      </trkpt>
      <trkpt lat="43.57977" lon="1.27366">
        <ele>205.4</ele>
        <time>2023-04-28T14:19:12Z</time>
      </trkpt>
      <trkpt lat="43.57967" lon="1.27437">
        <ele>205.6</ele>
        <time>2023-04-28T14:19:20Z</time>
      </trkpt>
      <trkpt lat="43.5796" lon="1.27481">
        <ele>205.6</ele>
        <time>2023-04-28T14:19:25Z</time>
      </trkpt>
      <trkpt lat="43.57957" lon="1.27507">
        <ele>205.6</ele>
        <time>2023-04-28T14:19:28Z</time>
      </trkpt>
      <trkpt lat="43.57945" lon="1.27586">
        <ele>205.4</ele>
        <time>2023-04-28T14:19:37Z</time>
      </trkpt>
      <trkpt lat="43.57932" lon="1.27653">
        <ele>205.8</ele>
        <time>2023-04-28T14:19:45Z</time>
      </trkpt>
      <trkpt lat="43.57919" lon="1.27726">
        <ele>206.2</ele>
        <time>2023-04-28T14:19:54Z</time>
      </trkpt>
      <trkpt lat="43.57917" lon="1.27742">
        <ele>206.2</ele>
        <time>2023-04-28T14:19:56Z</time>
      </trkpt>
      <trkpt lat="43.57908" lon="1.27804">
        <ele>206.2</ele>
        <time>2023-04-28T14:20:04Z</time>
      </trkpt>
      <trkpt lat="43.57903" lon="1.27835">
        <ele>206.4</ele>
        <time>2023-04-28T14:20:08Z</time>
      </trkpt>
      <trkpt lat="43.57896" lon="1.2788">
        <ele>206.6</ele>
        <time>2023-04-28T14:20:14Z</time>
      </trkpt>
      <trkpt lat="43.57885" lon="1.27949">
        <ele>206.2</ele>
        <time>2023-04-28T14:20:23Z</time>
      </trkpt>
      <trkpt lat="43.57869" lon="1.28014">
        <ele>206.2</ele>
        <time>2023-04-28T14:20:32Z</time>
      </trkpt>
      <trkpt lat="43.57865" lon="1.28036">
        <ele>206</ele>
        <time>2023-04-28T14:20:35Z</time>
      </trkpt>
      <trkpt lat="43.57865" lon="1.28059">
        <ele>206</ele>
        <time>2023-04-28T14:20:38Z</time>
      </trkpt>
      <trkpt lat="43.57873" lon="1.28125">
        <ele>205.8</ele>
        <time>2023-04-28T14:20:46Z</time>
      </trkpt>
      <trkpt lat="43.57882" lon="1.28193">
        <ele>206</ele>
        <time>2023-04-28T14:20:54Z</time>
      </trkpt>
      <trkpt lat="43.57893" lon="1.28274">
        <ele>206.2</ele>
        <time>2023-04-28T14:21:03Z</time>
      </trkpt>
      <trkpt lat="43.57902" lon="1.28347">
        <ele>206.6</ele>
        <time>2023-04-28T14:21:11Z</time>
      </trkpt>
      <trkpt lat="43.57904" lon="1.28365">
        <ele>206.6</ele>
        <time>2023-04-28T14:21:13Z</time>
      </trkpt>
      <trkpt lat="43.57914" lon="1.28444">
        <ele>206.8</ele>
        <time>2023-04-28T14:21:22Z</time>
      </trkpt>
      <trkpt lat="43.57916" lon="1.28461">
        <ele>207</ele>
        <time>2023-04-28T14:21:24Z</time>
      </trkpt>
      <trkpt lat="43.57923" lon="1.28515">
        <ele>206.6</ele>
        <time>2023-04-28T14:21:31Z</time>
      </trkpt>
      <trkpt lat="43.57927" lon="1.28533">
        <ele>206.4</ele>
        <time>2023-04-28T14:21:35Z</time>
      </trkpt>
      <trkpt lat="43.57934" lon="1.2855">
        <ele>206.2</ele>
        <time>2023-04-28T14:21:39Z</time>
      </trkpt>
      <trkpt lat="43.57937" lon="1.28554">
        <ele>206.2</ele>
        <time>2023-04-28T14:21:40Z</time>
      </trkpt>
      <trkpt lat="43.57954" lon="1.28582">
        <ele>206.2</ele>
        <time>2023-04-28T14:21:45Z</time>
      </trkpt>
      <trkpt lat="43.57987" lon="1.28639">
        <ele>206.2</ele>
        <time>2023-04-28T14:21:54Z</time>
      </trkpt>
      <trkpt lat="43.5802" lon="1.28697">
        <ele>206.2</ele>
        <time>2023-04-28T14:22:02Z</time>
      </trkpt>
      <trkpt lat="43.58039" lon="1.28735">
        <ele>206.2</ele>
        <time>2023-04-28T14:22:07Z</time>
      </trkpt>
      <trkpt lat="43.58047" lon="1.28757">
        <ele>206.2</ele>
        <time>2023-04-28T14:22:10Z</time>
      </trkpt>
      <trkpt lat="43.58062" lon="1.2881">
        <ele>206.2</ele>
        <time>2023-04-28T14:22:16Z</time>
      </trkpt>
      <trkpt lat="43.58071" lon="1.28888">
        <ele>206</ele>
        <time>2023-04-28T14:22:25Z</time>
      </trkpt>
      <trkpt lat="43.58072" lon="1.28898">
        <ele>206</ele>
        <time>2023-04-28T14:22:26Z</time>
      </trkpt>
      <trkpt lat="43.5808" lon="1.28971">
        <ele>205.8</ele>
        <time>2023-04-28T14:22:35Z</time>
      </trkpt>
      <trkpt lat="43.58083" lon="1.28995">
        <ele>205.6</ele>
        <time>2023-04-28T14:22:39Z</time>
      </trkpt>
      <trkpt lat="43.58083" lon="1.28997">
        <ele>205.6</ele>
        <time>2023-04-28T14:22:40Z</time>
      </trkpt>
      <trkpt lat="43.58082" lon="1.29005">
        <ele>205.4</ele>
        <time>2023-04-28T14:22:44Z</time>
      </trkpt>
      <trkpt lat="43.58083" lon="1.29005">
        <ele>205.4</ele>
        <time>2023-04-28T14:22:47Z</time>
      </trkpt>
      <trkpt lat="43.58083" lon="1.29009">
        <ele>205</ele>
        <time>2023-04-28T14:23:02Z</time>
      </trkpt>
      <trkpt lat="43.58083" lon="1.29013">
        <ele>205</ele>
        <time>2023-04-28T14:23:03Z</time>
      </trkpt>
      <trkpt lat="43.58087" lon="1.2903">
        <ele>205</ele>
        <time>2023-04-28T14:23:06Z</time>
      </trkpt>
      <trkpt lat="43.58087" lon="1.29036">
        <ele>205</ele>
        <time>2023-04-28T14:23:07Z</time>
      </trkpt>
      <trkpt lat="43.58091" lon="1.29084">
        <ele>204.8</ele>
        <time>2023-04-28T14:23:14Z</time>
      </trkpt>
      <trkpt lat="43.58095" lon="1.29106">
        <ele>205</ele>
        <time>2023-04-28T14:23:17Z</time>
      </trkpt>
      <trkpt lat="43.58098" lon="1.29118">
        <ele>205</ele>
        <time>2023-04-28T14:23:19Z</time>
      </trkpt>
      <trkpt lat="43.58099" lon="1.29127">
        <ele>205</ele>
        <time>2023-04-28T14:23:20Z</time>
      </trkpt>
      <trkpt lat="43.5811" lon="1.29176">
        <ele>205.6</ele>
        <time>2023-04-28T14:23:27Z</time>
      </trkpt>
      <trkpt lat="43.58119" lon="1.29227">
        <ele>205.6</ele>
        <time>2023-04-28T14:23:34Z</time>
      </trkpt>
      <trkpt lat="43.5813" lon="1.29283">
        <ele>205.2</ele>
        <time>2023-04-28T14:23:41Z</time>
      </trkpt>
      <trkpt lat="43.58141" lon="1.29347">
        <ele>205</ele>
        <time>2023-04-28T14:23:49Z</time>
      </trkpt>
      <trkpt lat="43.58147" lon="1.29386">
        <ele>205</ele>
        <time>2023-04-28T14:23:54Z</time>
      </trkpt>
      <trkpt lat="43.58149" lon="1.29403">
        <ele>205</ele>
        <time>2023-04-28T14:23:56Z</time>
      </trkpt>
      <trkpt lat="43.58156" lon="1.29466">
        <ele>205</ele>
        <time>2023-04-28T14:24:04Z</time>
      </trkpt>
      <trkpt lat="43.58157" lon="1.29545">
        <ele>205</ele>
        <time>2023-04-28T14:24:13Z</time>
      </trkpt>
      <trkpt lat="43.58157" lon="1.29553">
        <ele>205.2</ele>
        <time>2023-04-28T14:24:14Z</time>
      </trkpt>
      <trkpt lat="43.58156" lon="1.29571">
        <ele>205.2</ele>
        <time>2023-04-28T14:24:16Z</time>
      </trkpt>
      <trkpt lat="43.58155" lon="1.29625">
        <ele>205.4</ele>
        <time>2023-04-28T14:24:23Z</time>
      </trkpt>
      <trkpt lat="43.58149" lon="1.29697">
        <ele>205</ele>
        <time>2023-04-28T14:24:32Z</time>
      </trkpt>
      <trkpt lat="43.5814" lon="1.29746">
        <ele>205</ele>
        <time>2023-04-28T14:24:39Z</time>
      </trkpt>
      <trkpt lat="43.58142" lon="1.29802">
        <ele>204.6</ele>
        <time>2023-04-28T14:24:46Z</time>
      </trkpt>
      <trkpt lat="43.58141" lon="1.29852">
        <ele>204.4</ele>
        <time>2023-04-28T14:24:52Z</time>
      </trkpt>
      <trkpt lat="43.58138" lon="1.29923">
        <ele>204.4</ele>
        <time>2023-04-28T14:25:01Z</time>
      </trkpt>
      <trkpt lat="43.58136" lon="1.29966">
        <ele>204.6</ele>
        <time>2023-04-28T14:25:07Z</time>
      </trkpt>
      <trkpt lat="43.58134" lon="1.30003">
        <ele>205</ele>
        <time>2023-04-28T14:25:12Z</time>
      </trkpt>
      <trkpt lat="43.58131" lon="1.30041">
        <ele>205</ele>
        <time>2023-04-28T14:25:17Z</time>
      </trkpt>
      <trkpt lat="43.58126" lon="1.30086">
        <ele>205.2</ele>
        <time>2023-04-28T14:25:23Z</time>
      </trkpt>
      <trkpt lat="43.58124" lon="1.301">
        <ele>205.2</ele>
        <time>2023-04-28T14:25:25Z</time>
      </trkpt>
      <trkpt lat="43.58124" lon="1.30163">
        <ele>205.2</ele>
        <time>2023-04-28T14:25:33Z</time>
      </trkpt>
      <trkpt lat="43.58126" lon="1.30211">
        <ele>205.2</ele>
        <time>2023-04-28T14:25:39Z</time>
      </trkpt>
      <trkpt lat="43.58129" lon="1.30226">
        <ele>205.2</ele>
        <time>2023-04-28T14:25:41Z</time>
      </trkpt>
      <trkpt lat="43.5813" lon="1.30235">
        <ele>205.2</ele>
        <time>2023-04-28T14:25:42Z</time>
      </trkpt>
      <trkpt lat="43.58127" lon="1.30247">
        <ele>205</ele>
        <time>2023-04-28T14:25:44Z</time>
      </trkpt>
      <trkpt lat="43.58125" lon="1.30256">
        <ele>205</ele>
        <time>2023-04-28T14:25:46Z</time>
      </trkpt>
      <trkpt lat="43.58135" lon="1.30265">
        <ele>204.8</ele>
        <time>2023-04-28T14:25:49Z</time>
      </trkpt>
      <trkpt lat="43.58147" lon="1.30289">
        <ele>204.6</ele>
        <time>2023-04-28T14:25:53Z</time>
      </trkpt>
      <trkpt lat="43.58156" lon="1.30308">
        <ele>204.6</ele>
        <time>2023-04-28T14:25:56Z</time>
      </trkpt>
      <trkpt lat="43.5816" lon="1.30324">
        <ele>204.6</ele>
        <time>2023-04-28T14:25:58Z</time>
      </trkpt>
      <trkpt lat="43.58171" lon="1.30366">
        <ele>204.6</ele>
        <time>2023-04-28T14:26:03Z</time>
      </trkpt>
      <trkpt lat="43.58191" lon="1.30418">
        <ele>204.6</ele>
        <time>2023-04-28T14:26:10Z</time>
      </trkpt>
      <trkpt lat="43.58218" lon="1.30468">
        <ele>204.4</ele>
        <time>2023-04-28T14:26:17Z</time>
      </trkpt>
      <trkpt lat="43.58241" lon="1.3051">
        <ele>204.6</ele>
        <time>2023-04-28T14:26:23Z</time>
      </trkpt>
      <trkpt lat="43.58252" lon="1.3053">
        <ele>205</ele>
        <time>2023-04-28T14:26:26Z</time>
      </trkpt>
      <trkpt lat="43.58285" lon="1.30591">
        <ele>205</ele>
        <time>2023-04-28T14:26:35Z</time>
      </trkpt>
      <trkpt lat="43.58291" lon="1.30605">
        <ele>204.8</ele>
        <time>2023-04-28T14:26:37Z</time>
      </trkpt>
      <trkpt lat="43.58312" lon="1.30656">
        <ele>204.4</ele>
        <time>2023-04-28T14:26:44Z</time>
      </trkpt>
      <trkpt lat="43.5833" lon="1.30709">
        <ele>204.4</ele>
        <time>2023-04-28T14:26:51Z</time>
      </trkpt>
      <trkpt lat="43.58355" lon="1.30776">
        <ele>204.4</ele>
        <time>2023-04-28T14:27:00Z</time>
      </trkpt>
      <trkpt lat="43.58361" lon="1.30791">
        <ele>204.4</ele>
        <time>2023-04-28T14:27:02Z</time>
      </trkpt>
      <trkpt lat="43.58388" lon="1.30846">
        <ele>204.2</ele>
        <time>2023-04-28T14:27:10Z</time>
      </trkpt>
      <trkpt lat="43.58422" lon="1.30908">
        <ele>203.4</ele>
        <time>2023-04-28T14:27:19Z</time>
      </trkpt>
      <trkpt lat="43.58426" lon="1.30915">
        <ele>203.2</ele>
        <time>2023-04-28T14:27:20Z</time>
      </trkpt>
      <trkpt lat="43.58463" lon="1.30977">
        <ele>203.6</ele>
        <time>2023-04-28T14:27:29Z</time>
      </trkpt>
      <trkpt lat="43.5847" lon="1.30991">
        <ele>203.6</ele>
        <time>2023-04-28T14:27:31Z</time>
      </trkpt>
      <trkpt lat="43.58495" lon="1.31038">
        <ele>203.2</ele>
        <time>2023-04-28T14:27:38Z</time>
      </trkpt>
      <trkpt lat="43.58502" lon="1.31051">
        <ele>203.2</ele>
        <time>2023-04-28T14:27:40Z</time>
      </trkpt>
      <trkpt lat="43.58529" lon="1.31107">
        <ele>203</ele>
        <time>2023-04-28T14:27:48Z</time>
      </trkpt>
      <trkpt lat="43.5855" lon="1.31153">
        <ele>202.8</ele>
        <time>2023-04-28T14:27:54Z</time>
      </trkpt>
      <trkpt lat="43.58554" lon="1.3116">
        <ele>202.8</ele>
        <time>2023-04-28T14:27:55Z</time>
      </trkpt>
      <trkpt lat="43.5856" lon="1.31167">
        <ele>202.6</ele>
        <time>2023-04-28T14:27:56Z</time>
      </trkpt>
      <trkpt lat="43.58571" lon="1.31187">
        <ele>202.2</ele>
        <time>2023-04-28T14:27:59Z</time>
      </trkpt>
      <trkpt lat="43.58585" lon="1.31216">
        <ele>201.8</ele>
        <time>2023-04-28T14:28:03Z</time>
      </trkpt>
      <trkpt lat="43.58588" lon="1.31224">
        <ele>201.8</ele>
        <time>2023-04-28T14:28:04Z</time>
      </trkpt>
      <trkpt lat="43.58594" lon="1.31242">
        <ele>201.6</ele>
        <time>2023-04-28T14:28:06Z</time>
      </trkpt>
      <trkpt lat="43.58598" lon="1.31269">
        <ele>201.6</ele>
        <time>2023-04-28T14:28:09Z</time>
      </trkpt>
      <trkpt lat="43.586" lon="1.31342">
        <ele>202</ele>
        <time>2023-04-28T14:28:17Z</time>
      </trkpt>
      <trkpt lat="43.58603" lon="1.31377">
        <ele>202.2</ele>
        <time>2023-04-28T14:28:21Z</time>
      </trkpt>
      <trkpt lat="43.58606" lon="1.31403">
        <ele>202.6</ele>
        <time>2023-04-28T14:28:24Z</time>
      </trkpt>
      <trkpt lat="43.58609" lon="1.31439">
        <ele>202.6</ele>
        <time>2023-04-28T14:28:28Z</time>
      </trkpt>
      <trkpt lat="43.58612" lon="1.31457">
        <ele>202.6</ele>
        <time>2023-04-28T14:28:30Z</time>
      </trkpt>
      <trkpt lat="43.58619" lon="1.31522">
        <ele>202</ele>
        <time>2023-04-28T14:28:38Z</time>
      </trkpt>
      <trkpt lat="43.58626" lon="1.31595">
        <ele>201.8</ele>
        <time>2023-04-28T14:28:47Z</time>
      </trkpt>
      <trkpt lat="43.58633" lon="1.31671">
        <ele>201.6</ele>
        <time>2023-04-28T14:28:56Z</time>
      </trkpt>
      <trkpt lat="43.58635" lon="1.31687">
        <ele>201.6</ele>
        <time>2023-04-28T14:28:58Z</time>
      </trkpt>
      <trkpt lat="43.5864" lon="1.31727">
        <ele>201.6</ele>
        <time>2023-04-28T14:29:03Z</time>
      </trkpt>
      <trkpt lat="43.58651" lon="1.318">
        <ele>201.2</ele>
        <time>2023-04-28T14:29:11Z</time>
      </trkpt>
      <trkpt lat="43.58653" lon="1.3181">
        <ele>201</ele>
        <time>2023-04-28T14:29:12Z</time>
      </trkpt>
      <trkpt lat="43.58656" lon="1.31828">
        <ele>201</ele>
        <time>2023-04-28T14:29:14Z</time>
      </trkpt>
      <trkpt lat="43.58667" lon="1.31897">
        <ele>200.8</ele>
        <time>2023-04-28T14:29:22Z</time>
      </trkpt>
      <trkpt lat="43.58676" lon="1.31948">
        <ele>200.4</ele>
        <time>2023-04-28T14:29:28Z</time>
      </trkpt>
      <trkpt lat="43.58676" lon="1.31965">
        <ele>200.4</ele>
        <time>2023-04-28T14:29:30Z</time>
      </trkpt>
      <trkpt lat="43.5868" lon="1.31979">
        <ele>200.4</ele>
        <time>2023-04-28T14:29:32Z</time>
      </trkpt>
      <trkpt lat="43.58683" lon="1.31986">
        <ele>200.2</ele>
        <time>2023-04-28T14:29:33Z</time>
      </trkpt>
      <trkpt lat="43.58686" lon="1.31992">
        <ele>200.2</ele>
        <time>2023-04-28T14:29:34Z</time>
      </trkpt>
      <trkpt lat="43.58688" lon="1.32008">
        <ele>200</ele>
        <time>2023-04-28T14:29:36Z</time>
      </trkpt>
      <trkpt lat="43.58688" lon="1.32016">
        <ele>199.8</ele>
        <time>2023-04-28T14:29:37Z</time>
      </trkpt>
      <trkpt lat="43.58688" lon="1.32075">
        <ele>199.2</ele>
        <time>2023-04-28T14:29:44Z</time>
      </trkpt>
      <trkpt lat="43.58684" lon="1.32148">
        <ele>199.4</ele>
        <time>2023-04-28T14:29:53Z</time>
      </trkpt>
      <trkpt lat="43.58678" lon="1.32214">
        <ele>199.8</ele>
        <time>2023-04-28T14:30:02Z</time>
      </trkpt>
      <trkpt lat="43.58676" lon="1.3223">
        <ele>199.8</ele>
        <time>2023-04-28T14:30:06Z</time>
      </trkpt>
      <trkpt lat="43.58676" lon="1.32232">
        <ele>199.6</ele>
        <time>2023-04-28T14:30:07Z</time>
      </trkpt>
      <trkpt lat="43.58677" lon="1.32232">
        <ele>199.6</ele>
        <time>2023-04-28T14:30:09Z</time>
      </trkpt>
      <trkpt lat="43.58677" lon="1.32232">
        <ele>199.4</ele>
        <time>2023-04-28T14:30:10Z</time>
      </trkpt>
    </trkseg>
  </trk>
</gpx>